<?xml version='1.0' encoding='UTF-8'?><gpx version="1.1" creator="JPX - https://github.com/jenetics/jpx" xmlns="http://www.topografix.com/GPX/1/1"><trk><trkseg><trkpt lat="43.53846048953763" lon="13.01460189292683"><ele>149.0</ele><time>2026-04-18T12:39:52Z</time></trkpt><trkpt lat="43.53853302343348" lon="13.014540311937129"><ele>149.0</ele><time>2026-04-18T12:39:55Z</time></trkpt><trkpt lat="43.538602931832926" lon="13.014507859815206"><ele>149.0</ele><time>2026-04-18T12:39:58Z</time></trkpt><trkpt lat="43.538667439057804" lon="13.01447575457677"><ele>149.0</ele><time>2026-04-18T12:40:04Z</time></trkpt><trkpt lat="43.53872717794259" lon="13.014400893494216"><ele>149.0</ele><time>2026-04-18T12:40:08Z</time></trkpt><trkpt lat="43.538796941902476" lon="13.014351336704404"><ele>149.0</ele><time>2026-04-18T12:40:10Z</time></trkpt><trkpt lat="43.53887967819924" lon="13.014304831090977"><ele>149.0</ele><time>2026-04-18T12:40:12Z</time></trkpt><trkpt lat="43.53897850241167" lon="13.014283295946989"><ele>149.0</ele><time>2026-04-18T12:40:14Z</time></trkpt><trkpt lat="43.539084001600024" lon="13.014241021458306"><ele>149.0</ele><time>2026-04-18T12:40:16Z</time></trkpt><trkpt lat="43.539178328423255" lon="13.014169826554099"><ele>149.0</ele><time>2026-04-18T12:40:18Z</time></trkpt><trkpt lat="43.53926027846351" lon="13.014145537122863"><ele>149.0</ele><time>2026-04-18T12:40:21Z</time></trkpt><trkpt lat="43.539345193606" lon="13.01427420618332"><ele>149.0</ele><time>2026-04-18T12:40:24Z</time></trkpt><trkpt lat="43.539409799804375" lon="13.014425477944423"><ele>149.0</ele><time>2026-04-18T12:40:26Z</time></trkpt><trkpt lat="43.53945612872351" lon="13.014519043775309"><ele>149.0</ele><time>2026-04-18T12:40:27Z</time></trkpt><trkpt lat="43.53950539186712" lon="13.014622737718508"><ele>149.0</ele><time>2026-04-18T12:40:28Z</time></trkpt><trkpt lat="43.53955944261228" lon="13.014737457903651"><ele>149.0</ele><time>2026-04-18T12:40:29Z</time></trkpt><trkpt lat="43.53960725377981" lon="13.01484700364691"><ele>149.5</ele><time>2026-04-18T12:40:30Z</time></trkpt><trkpt lat="43.53963813100296" lon="13.014949864057483"><ele>150.0</ele><time>2026-04-18T12:40:31Z</time></trkpt><trkpt lat="43.53967593243556" lon="13.015056376195547"><ele>150.5</ele><time>2026-04-18T12:40:33Z</time></trkpt><trkpt lat="43.53971347936167" lon="13.015149297729758"><ele>151.0</ele><time>2026-04-18T12:40:35Z</time></trkpt><trkpt lat="43.53975853213386" lon="13.01526563994009"><ele>151.5</ele><time>2026-04-18T12:40:44Z</time></trkpt><trkpt lat="43.53978914779182" lon="13.015379875860853"><ele>152.0</ele><time>2026-04-18T12:40:46Z</time></trkpt><trkpt lat="43.53980308229068" lon="13.01547193685243"><ele>152.0</ele><time>2026-04-18T12:40:49Z</time></trkpt><trkpt lat="43.53984843500915" lon="13.015408689803255"><ele>152.0</ele><time>2026-04-18T12:40:59Z</time></trkpt><trkpt lat="43.539819587567834" lon="13.015252546482866"><ele>152.0</ele><time>2026-04-18T12:41:01Z</time></trkpt><trkpt lat="43.5397645779686" lon="13.01513735276375"><ele>152.0</ele><time>2026-04-18T12:41:02Z</time></trkpt><trkpt lat="43.53958809798712" lon="13.015072536663675"><ele>151.25</ele><time>2026-04-18T12:41:03Z</time></trkpt><trkpt lat="43.53954037421743" lon="13.014926958321075"><ele>150.5</ele><time>2026-04-18T12:41:04Z</time></trkpt><trkpt lat="43.53949327647345" lon="13.014783287391872"><ele>149.75</ele><time>2026-04-18T12:41:05Z</time></trkpt><trkpt lat="43.53944626052759" lon="13.01463986208781"><ele>149.0</ele><time>2026-04-18T12:41:06Z</time></trkpt><trkpt lat="43.5393970128268" lon="13.014489628661174"><ele>149.0</ele><time>2026-04-18T12:41:07Z</time></trkpt><trkpt lat="43.53940355564268" lon="13.014319689352432"><ele>149.0</ele><time>2026-04-18T12:41:08Z</time></trkpt><trkpt lat="43.53934112877188" lon="13.014197153750139"><ele>149.0</ele><time>2026-04-18T12:41:09Z</time></trkpt><trkpt lat="43.53928547800154" lon="13.014084606712235"><ele>149.0</ele><time>2026-04-18T12:41:10Z</time></trkpt><trkpt lat="43.539227302151076" lon="13.013965498197619"><ele>149.0</ele><time>2026-04-18T12:41:11Z</time></trkpt><trkpt lat="43.53916538076042" lon="13.013848580141033"><ele>150.25</ele><time>2026-04-18T12:41:12Z</time></trkpt><trkpt lat="43.53911330948233" lon="13.013706556931352"><ele>151.5</ele><time>2026-04-18T12:41:13Z</time></trkpt><trkpt lat="43.53906051675487" lon="13.013565716288165"><ele>152.75</ele><time>2026-04-18T12:41:14Z</time></trkpt><trkpt lat="43.539009509281136" lon="13.013414471914464"><ele>154.0</ele><time>2026-04-18T12:41:15Z</time></trkpt><trkpt lat="43.538957304432856" lon="13.013261267265072"><ele>154.2</ele><time>2026-04-18T12:41:16Z</time></trkpt><trkpt lat="43.53890309446851" lon="13.013104548734004"><ele>154.4</ele><time>2026-04-18T12:41:17Z</time></trkpt><trkpt lat="43.538853837155116" lon="13.012961611692413"><ele>154.6</ele><time>2026-04-18T12:41:18Z</time></trkpt><trkpt lat="43.538812186512324" lon="13.012840739963567"><ele>154.8</ele><time>2026-04-18T12:41:19Z</time></trkpt><trkpt lat="43.53877863257901" lon="13.012742508549513"><ele>155.0</ele><time>2026-04-18T12:41:20Z</time></trkpt><trkpt lat="43.53873698291927" lon="13.012619901904818"><ele>154.16666666666666</ele><time>2026-04-18T12:41:22Z</time></trkpt><trkpt lat="43.53871014870232" lon="13.012540908448909"><ele>153.33333333333331</ele><time>2026-04-18T12:41:37Z</time></trkpt><trkpt lat="43.53865650785496" lon="13.01238300271422"><ele>152.5</ele><time>2026-04-18T12:41:39Z</time></trkpt><trkpt lat="43.53862131747936" lon="13.01228423303333"><ele>151.66666666666666</ele><time>2026-04-18T12:41:40Z</time></trkpt><trkpt lat="43.53858275812172" lon="13.01217657425692"><ele>150.83333333333334</ele><time>2026-04-18T12:41:41Z</time></trkpt><trkpt lat="43.53852915650039" lon="13.012077175782965"><ele>150.0</ele><time>2026-04-18T12:41:42Z</time></trkpt><trkpt lat="43.53848645907264" lon="13.01195572949832"><ele>150.25</ele><time>2026-04-18T12:41:43Z</time></trkpt><trkpt lat="43.5384533225107" lon="13.011810948447712"><ele>150.5</ele><time>2026-04-18T12:41:44Z</time></trkpt><trkpt lat="43.5384024776578" lon="13.011665383092465"><ele>150.75</ele><time>2026-04-18T12:41:45Z</time></trkpt><trkpt lat="43.538347379219395" lon="13.011507639815648"><ele>151.0</ele><time>2026-04-18T12:41:46Z</time></trkpt><trkpt lat="43.538291021868616" lon="13.011346292529886"><ele>151.0</ele><time>2026-04-18T12:41:47Z</time></trkpt><trkpt lat="43.53823292739762" lon="13.011179971767207"><ele>151.0</ele><time>2026-04-18T12:41:48Z</time></trkpt><trkpt lat="43.53817377462004" lon="13.011010621392732"><ele>151.0</ele><time>2026-04-18T12:41:49Z</time></trkpt><trkpt lat="43.53811300126232" lon="13.010836631361615"><ele>151.0</ele><time>2026-04-18T12:41:50Z</time></trkpt><trkpt lat="43.538052284982555" lon="13.010662804671366"><ele>151.16666666666669</ele><time>2026-04-18T12:41:51Z</time></trkpt><trkpt lat="43.537983772793375" lon="13.010520830297388"><ele>151.33333333333334</ele><time>2026-04-18T12:41:52Z</time></trkpt><trkpt lat="43.53795736735993" lon="13.010393808471804"><ele>151.5</ele><time>2026-04-18T12:41:53Z</time></trkpt><trkpt lat="43.53792420087549" lon="13.010299922610216"><ele>151.66666666666666</ele><time>2026-04-18T12:41:54Z</time></trkpt><trkpt lat="43.53789218367742" lon="13.010209289805617"><ele>151.83333333333331</ele><time>2026-04-18T12:41:55Z</time></trkpt><trkpt lat="43.537861401456354" lon="13.01012215357681"><ele>152.0</ele><time>2026-04-18T12:41:56Z</time></trkpt><trkpt lat="43.53782951834778" lon="13.010031896994139"><ele>151.75</ele><time>2026-04-18T12:41:57Z</time></trkpt><trkpt lat="43.53778855924183" lon="13.009919481981418"><ele>151.5</ele><time>2026-04-18T12:41:58Z</time></trkpt><trkpt lat="43.53774093799911" lon="13.009787752133896"><ele>151.25</ele><time>2026-04-18T12:41:59Z</time></trkpt><trkpt lat="43.53768383886905" lon="13.009629599662476"><ele>151.0</ele><time>2026-04-18T12:42:00Z</time></trkpt><trkpt lat="43.53762243182253" lon="13.009459514887958"><ele>151.0</ele><time>2026-04-18T12:42:01Z</time></trkpt><trkpt lat="43.537537137819434" lon="13.00926835556057"><ele>151.0</ele><time>2026-04-18T12:42:02Z</time></trkpt><trkpt lat="43.537463541982746" lon="13.009065302122805"><ele>151.0</ele><time>2026-04-18T12:42:03Z</time></trkpt><trkpt lat="43.53740495793975" lon="13.008843956369072"><ele>151.33333333333334</ele><time>2026-04-18T12:42:04Z</time></trkpt><trkpt lat="43.537332149450506" lon="13.008633688292035"><ele>151.66666666666666</ele><time>2026-04-18T12:42:05Z</time></trkpt><trkpt lat="43.537254550824166" lon="13.008410195567938"><ele>152.0</ele><time>2026-04-18T12:42:06Z</time></trkpt><trkpt lat="43.53717179253862" lon="13.00817338659876"><ele>152.0</ele><time>2026-04-18T12:42:07Z</time></trkpt><trkpt lat="43.53708484212794" lon="13.007924581948046"><ele>152.0</ele><time>2026-04-18T12:42:08Z</time></trkpt><trkpt lat="43.53699583462927" lon="13.00767230731823"><ele>152.0</ele><time>2026-04-18T12:42:09Z</time></trkpt><trkpt lat="43.5369134042756" lon="13.007437989703538"><ele>152.33333333333331</ele><time>2026-04-18T12:42:10Z</time></trkpt><trkpt lat="43.53682325946726" lon="13.007228296480296"><ele>152.66666666666666</ele><time>2026-04-18T12:42:11Z</time></trkpt><trkpt lat="43.53675171770928" lon="13.007021688399394"><ele>153.0</ele><time>2026-04-18T12:42:12Z</time></trkpt><trkpt lat="43.536678718931924" lon="13.006826527697735"><ele>153.25</ele><time>2026-04-18T12:42:13Z</time></trkpt><trkpt lat="43.53662561501072" lon="13.006626253534726"><ele>153.5</ele><time>2026-04-18T12:42:14Z</time></trkpt><trkpt lat="43.53654708305189" lon="13.006452757121883"><ele>153.75</ele><time>2026-04-18T12:42:15Z</time></trkpt><trkpt lat="43.536485088223436" lon="13.00627073128553"><ele>154.0</ele><time>2026-04-18T12:42:16Z</time></trkpt><trkpt lat="43.53642413995926" lon="13.006093767367794"><ele>154.0</ele><time>2026-04-18T12:42:17Z</time></trkpt><trkpt lat="43.536376565851626" lon="13.005907899661944"><ele>154.0</ele><time>2026-04-18T12:42:18Z</time></trkpt><trkpt lat="43.5363195490956" lon="13.00572678083719"><ele>154.0</ele><time>2026-04-18T12:42:19Z</time></trkpt><trkpt lat="43.53626452687365" lon="13.005535875648656"><ele>154.0</ele><time>2026-04-18T12:42:20Z</time></trkpt><trkpt lat="43.53621019495201" lon="13.005341896395139"><ele>154.0</ele><time>2026-04-18T12:42:21Z</time></trkpt><trkpt lat="43.53614948705519" lon="13.005130189088874"><ele>154.0</ele><time>2026-04-18T12:42:22Z</time></trkpt><trkpt lat="43.53607250643135" lon="13.004884348775379"><ele>154.0</ele><time>2026-04-18T12:42:23Z</time></trkpt><trkpt lat="43.53594831236906" lon="13.004633323430845"><ele>154.0</ele><time>2026-04-18T12:42:24Z</time></trkpt><trkpt lat="43.535841217891694" lon="13.00434853343677"><ele>154.0</ele><time>2026-04-18T12:42:25Z</time></trkpt><trkpt lat="43.53573566225726" lon="13.004056594836662"><ele>155.5</ele><time>2026-04-18T12:42:26Z</time></trkpt><trkpt lat="43.535634885197304" lon="13.003763823226317"><ele>157.0</ele><time>2026-04-18T12:42:27Z</time></trkpt><trkpt lat="43.53553064853402" lon="13.003502075846077"><ele>157.66666666666669</ele><time>2026-04-18T12:42:28Z</time></trkpt><trkpt lat="43.53545182387568" lon="13.003268848193683"><ele>158.33333333333334</ele><time>2026-04-18T12:42:29Z</time></trkpt><trkpt lat="43.53537615106986" lon="13.0030504267219"><ele>159.0</ele><time>2026-04-18T12:42:30Z</time></trkpt><trkpt lat="43.5353182123886" lon="13.002836931466137"><ele>159.33333333333334</ele><time>2026-04-18T12:42:31Z</time></trkpt><trkpt lat="43.53525080882293" lon="13.002642366312678"><ele>159.66666666666669</ele><time>2026-04-18T12:42:32Z</time></trkpt><trkpt lat="43.53516795095269" lon="13.002400630847832"><ele>160.0</ele><time>2026-04-18T12:42:33Z</time></trkpt><trkpt lat="43.53509003738795" lon="13.002180939161315"><ele>160.33333333333334</ele><time>2026-04-18T12:42:34Z</time></trkpt><trkpt lat="43.53501107626183" lon="13.001969927776766"><ele>160.66666666666666</ele><time>2026-04-18T12:42:35Z</time></trkpt><trkpt lat="43.53493283138585" lon="13.001760833845623"><ele>161.0</ele><time>2026-04-18T12:42:36Z</time></trkpt><trkpt lat="43.534856529114165" lon="13.001556427816235"><ele>161.0</ele><time>2026-04-18T12:42:37Z</time></trkpt><trkpt lat="43.5347779844621" lon="13.001346179739146"><ele>161.0</ele><time>2026-04-18T12:42:38Z</time></trkpt><trkpt lat="43.53470250185665" lon="13.001143667405572"><ele>161.0</ele><time>2026-04-18T12:42:39Z</time></trkpt><trkpt lat="43.53462636229139" lon="13.000939342425477"><ele>159.33333333333331</ele><time>2026-04-18T12:42:40Z</time></trkpt><trkpt lat="43.53454991164988" lon="13.000734182645191"><ele>157.66666666666666</ele><time>2026-04-18T12:42:41Z</time></trkpt><trkpt lat="43.53447646450637" lon="13.000537082849185"><ele>156.0</ele><time>2026-04-18T12:42:42Z</time></trkpt><trkpt lat="43.53440405845106" lon="13.000341806005846"><ele>156.0</ele><time>2026-04-18T12:42:43Z</time></trkpt><trkpt lat="43.53433152147797" lon="13.000144586726991"><ele>156.0</ele><time>2026-04-18T12:42:44Z</time></trkpt><trkpt lat="43.53425470554054" lon="12.999928483435077"><ele>156.0</ele><time>2026-04-18T12:42:45Z</time></trkpt><trkpt lat="43.534176039206706" lon="12.999706951819556"><ele>156.0</ele><time>2026-04-18T12:42:46Z</time></trkpt><trkpt lat="43.53409514832954" lon="12.999476960521447"><ele>156.0</ele><time>2026-04-18T12:42:47Z</time></trkpt><trkpt lat="43.53401040291339" lon="12.999236010280354"><ele>156.0</ele><time>2026-04-18T12:42:48Z</time></trkpt><trkpt lat="43.53392343523265" lon="12.998987120115489"><ele>157.33333333333334</ele><time>2026-04-18T12:42:49Z</time></trkpt><trkpt lat="43.53383699622384" lon="12.998734648585197"><ele>158.66666666666669</ele><time>2026-04-18T12:42:50Z</time></trkpt><trkpt lat="43.533757231328245" lon="12.99850167089848"><ele>160.0</ele><time>2026-04-18T12:42:51Z</time></trkpt><trkpt lat="43.53368132713195" lon="12.998279969554993"><ele>160.0</ele><time>2026-04-18T12:42:52Z</time></trkpt><trkpt lat="43.533601691799014" lon="12.998049259918426"><ele>160.0</ele><time>2026-04-18T12:42:53Z</time></trkpt><trkpt lat="43.53352041525668" lon="12.997814671833803"><ele>160.0</ele><time>2026-04-18T12:42:54Z</time></trkpt><trkpt lat="43.53343667415071" lon="12.997572970459291"><ele>160.66666666666669</ele><time>2026-04-18T12:42:55Z</time></trkpt><trkpt lat="43.53335227939091" lon="12.997329382269944"><ele>161.33333333333334</ele><time>2026-04-18T12:42:56Z</time></trkpt><trkpt lat="43.53326863001023" lon="12.99708821144507"><ele>162.0</ele><time>2026-04-18T12:42:57Z</time></trkpt><trkpt lat="43.53318400053144" lon="12.996844746345673"><ele>164.0</ele><time>2026-04-18T12:42:58Z</time></trkpt><trkpt lat="43.53309448906194" lon="12.996595769085586"><ele>166.0</ele><time>2026-04-18T12:42:59Z</time></trkpt><trkpt lat="43.53300149475062" lon="12.996338028143928"><ele>168.0</ele><time>2026-04-18T12:43:00Z</time></trkpt><trkpt lat="43.532910090295346" lon="12.996085166635396"><ele>167.33333333333334</ele><time>2026-04-18T12:43:01Z</time></trkpt><trkpt lat="43.53281185611816" lon="12.995814856318011"><ele>166.66666666666669</ele><time>2026-04-18T12:43:02Z</time></trkpt><trkpt lat="43.53271499054333" lon="12.995547492126823"><ele>166.0</ele><time>2026-04-18T12:43:03Z</time></trkpt><trkpt lat="43.53261806353556" lon="12.995274032604435"><ele>166.0</ele><time>2026-04-18T12:43:04Z</time></trkpt><trkpt lat="43.532524698043204" lon="12.995008355286515"><ele>166.0</ele><time>2026-04-18T12:43:05Z</time></trkpt><trkpt lat="43.53243412227903" lon="12.99475061591456"><ele>166.0</ele><time>2026-04-18T12:43:06Z</time></trkpt><trkpt lat="43.5323431874664" lon="12.99449185515118"><ele>167.33333333333334</ele><time>2026-04-18T12:43:07Z</time></trkpt><trkpt lat="43.53225242396624" lon="12.994233572783532"><ele>168.66666666666666</ele><time>2026-04-18T12:43:08Z</time></trkpt><trkpt lat="43.53215720568031" lon="12.993962606601476"><ele>170.0</ele><time>2026-04-18T12:43:09Z</time></trkpt><trkpt lat="43.53206299198452" lon="12.993692109644865"><ele>169.33333333333331</ele><time>2026-04-18T12:43:10Z</time></trkpt><trkpt lat="43.53197504795058" lon="12.993443472605795"><ele>168.66666666666666</ele><time>2026-04-18T12:43:11Z</time></trkpt><trkpt lat="43.53188423402586" lon="12.99318788929469"><ele>168.0</ele><time>2026-04-18T12:43:12Z</time></trkpt><trkpt lat="43.531793756709554" lon="12.992936722263083"><ele>169.66666666666666</ele><time>2026-04-18T12:43:13Z</time></trkpt><trkpt lat="43.53169854032201" lon="12.992672394512834"><ele>171.33333333333331</ele><time>2026-04-18T12:43:14Z</time></trkpt><trkpt lat="43.53160969376052" lon="12.992426392868868"><ele>173.0</ele><time>2026-04-18T12:43:15Z</time></trkpt><trkpt lat="43.531527992837546" lon="12.992197653824265"><ele>173.66666666666666</ele><time>2026-04-18T12:43:16Z</time></trkpt><trkpt lat="43.53145266693042" lon="12.991970444604332"><ele>174.33333333333334</ele><time>2026-04-18T12:43:17Z</time></trkpt><trkpt lat="43.531384252748424" lon="12.991723896974626"><ele>175.0</ele><time>2026-04-18T12:43:18Z</time></trkpt><trkpt lat="43.5313207874866" lon="12.991434436673554"><ele>175.66666666666669</ele><time>2026-04-18T12:43:19Z</time></trkpt><trkpt lat="43.53125839274871" lon="12.99113059236499"><ele>176.33333333333334</ele><time>2026-04-18T12:43:20Z</time></trkpt><trkpt lat="43.53120010792735" lon="12.99083940724289"><ele>177.0</ele><time>2026-04-18T12:43:21Z</time></trkpt><trkpt lat="43.53116852213882" lon="12.990559066319523"><ele>175.33333333333334</ele><time>2026-04-18T12:43:22Z</time></trkpt><trkpt lat="43.53115125377411" lon="12.990279928513608"><ele>173.66666666666669</ele><time>2026-04-18T12:43:23Z</time></trkpt><trkpt lat="43.53112946296871" lon="12.989999351523656"><ele>172.0</ele><time>2026-04-18T12:43:24Z</time></trkpt><trkpt lat="43.53107376938551" lon="12.989733645307705"><ele>172.0</ele><time>2026-04-18T12:43:25Z</time></trkpt><trkpt lat="43.53098375125917" lon="12.989487411624705"><ele>172.0</ele><time>2026-04-18T12:43:26Z</time></trkpt><trkpt lat="43.53085683260567" lon="12.989264643157439"><ele>172.0</ele><time>2026-04-18T12:43:27Z</time></trkpt><trkpt lat="43.53072815377144" lon="12.989021511895498"><ele>171.66666666666669</ele><time>2026-04-18T12:43:28Z</time></trkpt><trkpt lat="43.53059633617714" lon="12.98878760118284"><ele>171.33333333333334</ele><time>2026-04-18T12:43:29Z</time></trkpt><trkpt lat="43.53047286028299" lon="12.988568493441083"><ele>171.0</ele><time>2026-04-18T12:43:30Z</time></trkpt><trkpt lat="43.530354817593796" lon="12.988359554807838"><ele>172.0</ele><time>2026-04-18T12:43:31Z</time></trkpt><trkpt lat="43.530236688760596" lon="12.988150420937579"><ele>173.0</ele><time>2026-04-18T12:43:32Z</time></trkpt><trkpt lat="43.530130162961974" lon="12.987961831498058"><ele>174.0</ele><time>2026-04-18T12:43:33Z</time></trkpt><trkpt lat="43.53005297535444" lon="12.987824239167121"><ele>174.0</ele><time>2026-04-18T12:43:34Z</time></trkpt><trkpt lat="43.529996710886984" lon="12.987724208692105"><ele>174.0</ele><time>2026-04-18T12:43:35Z</time></trkpt><trkpt lat="43.52993541565865" lon="12.98761523393345"><ele>174.0</ele><time>2026-04-18T12:43:36Z</time></trkpt><trkpt lat="43.52985846366803" lon="12.98751108100417"><ele>174.0</ele><time>2026-04-18T12:43:37Z</time></trkpt><trkpt lat="43.5297872901466" lon="12.987397084413724"><ele>174.0</ele><time>2026-04-18T12:43:38Z</time></trkpt><trkpt lat="43.529712335390485" lon="12.987297736486248"><ele>174.75</ele><time>2026-04-18T12:43:39Z</time></trkpt><trkpt lat="43.52964082102909" lon="12.987199483308524"><ele>175.5</ele><time>2026-04-18T12:43:40Z</time></trkpt><trkpt lat="43.52956424464194" lon="12.98709083130509"><ele>176.25</ele><time>2026-04-18T12:43:41Z</time></trkpt><trkpt lat="43.52948082669976" lon="12.986972763798354"><ele>177.0</ele><time>2026-04-18T12:43:42Z</time></trkpt><trkpt lat="43.529405088735004" lon="12.986825980687673"><ele>176.0</ele><time>2026-04-18T12:43:43Z</time></trkpt><trkpt lat="43.52931756561976" lon="12.986654161580235"><ele>175.0</ele><time>2026-04-18T12:43:44Z</time></trkpt><trkpt lat="43.529211348054304" lon="12.986428439700974"><ele>174.0</ele><time>2026-04-18T12:43:45Z</time></trkpt><trkpt lat="43.529096207599636" lon="12.986173988716823"><ele>174.0</ele><time>2026-04-18T12:43:46Z</time></trkpt><trkpt lat="43.52896960477776" lon="12.985887835910932"><ele>174.0</ele><time>2026-04-18T12:43:47Z</time></trkpt><trkpt lat="43.52882687036116" lon="12.985603838545824"><ele>175.0</ele><time>2026-04-18T12:43:48Z</time></trkpt><trkpt lat="43.528700446589276" lon="12.985315616365671"><ele>176.0</ele><time>2026-04-18T12:43:49Z</time></trkpt><trkpt lat="43.528575253184364" lon="12.985056940687079"><ele>177.66666666666666</ele><time>2026-04-18T12:43:50Z</time></trkpt><trkpt lat="43.528474292738636" lon="12.984808837918179"><ele>179.33333333333334</ele><time>2026-04-18T12:43:51Z</time></trkpt><trkpt lat="43.52836305328254" lon="12.98457900806738"><ele>181.0</ele><time>2026-04-18T12:43:52Z</time></trkpt><trkpt lat="43.52825352881311" lon="12.984352938542974"><ele>182.0</ele><time>2026-04-18T12:43:53Z</time></trkpt><trkpt lat="43.528150570042996" lon="12.984140454300633"><ele>183.0</ele><time>2026-04-18T12:43:54Z</time></trkpt><trkpt lat="43.52804138640829" lon="12.983954963236505"><ele>184.0</ele><time>2026-04-18T12:43:55Z</time></trkpt><trkpt lat="43.52796761714471" lon="12.983761989303684"><ele>183.5</ele><time>2026-04-18T12:43:56Z</time></trkpt><trkpt lat="43.52788365818529" lon="12.983588101487186"><ele>183.0</ele><time>2026-04-18T12:43:57Z</time></trkpt><trkpt lat="43.5278040511818" lon="12.983420837025031"><ele>182.5</ele><time>2026-04-18T12:43:58Z</time></trkpt><trkpt lat="43.52772085460794" lon="12.983245438233547"><ele>182.0</ele><time>2026-04-18T12:43:59Z</time></trkpt><trkpt lat="43.52762447750591" lon="12.98308130448798"><ele>183.66666666666666</ele><time>2026-04-18T12:44:00Z</time></trkpt><trkpt lat="43.52754042145301" lon="12.98290187391118"><ele>185.33333333333334</ele><time>2026-04-18T12:44:01Z</time></trkpt><trkpt lat="43.5274548902233" lon="12.982722500989086"><ele>187.0</ele><time>2026-04-18T12:44:02Z</time></trkpt><trkpt lat="43.52736809502427" lon="12.982533190331544"><ele>187.0</ele><time>2026-04-18T12:44:03Z</time></trkpt><trkpt lat="43.527298168823535" lon="12.982341415314458"><ele>187.0</ele><time>2026-04-18T12:44:04Z</time></trkpt><trkpt lat="43.52720867703117" lon="12.982158871501317"><ele>187.0</ele><time>2026-04-18T12:44:05Z</time></trkpt><trkpt lat="43.52709070657444" lon="12.981991611254807"><ele>187.66666666666669</ele><time>2026-04-18T12:44:06Z</time></trkpt><trkpt lat="43.526979512573746" lon="12.98181814121328"><ele>188.33333333333334</ele><time>2026-04-18T12:44:07Z</time></trkpt><trkpt lat="43.52685623980614" lon="12.9816501899319"><ele>189.0</ele><time>2026-04-18T12:44:08Z</time></trkpt><trkpt lat="43.52672171663614" lon="12.981487165853473"><ele>189.0</ele><time>2026-04-18T12:44:09Z</time></trkpt><trkpt lat="43.52658764043116" lon="12.98131590095238"><ele>189.0</ele><time>2026-04-18T12:44:10Z</time></trkpt><trkpt lat="43.52645613558005" lon="12.981142232114301"><ele>189.0</ele><time>2026-04-18T12:44:11Z</time></trkpt><trkpt lat="43.52632350180592" lon="12.98096678945047"><ele>188.66666666666666</ele><time>2026-04-18T12:44:12Z</time></trkpt><trkpt lat="43.526176599336914" lon="12.980765807895127"><ele>188.33333333333331</ele><time>2026-04-18T12:44:13Z</time></trkpt><trkpt lat="43.52601775046866" lon="12.980556162436574"><ele>188.0</ele><time>2026-04-18T12:44:14Z</time></trkpt><trkpt lat="43.52585133214519" lon="12.980345739408186"><ele>188.0</ele><time>2026-04-18T12:44:15Z</time></trkpt><trkpt lat="43.52569641103759" lon="12.980158851082935"><ele>188.0</ele><time>2026-04-18T12:44:16Z</time></trkpt><trkpt lat="43.52554930369676" lon="12.979981723373296"><ele>188.0</ele><time>2026-04-18T12:44:17Z</time></trkpt><trkpt lat="43.52540647666198" lon="12.979813458802381"><ele>188.66666666666666</ele><time>2026-04-18T12:44:18Z</time></trkpt><trkpt lat="43.52526370031911" lon="12.979646180405645"><ele>189.33333333333334</ele><time>2026-04-18T12:44:19Z</time></trkpt><trkpt lat="43.525122516970946" lon="12.979479476414843"><ele>190.0</ele><time>2026-04-18T12:44:20Z</time></trkpt><trkpt lat="43.52498594650401" lon="12.979310256751564"><ele>189.66666666666669</ele><time>2026-04-18T12:44:21Z</time></trkpt><trkpt lat="43.52484738730679" lon="12.979133245751244"><ele>189.33333333333334</ele><time>2026-04-18T12:44:22Z</time></trkpt><trkpt lat="43.52470619471623" lon="12.978965498101246"><ele>189.0</ele><time>2026-04-18T12:44:23Z</time></trkpt><trkpt lat="43.524558275058844" lon="12.978792969678693"><ele>189.0</ele><time>2026-04-18T12:44:24Z</time></trkpt><trkpt lat="43.52440718143697" lon="12.978585263299172"><ele>189.0</ele><time>2026-04-18T12:44:25Z</time></trkpt><trkpt lat="43.52423891039789" lon="12.978383028985725"><ele>189.0</ele><time>2026-04-18T12:44:26Z</time></trkpt><trkpt lat="43.52407024276885" lon="12.978182798716633"><ele>189.33333333333334</ele><time>2026-04-18T12:44:27Z</time></trkpt><trkpt lat="43.523912861625305" lon="12.977996267636842"><ele>189.66666666666669</ele><time>2026-04-18T12:44:28Z</time></trkpt><trkpt lat="43.52374874898975" lon="12.977801758324436"><ele>190.0</ele><time>2026-04-18T12:44:29Z</time></trkpt><trkpt lat="43.523578033146315" lon="12.97759797717642"><ele>190.0</ele><time>2026-04-18T12:44:30Z</time></trkpt><trkpt lat="43.52340332603361" lon="12.977389308965558"><ele>190.0</ele><time>2026-04-18T12:44:31Z</time></trkpt><trkpt lat="43.52323715601257" lon="12.97719091118531"><ele>190.0</ele><time>2026-04-18T12:44:32Z</time></trkpt><trkpt lat="43.52306775434423" lon="12.977018849246347"><ele>190.0</ele><time>2026-04-18T12:44:33Z</time></trkpt><trkpt lat="43.522906517190435" lon="12.976833226061292"><ele>190.0</ele><time>2026-04-18T12:44:34Z</time></trkpt><trkpt lat="43.52274418735177" lon="12.976647974470616"><ele>191.5</ele><time>2026-04-18T12:44:35Z</time></trkpt><trkpt lat="43.52257104018116" lon="12.97645093868247"><ele>193.0</ele><time>2026-04-18T12:44:36Z</time></trkpt><trkpt lat="43.52239170606402" lon="12.976243603797972"><ele>193.0</ele><time>2026-04-18T12:44:37Z</time></trkpt><trkpt lat="43.52221955174474" lon="12.976042696026955"><ele>193.0</ele><time>2026-04-18T12:44:38Z</time></trkpt><trkpt lat="43.52206266799734" lon="12.97585530534231"><ele>193.0</ele><time>2026-04-18T12:44:39Z</time></trkpt><trkpt lat="43.52190113809896" lon="12.975659380843844"><ele>193.0</ele><time>2026-04-18T12:44:40Z</time></trkpt><trkpt lat="43.5217356764205" lon="12.975460624631951"><ele>193.0</ele><time>2026-04-18T12:44:41Z</time></trkpt><trkpt lat="43.5215618182276" lon="12.975260233442496"><ele>193.0</ele><time>2026-04-18T12:44:42Z</time></trkpt><trkpt lat="43.52139702551624" lon="12.975040619834196"><ele>194.0</ele><time>2026-04-18T12:44:43Z</time></trkpt><trkpt lat="43.521216177622655" lon="12.974836300188654"><ele>195.0</ele><time>2026-04-18T12:44:44Z</time></trkpt><trkpt lat="43.521034948160505" lon="12.974639410215953"><ele>195.0</ele><time>2026-04-18T12:44:45Z</time></trkpt><trkpt lat="43.5208555879054" lon="12.974449919024003"><ele>195.0</ele><time>2026-04-18T12:44:46Z</time></trkpt><trkpt lat="43.520669329456624" lon="12.974258377904576"><ele>197.0</ele><time>2026-04-18T12:44:47Z</time></trkpt><trkpt lat="43.52047775453058" lon="12.974096591295664"><ele>199.0</ele><time>2026-04-18T12:44:48Z</time></trkpt><trkpt lat="43.52029701844516" lon="12.973918718373376"><ele>201.0</ele><time>2026-04-18T12:44:49Z</time></trkpt><trkpt lat="43.520117924607" lon="12.973750223804862"><ele>201.0</ele><time>2026-04-18T12:44:50Z</time></trkpt><trkpt lat="43.51994697278452" lon="12.973577030910517"><ele>201.0</ele><time>2026-04-18T12:44:51Z</time></trkpt><trkpt lat="43.51979750196248" lon="12.973355716557526"><ele>201.0</ele><time>2026-04-18T12:44:52Z</time></trkpt><trkpt lat="43.519637360371064" lon="12.973142385393398"><ele>201.0</ele><time>2026-04-18T12:44:53Z</time></trkpt><trkpt lat="43.51947299279394" lon="12.97295324521622"><ele>201.0</ele><time>2026-04-18T12:44:54Z</time></trkpt><trkpt lat="43.51932413455177" lon="12.97273809849115"><ele>201.0</ele><time>2026-04-18T12:44:55Z</time></trkpt><trkpt lat="43.519140854637" lon="12.972558438803034"><ele>203.5</ele><time>2026-04-18T12:44:56Z</time></trkpt><trkpt lat="43.51895916170301" lon="12.97235380896965"><ele>206.0</ele><time>2026-04-18T12:44:57Z</time></trkpt><trkpt lat="43.518767000676846" lon="12.97214707448249"><ele>203.0</ele><time>2026-04-18T12:44:58Z</time></trkpt><trkpt lat="43.51857368369707" lon="12.971942262108954"><ele>200.0</ele><time>2026-04-18T12:44:59Z</time></trkpt><trkpt lat="43.51838364117575" lon="12.971744760894731"><ele>204.5</ele><time>2026-04-18T12:45:00Z</time></trkpt><trkpt lat="43.51819455009242" lon="12.971546354651256"><ele>209.0</ele><time>2026-04-18T12:45:01Z</time></trkpt><trkpt lat="43.51800737340152" lon="12.971349630788977"><ele>207.5</ele><time>2026-04-18T12:45:02Z</time></trkpt><trkpt lat="43.51781682161174" lon="12.971146833177405"><ele>206.0</ele><time>2026-04-18T12:45:03Z</time></trkpt><trkpt lat="43.51762089909512" lon="12.970947451062475"><ele>210.5</ele><time>2026-04-18T12:45:04Z</time></trkpt><trkpt lat="43.517438783054985" lon="12.970754139866914"><ele>215.0</ele><time>2026-04-18T12:45:05Z</time></trkpt><trkpt lat="43.51726504984297" lon="12.970562000359385"><ele>215.0</ele><time>2026-04-18T12:45:06Z</time></trkpt><trkpt lat="43.517103117847974" lon="12.970381574917857"><ele>215.0</ele><time>2026-04-18T12:45:07Z</time></trkpt><trkpt lat="43.516948111608315" lon="12.970210001155648"><ele>215.0</ele><time>2026-04-18T12:45:08Z</time></trkpt><trkpt lat="43.51681060909563" lon="12.970048095976432"><ele>215.0</ele><time>2026-04-18T12:45:09Z</time></trkpt><trkpt lat="43.51667885009873" lon="12.96988947276582"><ele>215.0</ele><time>2026-04-18T12:45:10Z</time></trkpt><trkpt lat="43.5165324420635" lon="12.96970672084872"><ele>215.0</ele><time>2026-04-18T12:45:11Z</time></trkpt><trkpt lat="43.51636486703983" lon="12.969487295957862"><ele>215.5</ele><time>2026-04-18T12:45:12Z</time></trkpt><trkpt lat="43.51619197802098" lon="12.969262978256092"><ele>216.0</ele><time>2026-04-18T12:45:13Z</time></trkpt><trkpt lat="43.51601893439696" lon="12.969049036003776"><ele>216.0</ele><time>2026-04-18T12:45:14Z</time></trkpt><trkpt lat="43.515853319047515" lon="12.968840365729287"><ele>216.0</ele><time>2026-04-18T12:45:15Z</time></trkpt><trkpt lat="43.515690620964556" lon="12.968626730897924"><ele>216.0</ele><time>2026-04-18T12:45:16Z</time></trkpt><trkpt lat="43.51553125993776" lon="12.968406097189696"><ele>219.0</ele><time>2026-04-18T12:45:17Z</time></trkpt><trkpt lat="43.51537415329945" lon="12.968170939408603"><ele>222.0</ele><time>2026-04-18T12:45:18Z</time></trkpt><trkpt lat="43.51522424719407" lon="12.967924941315118"><ele>222.0</ele><time>2026-04-18T12:45:19Z</time></trkpt><trkpt lat="43.51508847123147" lon="12.967675526000539"><ele>222.0</ele><time>2026-04-18T12:45:20Z</time></trkpt><trkpt lat="43.51496190296895" lon="12.967422473440399"><ele>222.0</ele><time>2026-04-18T12:45:21Z</time></trkpt><trkpt lat="43.5148300244878" lon="12.967155036919765"><ele>225.5</ele><time>2026-04-18T12:45:22Z</time></trkpt><trkpt lat="43.51470103026559" lon="12.9668972328028"><ele>229.0</ele><time>2026-04-18T12:45:23Z</time></trkpt><trkpt lat="43.514567682500925" lon="12.966633360165874"><ele>229.66666666666666</ele><time>2026-04-18T12:45:24Z</time></trkpt><trkpt lat="43.51444059392803" lon="12.966387427100603"><ele>230.33333333333331</ele><time>2026-04-18T12:45:25Z</time></trkpt><trkpt lat="43.514324349284706" lon="12.966160376128162"><ele>231.0</ele><time>2026-04-18T12:45:26Z</time></trkpt><trkpt lat="43.51422070441634" lon="12.965953788801254"><ele>233.33333333333331</ele><time>2026-04-18T12:45:27Z</time></trkpt><trkpt lat="43.51412428200252" lon="12.965745389291701"><ele>235.66666666666666</ele><time>2026-04-18T12:45:28Z</time></trkpt><trkpt lat="43.51402545204085" lon="12.965500057074722"><ele>238.0</ele><time>2026-04-18T12:45:29Z</time></trkpt><trkpt lat="43.513917088964774" lon="12.965245981069517"><ele>241.0</ele><time>2026-04-18T12:45:30Z</time></trkpt><trkpt lat="43.5137964587277" lon="12.964993531955065"><ele>244.0</ele><time>2026-04-18T12:45:31Z</time></trkpt><trkpt lat="43.51366821165785" lon="12.9647291043213"><ele>243.0</ele><time>2026-04-18T12:45:32Z</time></trkpt><trkpt lat="43.51353065898308" lon="12.964442138016755"><ele>242.0</ele><time>2026-04-18T12:45:33Z</time></trkpt><trkpt lat="43.51339460520164" lon="12.964146034711591"><ele>242.0</ele><time>2026-04-18T12:45:34Z</time></trkpt><trkpt lat="43.51327283924526" lon="12.963884569770762"><ele>242.0</ele><time>2026-04-18T12:45:35Z</time></trkpt><trkpt lat="43.513159572740754" lon="12.963651598774405"><ele>242.0</ele><time>2026-04-18T12:45:36Z</time></trkpt><trkpt lat="43.513056963296954" lon="12.963439813729577"><ele>241.33333333333334</ele><time>2026-04-18T12:45:37Z</time></trkpt><trkpt lat="43.51295436568785" lon="12.963215257325885"><ele>240.66666666666669</ele><time>2026-04-18T12:45:38Z</time></trkpt><trkpt lat="43.512852017269346" lon="12.962984437248036"><ele>240.0</ele><time>2026-04-18T12:45:39Z</time></trkpt><trkpt lat="43.51275645949268" lon="12.962763068775377"><ele>240.0</ele><time>2026-04-18T12:45:40Z</time></trkpt><trkpt lat="43.51266714849674" lon="12.962556780700666"><ele>240.0</ele><time>2026-04-18T12:45:41Z</time></trkpt><trkpt lat="43.51257331384788" lon="12.96234976503035"><ele>240.0</ele><time>2026-04-18T12:45:42Z</time></trkpt><trkpt lat="43.51247750015231" lon="12.962131603303977"><ele>242.33333333333331</ele><time>2026-04-18T12:45:43Z</time></trkpt><trkpt lat="43.5123776819473" lon="12.96190695343983"><ele>244.66666666666666</ele><time>2026-04-18T12:45:44Z</time></trkpt><trkpt lat="43.512279342857134" lon="12.961686934132484"><ele>247.0</ele><time>2026-04-18T12:45:45Z</time></trkpt><trkpt lat="43.51218296663231" lon="12.96147769616818"><ele>245.66666666666666</ele><time>2026-04-18T12:45:46Z</time></trkpt><trkpt lat="43.5120753979423" lon="12.96125852951216"><ele>244.33333333333331</ele><time>2026-04-18T12:45:47Z</time></trkpt><trkpt lat="43.511977117816144" lon="12.961059074649883"><ele>243.0</ele><time>2026-04-18T12:45:48Z</time></trkpt><trkpt lat="43.511885697037286" lon="12.960877027187227"><ele>244.66666666666669</ele><time>2026-04-18T12:45:49Z</time></trkpt><trkpt lat="43.51180293080653" lon="12.960707678291786"><ele>246.33333333333334</ele><time>2026-04-18T12:45:50Z</time></trkpt><trkpt lat="43.51172363366389" lon="12.960537485215237"><ele>248.0</ele><time>2026-04-18T12:45:51Z</time></trkpt><trkpt lat="43.51164233210649" lon="12.96035543372863"><ele>248.0</ele><time>2026-04-18T12:45:52Z</time></trkpt><trkpt lat="43.511570322038914" lon="12.960158778267134"><ele>248.0</ele><time>2026-04-18T12:45:53Z</time></trkpt><trkpt lat="43.51150342012501" lon="12.959961602881194"><ele>248.0</ele><time>2026-04-18T12:45:54Z</time></trkpt><trkpt lat="43.51143567085953" lon="12.959754480986907"><ele>251.0</ele><time>2026-04-18T12:45:55Z</time></trkpt><trkpt lat="43.51136004024769" lon="12.959530073721309"><ele>254.0</ele><time>2026-04-18T12:45:56Z</time></trkpt><trkpt lat="43.511261194084405" lon="12.959260357985688"><ele>257.0</ele><time>2026-04-18T12:45:57Z</time></trkpt><trkpt lat="43.511150103713085" lon="12.958959778658308"><ele>257.0</ele><time>2026-04-18T12:45:58Z</time></trkpt><trkpt lat="43.51105114375847" lon="12.958695175890892"><ele>257.0</ele><time>2026-04-18T12:45:59Z</time></trkpt><trkpt lat="43.5109368659545" lon="12.95843534530876"><ele>257.0</ele><time>2026-04-18T12:46:00Z</time></trkpt><trkpt lat="43.510799111169675" lon="12.958190292389144"><ele>258.0</ele><time>2026-04-18T12:46:01Z</time></trkpt><trkpt lat="43.510642948890045" lon="12.957954273524637"><ele>259.0</ele><time>2026-04-18T12:46:02Z</time></trkpt><trkpt lat="43.51048936719755" lon="12.957743154441188"><ele>260.0</ele><time>2026-04-18T12:46:03Z</time></trkpt><trkpt lat="43.510352295400935" lon="12.957553425096757"><ele>261.6666666666667</ele><time>2026-04-18T12:46:04Z</time></trkpt><trkpt lat="43.510223485372656" lon="12.957369595420715"><ele>263.3333333333333</ele><time>2026-04-18T12:46:05Z</time></trkpt><trkpt lat="43.51009326026845" lon="12.957190909306389"><ele>265.0</ele><time>2026-04-18T12:46:06Z</time></trkpt><trkpt lat="43.50995408969086" lon="12.957005936824004"><ele>265.0</ele><time>2026-04-18T12:46:07Z</time></trkpt><trkpt lat="43.50980845581294" lon="12.956826290982098"><ele>265.0</ele><time>2026-04-18T12:46:08Z</time></trkpt><trkpt lat="43.509655133435295" lon="12.956640312302987"><ele>265.0</ele><time>2026-04-18T12:46:09Z</time></trkpt><trkpt lat="43.50949315875582" lon="12.956453450616076"><ele>266.66666666666663</ele><time>2026-04-18T12:46:10Z</time></trkpt><trkpt lat="43.509328335914205" lon="12.956270041490884"><ele>268.3333333333333</ele><time>2026-04-18T12:46:11Z</time></trkpt><trkpt lat="43.509159490056916" lon="12.956082997047481"><ele>270.0</ele><time>2026-04-18T12:46:12Z</time></trkpt><trkpt lat="43.50899130685473" lon="12.955879458104505"><ele>273.0</ele><time>2026-04-18T12:46:13Z</time></trkpt><trkpt lat="43.5088142456767" lon="12.955665830565485"><ele>276.0</ele><time>2026-04-18T12:46:14Z</time></trkpt><trkpt lat="43.50863063289854" lon="12.955457818414796"><ele>276.0</ele><time>2026-04-18T12:46:15Z</time></trkpt><trkpt lat="43.508453654668074" lon="12.955265392625188"><ele>276.0</ele><time>2026-04-18T12:46:16Z</time></trkpt><trkpt lat="43.50828697210499" lon="12.955099265072278"><ele>276.0</ele><time>2026-04-18T12:46:17Z</time></trkpt><trkpt lat="43.50813383306065" lon="12.9549642097854"><ele>280.3333333333333</ele><time>2026-04-18T12:46:18Z</time></trkpt><trkpt lat="43.50800551758352" lon="12.95480998065293"><ele>284.66666666666663</ele><time>2026-04-18T12:46:19Z</time></trkpt><trkpt lat="43.507877593756305" lon="12.954672212850147"><ele>289.0</ele><time>2026-04-18T12:46:20Z</time></trkpt><trkpt lat="43.507765075255364" lon="12.95450776189169"><ele>289.0</ele><time>2026-04-18T12:46:21Z</time></trkpt><trkpt lat="43.507660921878134" lon="12.954324144714754"><ele>289.0</ele><time>2026-04-18T12:46:22Z</time></trkpt><trkpt lat="43.50755102611909" lon="12.954148052364138"><ele>289.0</ele><time>2026-04-18T12:46:23Z</time></trkpt><trkpt lat="43.50745779571368" lon="12.953957109974285"><ele>293.3333333333333</ele><time>2026-04-18T12:46:24Z</time></trkpt><trkpt lat="43.50736743995663" lon="12.95376862899589"><ele>297.6666666666667</ele><time>2026-04-18T12:46:25Z</time></trkpt><trkpt lat="43.5072740272239" lon="12.95356597608561"><ele>302.0</ele><time>2026-04-18T12:46:26Z</time></trkpt><trkpt lat="43.50716506052428" lon="12.953349623599106"><ele>306.33333333333337</ele><time>2026-04-18T12:46:27Z</time></trkpt><trkpt lat="43.507043977529406" lon="12.953137704616791"><ele>310.6666666666667</ele><time>2026-04-18T12:46:28Z</time></trkpt><trkpt lat="43.5069142572949" lon="12.95292705053669"><ele>315.0</ele><time>2026-04-18T12:46:29Z</time></trkpt><trkpt lat="43.50678290904519" lon="12.952732561207611"><ele>315.0</ele><time>2026-04-18T12:46:30Z</time></trkpt><trkpt lat="43.50664499078491" lon="12.952568428443463"><ele>315.0</ele><time>2026-04-18T12:46:31Z</time></trkpt><trkpt lat="43.50650960325823" lon="12.952441431681208"><ele>315.0</ele><time>2026-04-18T12:46:32Z</time></trkpt><trkpt lat="43.50637160156086" lon="12.952353422058781"><ele>318.25</ele><time>2026-04-18T12:46:33Z</time></trkpt><trkpt lat="43.50623282948277" lon="12.952273343789294"><ele>321.5</ele><time>2026-04-18T12:46:34Z</time></trkpt><trkpt lat="43.50610000019388" lon="12.952187657256953"><ele>324.75</ele><time>2026-04-18T12:46:35Z</time></trkpt><trkpt lat="43.50597152746363" lon="12.952093668410534"><ele>328.0</ele><time>2026-04-18T12:46:36Z</time></trkpt><trkpt lat="43.50583875797114" lon="12.95196958030068"><ele>328.0</ele><time>2026-04-18T12:46:37Z</time></trkpt><trkpt lat="43.50569863133797" lon="12.951813763816341"><ele>328.0</ele><time>2026-04-18T12:46:38Z</time></trkpt><trkpt lat="43.50555656100972" lon="12.951636142040485"><ele>328.0</ele><time>2026-04-18T12:46:39Z</time></trkpt><trkpt lat="43.50540888531666" lon="12.951451786303972"><ele>329.0</ele><time>2026-04-18T12:46:40Z</time></trkpt><trkpt lat="43.50527329634335" lon="12.951292987238999"><ele>330.0</ele><time>2026-04-18T12:46:41Z</time></trkpt><trkpt lat="43.50514594617541" lon="12.951142260627494"><ele>331.0</ele><time>2026-04-18T12:46:42Z</time></trkpt><trkpt lat="43.50506833740184" lon="12.950957982405606"><ele>336.3333333333333</ele><time>2026-04-18T12:46:43Z</time></trkpt><trkpt lat="43.50499114685099" lon="12.950783490190949"><ele>341.6666666666667</ele><time>2026-04-18T12:46:44Z</time></trkpt><trkpt lat="43.504902177554655" lon="12.950606101125892"><ele>347.0</ele><time>2026-04-18T12:46:45Z</time></trkpt><trkpt lat="43.50482775923343" lon="12.950407721717596"><ele>347.0</ele><time>2026-04-18T12:46:46Z</time></trkpt><trkpt lat="43.504777585581955" lon="12.95020377507387"><ele>347.0</ele><time>2026-04-18T12:46:47Z</time></trkpt><trkpt lat="43.50472766114291" lon="12.949999710664473"><ele>347.0</ele><time>2026-04-18T12:46:48Z</time></trkpt><trkpt lat="43.50468691549019" lon="12.94979983838081"><ele>348.25</ele><time>2026-04-18T12:46:49Z</time></trkpt><trkpt lat="43.504645095483006" lon="12.949600777021471"><ele>349.5</ele><time>2026-04-18T12:46:50Z</time></trkpt><trkpt lat="43.50463073511295" lon="12.949415554814795"><ele>350.75</ele><time>2026-04-18T12:46:51Z</time></trkpt><trkpt lat="43.50461154200733" lon="12.94924360284644"><ele>352.0</ele><time>2026-04-18T12:46:52Z</time></trkpt><trkpt lat="43.50457897638563" lon="12.949101808750104"><ele>352.0</ele><time>2026-04-18T12:46:53Z</time></trkpt><trkpt lat="43.50451906477819" lon="12.94897574194043"><ele>352.0</ele><time>2026-04-18T12:46:54Z</time></trkpt><trkpt lat="43.50443746231558" lon="12.948856592754195"><ele>352.0</ele><time>2026-04-18T12:46:55Z</time></trkpt><trkpt lat="43.50435433420722" lon="12.948779272480143"><ele>352.0</ele><time>2026-04-18T12:46:56Z</time></trkpt><trkpt lat="43.50430239009905" lon="12.94870469412346"><ele>352.0</ele><time>2026-04-18T12:46:57Z</time></trkpt><trkpt lat="43.50422790059553" lon="12.948588214509993"><ele>352.0</ele><time>2026-04-18T12:46:59Z</time></trkpt><trkpt lat="43.50428793839282" lon="12.948449124787228"><ele>352.0</ele><time>2026-04-18T12:47:01Z</time></trkpt><trkpt lat="43.50436153139572" lon="12.94845462572255"><ele>352.0</ele><time>2026-04-18T12:47:02Z</time></trkpt><trkpt lat="43.5044358222265" lon="12.948518531040671"><ele>352.0</ele><time>2026-04-18T12:47:03Z</time></trkpt><trkpt lat="43.50451941446324" lon="12.948566897886858"><ele>352.0</ele><time>2026-04-18T12:47:04Z</time></trkpt><trkpt lat="43.504605659346545" lon="12.94856592487059"><ele>352.75</ele><time>2026-04-18T12:47:05Z</time></trkpt><trkpt lat="43.50469103985296" lon="12.948473476828806"><ele>353.5</ele><time>2026-04-18T12:47:06Z</time></trkpt><trkpt lat="43.504744963715424" lon="12.948328687899753"><ele>354.25</ele><time>2026-04-18T12:47:07Z</time></trkpt><trkpt lat="43.50482070897964" lon="12.948185614459693"><ele>355.0</ele><time>2026-04-18T12:47:08Z</time></trkpt><trkpt lat="43.50494437143828" lon="12.948052102304572"><ele>355.3333333333333</ele><time>2026-04-18T12:47:09Z</time></trkpt><trkpt lat="43.50507338115666" lon="12.947859157512346"><ele>355.6666666666667</ele><time>2026-04-18T12:47:10Z</time></trkpt><trkpt lat="43.50523638270904" lon="12.947665372797957"><ele>356.0</ele><time>2026-04-18T12:47:11Z</time></trkpt><trkpt lat="43.505360877972606" lon="12.947447430736613"><ele>356.33333333333337</ele><time>2026-04-18T12:47:12Z</time></trkpt><trkpt lat="43.505525418426366" lon="12.947299063763577"><ele>356.6666666666667</ele><time>2026-04-18T12:47:13Z</time></trkpt><trkpt lat="43.50573411850785" lon="12.947165627440073"><ele>357.0</ele><time>2026-04-18T12:47:14Z</time></trkpt><trkpt lat="43.50594744351545" lon="12.947018093313627"><ele>357.0</ele><time>2026-04-18T12:47:15Z</time></trkpt><trkpt lat="43.50614439642219" lon="12.946866410380894"><ele>357.0</ele><time>2026-04-18T12:47:16Z</time></trkpt><trkpt lat="43.50631841957819" lon="12.946725024248046"><ele>357.0</ele><time>2026-04-18T12:47:17Z</time></trkpt><trkpt lat="43.5064687816296" lon="12.946630625015185"><ele>353.25</ele><time>2026-04-18T12:47:18Z</time></trkpt><trkpt lat="43.50659959253385" lon="12.94652684675883"><ele>349.5</ele><time>2026-04-18T12:47:19Z</time></trkpt><trkpt lat="43.5067285008005" lon="12.94643771010134"><ele>345.75</ele><time>2026-04-18T12:47:20Z</time></trkpt><trkpt lat="43.506870154072935" lon="12.946396535935968"><ele>342.0</ele><time>2026-04-18T12:47:21Z</time></trkpt><trkpt lat="43.507045067901274" lon="12.946481988622702"><ele>341.0</ele><time>2026-04-18T12:47:22Z</time></trkpt><trkpt lat="43.507209264363276" lon="12.946696271054137"><ele>340.0</ele><time>2026-04-18T12:47:23Z</time></trkpt><trkpt lat="43.50743284846134" lon="12.94696820972676"><ele>340.0</ele><time>2026-04-18T12:47:24Z</time></trkpt><trkpt lat="43.50767968625143" lon="12.947306052416245"><ele>340.0</ele><time>2026-04-18T12:47:25Z</time></trkpt><trkpt lat="43.50790520892205" lon="12.947596218990997"><ele>333.5</ele><time>2026-04-18T12:47:26Z</time></trkpt><trkpt lat="43.50811070226292" lon="12.947841390279573"><ele>327.0</ele><time>2026-04-18T12:47:27Z</time></trkpt><trkpt lat="43.508299691256006" lon="12.948064329998395"><ele>327.0</ele><time>2026-04-18T12:47:28Z</time></trkpt><trkpt lat="43.5084754711403" lon="12.948276795308056"><ele>327.0</ele><time>2026-04-18T12:47:29Z</time></trkpt><trkpt lat="43.50864496986511" lon="12.948480665063345"><ele>324.0</ele><time>2026-04-18T12:47:30Z</time></trkpt><trkpt lat="43.508797328187384" lon="12.948686011981884"><ele>321.0</ele><time>2026-04-18T12:47:31Z</time></trkpt><trkpt lat="43.50890267534072" lon="12.948898364254589"><ele>318.0</ele><time>2026-04-18T12:47:32Z</time></trkpt><trkpt lat="43.50895970424093" lon="12.94909849478219"><ele>322.0</ele><time>2026-04-18T12:47:33Z</time></trkpt><trkpt lat="43.50899366833213" lon="12.949264550906154"><ele>326.0</ele><time>2026-04-18T12:47:34Z</time></trkpt><trkpt lat="43.50904821225822" lon="12.949382008679395"><ele>330.0</ele><time>2026-04-18T12:47:35Z</time></trkpt><trkpt lat="43.50914094689175" lon="12.949439793569907"><ele>334.0</ele><time>2026-04-18T12:47:36Z</time></trkpt><trkpt lat="43.50925768268123" lon="12.949421020664227"><ele>338.0</ele><time>2026-04-18T12:47:37Z</time></trkpt><trkpt lat="43.509353226176486" lon="12.949311278700742"><ele>331.33333333333337</ele><time>2026-04-18T12:47:38Z</time></trkpt><trkpt lat="43.50941679988442" lon="12.94916337627759"><ele>324.6666666666667</ele><time>2026-04-18T12:47:39Z</time></trkpt><trkpt lat="43.50936641866095" lon="12.948950445067103"><ele>318.0</ele><time>2026-04-18T12:47:40Z</time></trkpt><trkpt lat="43.50927142495703" lon="12.94875996284294"><ele>318.0</ele><time>2026-04-18T12:47:41Z</time></trkpt><trkpt lat="43.509239356743386" lon="12.948570633586742"><ele>318.0</ele><time>2026-04-18T12:47:42Z</time></trkpt><trkpt lat="43.50928913214554" lon="12.948399261424514"><ele>318.0</ele><time>2026-04-18T12:47:43Z</time></trkpt><trkpt lat="43.509400825481684" lon="12.948251234148401"><ele>318.0</ele><time>2026-04-18T12:47:44Z</time></trkpt><trkpt lat="43.50954149599361" lon="12.948063842127258"><ele>312.6666666666667</ele><time>2026-04-18T12:47:45Z</time></trkpt><trkpt lat="43.509666840058394" lon="12.947875700740168"><ele>307.33333333333337</ele><time>2026-04-18T12:47:46Z</time></trkpt><trkpt lat="43.50977364904526" lon="12.947738837704964"><ele>302.0</ele><time>2026-04-18T12:47:47Z</time></trkpt><trkpt lat="43.509860748313905" lon="12.947622558749423"><ele>303.75</ele><time>2026-04-18T12:47:48Z</time></trkpt><trkpt lat="43.509922424707504" lon="12.947532927684403"><ele>305.5</ele><time>2026-04-18T12:47:49Z</time></trkpt><trkpt lat="43.50999028279346" lon="12.947479668822565"><ele>307.25</ele><time>2026-04-18T12:47:50Z</time></trkpt><trkpt lat="43.50987376396117" lon="12.947197011565319"><ele>309.0</ele><time>2026-04-18T12:47:52Z</time></trkpt><trkpt lat="43.509748033106355" lon="12.947035684108073"><ele>309.0</ele><time>2026-04-18T12:47:53Z</time></trkpt><trkpt lat="43.50958118713107" lon="12.946806222123453"><ele>309.0</ele><time>2026-04-18T12:47:54Z</time></trkpt><trkpt lat="43.50938328370696" lon="12.946493585671398"><ele>307.5</ele><time>2026-04-18T12:47:55Z</time></trkpt><trkpt lat="43.50919285741021" lon="12.946165119049933"><ele>306.0</ele><time>2026-04-18T12:47:56Z</time></trkpt><trkpt lat="43.50902326475707" lon="12.945949613363306"><ele>306.5</ele><time>2026-04-18T12:47:57Z</time></trkpt><trkpt lat="43.50880743355082" lon="12.945795540606559"><ele>307.0</ele><time>2026-04-18T12:47:58Z</time></trkpt><trkpt lat="43.50859950171542" lon="12.94568911987779"><ele>307.0</ele><time>2026-04-18T12:47:59Z</time></trkpt><trkpt lat="43.50841247295422" lon="12.945545523023883"><ele>307.0</ele><time>2026-04-18T12:48:00Z</time></trkpt><trkpt lat="43.50830459807054" lon="12.945427257166415"><ele>307.0</ele><time>2026-04-18T12:48:01Z</time></trkpt><trkpt lat="43.50823735798908" lon="12.945235934116099"><ele>307.0</ele><time>2026-04-18T12:48:02Z</time></trkpt><trkpt lat="43.50815831064579" lon="12.945094799576495"><ele>307.0</ele><time>2026-04-18T12:48:03Z</time></trkpt><trkpt lat="43.508204689285286" lon="12.94483857285611"><ele>307.0</ele><time>2026-04-18T12:48:04Z</time></trkpt><trkpt lat="43.50814245686742" lon="12.944566782073423"><ele>308.0</ele><time>2026-04-18T12:48:05Z</time></trkpt><trkpt lat="43.508005529176714" lon="12.94438298400976"><ele>309.0</ele><time>2026-04-18T12:48:06Z</time></trkpt><trkpt lat="43.50783106970854" lon="12.944268190382616"><ele>310.0</ele><time>2026-04-18T12:48:07Z</time></trkpt><trkpt lat="43.50760805483697" lon="12.944132558667851"><ele>314.0</ele><time>2026-04-18T12:48:08Z</time></trkpt><trkpt lat="43.5073785109555" lon="12.943830735660635"><ele>318.0</ele><time>2026-04-18T12:48:09Z</time></trkpt><trkpt lat="43.507137721134896" lon="12.943484019216855"><ele>319.0</ele><time>2026-04-18T12:48:10Z</time></trkpt><trkpt lat="43.50691910286342" lon="12.943134215755029"><ele>320.0</ele><time>2026-04-18T12:48:11Z</time></trkpt><trkpt lat="43.506669175353125" lon="12.942754017705708"><ele>329.0</ele><time>2026-04-18T12:48:12Z</time></trkpt><trkpt lat="43.50648800854207" lon="12.942403238915986"><ele>338.0</ele><time>2026-04-18T12:48:13Z</time></trkpt><trkpt lat="43.506307188779346" lon="12.942075744517949"><ele>331.0</ele><time>2026-04-18T12:48:14Z</time></trkpt><trkpt lat="43.50616448058853" lon="12.941785153333788"><ele>324.0</ele><time>2026-04-18T12:48:15Z</time></trkpt><trkpt lat="43.50606343861353" lon="12.941518998055308"><ele>324.0</ele><time>2026-04-18T12:48:16Z</time></trkpt><trkpt lat="43.50595793672719" lon="12.941218913354765"><ele>324.0</ele><time>2026-04-18T12:48:17Z</time></trkpt><trkpt lat="43.50577729784168" lon="12.940834640203914"><ele>328.0</ele><time>2026-04-18T12:48:18Z</time></trkpt><trkpt lat="43.505576935896755" lon="12.94050025068074"><ele>332.0</ele><time>2026-04-18T12:48:19Z</time></trkpt><trkpt lat="43.5053276999681" lon="12.940164468279157"><ele>332.0</ele><time>2026-04-18T12:48:20Z</time></trkpt><trkpt lat="43.50507108041988" lon="12.93974577290892"><ele>332.0</ele><time>2026-04-18T12:48:21Z</time></trkpt><trkpt lat="43.50481770614252" lon="12.939367827670832"><ele>332.0</ele><time>2026-04-18T12:48:22Z</time></trkpt><trkpt lat="43.504606747298894" lon="12.93902902288639"><ele>332.0</ele><time>2026-04-18T12:48:23Z</time></trkpt><trkpt lat="43.504405894191294" lon="12.938715348527394"><ele>332.0</ele><time>2026-04-18T12:48:24Z</time></trkpt><trkpt lat="43.50421076062994" lon="12.938437578095757"><ele>332.0</ele><time>2026-04-18T12:48:25Z</time></trkpt><trkpt lat="43.50402517677583" lon="12.938176792038414"><ele>336.5</ele><time>2026-04-18T12:48:26Z</time></trkpt><trkpt lat="43.503827684906106" lon="12.937930050458267"><ele>341.0</ele><time>2026-04-18T12:48:27Z</time></trkpt><trkpt lat="43.503611367379506" lon="12.937704663665082"><ele>340.5</ele><time>2026-04-18T12:48:28Z</time></trkpt><trkpt lat="43.503383751365696" lon="12.937524507303625"><ele>340.0</ele><time>2026-04-18T12:48:29Z</time></trkpt><trkpt lat="43.5031724885877" lon="12.937371875001148"><ele>340.0</ele><time>2026-04-18T12:48:30Z</time></trkpt><trkpt lat="43.50302385230742" lon="12.937154654760663"><ele>340.0</ele><time>2026-04-18T12:48:31Z</time></trkpt><trkpt lat="43.502876840103205" lon="12.936902037080737"><ele>341.66666666666663</ele><time>2026-04-18T12:48:32Z</time></trkpt><trkpt lat="43.50275262402763" lon="12.936671445292973"><ele>343.3333333333333</ele><time>2026-04-18T12:48:33Z</time></trkpt><trkpt lat="43.50266509931746" lon="12.93647171752313"><ele>345.0</ele><time>2026-04-18T12:48:34Z</time></trkpt><trkpt lat="43.50261002878535" lon="12.936256319436291"><ele>345.0</ele><time>2026-04-18T12:48:35Z</time></trkpt><trkpt lat="43.50258998148115" lon="12.936004270295635"><ele>345.0</ele><time>2026-04-18T12:48:36Z</time></trkpt><trkpt lat="43.502588866115964" lon="12.935695368293658"><ele>345.0</ele><time>2026-04-18T12:48:37Z</time></trkpt><trkpt lat="43.502577008825035" lon="12.935392226829752"><ele>344.0</ele><time>2026-04-18T12:48:38Z</time></trkpt><trkpt lat="43.502513182941684" lon="12.935149915972513"><ele>343.0</ele><time>2026-04-18T12:48:39Z</time></trkpt><trkpt lat="43.50241758177882" lon="12.934912477029247"><ele>342.0</ele><time>2026-04-18T12:48:40Z</time></trkpt><trkpt lat="43.50226671042518" lon="12.934661470345654"><ele>344.3333333333333</ele><time>2026-04-18T12:48:41Z</time></trkpt><trkpt lat="43.5021292900917" lon="12.934452068474277"><ele>346.66666666666663</ele><time>2026-04-18T12:48:42Z</time></trkpt><trkpt lat="43.50200373657034" lon="12.93425377171391"><ele>349.0</ele><time>2026-04-18T12:48:43Z</time></trkpt><trkpt lat="43.5018775890593" lon="12.934053022180569"><ele>350.5</ele><time>2026-04-18T12:48:44Z</time></trkpt><trkpt lat="43.50169878293927" lon="12.93386761665248"><ele>352.0</ele><time>2026-04-18T12:48:45Z</time></trkpt><trkpt lat="43.50146174559822" lon="12.933711508549607"><ele>354.0</ele><time>2026-04-18T12:48:46Z</time></trkpt><trkpt lat="43.50119123098234" lon="12.933556113400156"><ele>356.0</ele><time>2026-04-18T12:48:47Z</time></trkpt><trkpt lat="43.50088645429656" lon="12.933403953162832"><ele>356.5</ele><time>2026-04-18T12:48:48Z</time></trkpt><trkpt lat="43.50059393462278" lon="12.933310648352203"><ele>357.0</ele><time>2026-04-18T12:48:49Z</time></trkpt><trkpt lat="43.500347799263054" lon="12.933257639670574"><ele>354.0</ele><time>2026-04-18T12:48:50Z</time></trkpt><trkpt lat="43.50018528301001" lon="12.933207468468938"><ele>351.0</ele><time>2026-04-18T12:48:51Z</time></trkpt><trkpt lat="43.50004457066477" lon="12.933094764346546"><ele>348.0</ele><time>2026-04-18T12:48:52Z</time></trkpt><trkpt lat="43.49986937608107" lon="12.93290273452637"><ele>348.0</ele><time>2026-04-18T12:48:53Z</time></trkpt><trkpt lat="43.49967004923974" lon="12.932636178103671"><ele>348.0</ele><time>2026-04-18T12:48:54Z</time></trkpt><trkpt lat="43.49944213704655" lon="12.932355799350947"><ele>347.0</ele><time>2026-04-18T12:48:55Z</time></trkpt><trkpt lat="43.49922835031606" lon="12.932045884935208"><ele>346.0</ele><time>2026-04-18T12:48:56Z</time></trkpt><trkpt lat="43.4990316250374" lon="12.9317685837782"><ele>346.5</ele><time>2026-04-18T12:48:57Z</time></trkpt><trkpt lat="43.498848858375695" lon="12.931504204231747"><ele>347.0</ele><time>2026-04-18T12:48:58Z</time></trkpt><trkpt lat="43.498695192027796" lon="12.931187121955471"><ele>347.5</ele><time>2026-04-18T12:48:59Z</time></trkpt><trkpt lat="43.49855198784994" lon="12.93083667729442"><ele>348.0</ele><time>2026-04-18T12:49:00Z</time></trkpt><trkpt lat="43.49842069442248" lon="12.930425316169769"><ele>349.5</ele><time>2026-04-18T12:49:01Z</time></trkpt><trkpt lat="43.498270795793474" lon="12.929986317520223"><ele>351.0</ele><time>2026-04-18T12:49:02Z</time></trkpt><trkpt lat="43.498142660381355" lon="12.929560085938657"><ele>355.5</ele><time>2026-04-18T12:49:03Z</time></trkpt><trkpt lat="43.497999152816206" lon="12.929125304334432"><ele>360.0</ele><time>2026-04-18T12:49:04Z</time></trkpt><trkpt lat="43.49785497926744" lon="12.92868166522097"><ele>357.0</ele><time>2026-04-18T12:49:05Z</time></trkpt><trkpt lat="43.49771443574965" lon="12.928254505705272"><ele>354.0</ele><time>2026-04-18T12:49:06Z</time></trkpt><trkpt lat="43.49758476062665" lon="12.927877749597819"><ele>359.0</ele><time>2026-04-18T12:49:07Z</time></trkpt><trkpt lat="43.49746881661615" lon="12.927538563763886"><ele>364.0</ele><time>2026-04-18T12:49:08Z</time></trkpt><trkpt lat="43.49735162047051" lon="12.927225976690456"><ele>364.0</ele><time>2026-04-18T12:49:09Z</time></trkpt><trkpt lat="43.49720245111212" lon="12.926916699939778"><ele>364.0</ele><time>2026-04-18T12:49:10Z</time></trkpt><trkpt lat="43.49701241135672" lon="12.926664263846403"><ele>360.5</ele><time>2026-04-18T12:49:11Z</time></trkpt><trkpt lat="43.496794922744556" lon="12.926470800750923"><ele>357.0</ele><time>2026-04-18T12:49:12Z</time></trkpt><trkpt lat="43.49657750567954" lon="12.926268622717854"><ele>357.0</ele><time>2026-04-18T12:49:13Z</time></trkpt><trkpt lat="43.49639611800996" lon="12.925991107030681"><ele>357.0</ele><time>2026-04-18T12:49:14Z</time></trkpt><trkpt lat="43.49621684094773" lon="12.925740576304653"><ele>358.3333333333333</ele><time>2026-04-18T12:49:15Z</time></trkpt><trkpt lat="43.496059884651785" lon="12.925555693086427"><ele>359.66666666666663</ele><time>2026-04-18T12:49:16Z</time></trkpt><trkpt lat="43.49587861956641" lon="12.925424349227315"><ele>361.0</ele><time>2026-04-18T12:49:17Z</time></trkpt><trkpt lat="43.495635124787555" lon="12.925317261322773"><ele>361.0</ele><time>2026-04-18T12:49:18Z</time></trkpt><trkpt lat="43.495430352763385" lon="12.925173592217552"><ele>361.0</ele><time>2026-04-18T12:49:19Z</time></trkpt><trkpt lat="43.49525311284904" lon="12.925007143423032"><ele>361.0</ele><time>2026-04-18T12:49:20Z</time></trkpt><trkpt lat="43.49508355553486" lon="12.924826302829526"><ele>363.3333333333333</ele><time>2026-04-18T12:49:21Z</time></trkpt><trkpt lat="43.494937202949856" lon="12.92463161204777"><ele>365.6666666666667</ele><time>2026-04-18T12:49:22Z</time></trkpt><trkpt lat="43.494809487379285" lon="12.924471315741958"><ele>368.0</ele><time>2026-04-18T12:49:23Z</time></trkpt><trkpt lat="43.49470943975931" lon="12.924321801390539"><ele>368.5</ele><time>2026-04-18T12:49:24Z</time></trkpt><trkpt lat="43.49459279620938" lon="12.92419198930883"><ele>369.0</ele><time>2026-04-18T12:49:25Z</time></trkpt><trkpt lat="43.49446337648648" lon="12.924157654472124"><ele>369.5</ele><time>2026-04-18T12:49:26Z</time></trkpt><trkpt lat="43.49431375370179" lon="12.924201398184438"><ele>370.0</ele><time>2026-04-18T12:49:27Z</time></trkpt><trkpt lat="43.494143973548944" lon="12.924313743401576"><ele>368.0</ele><time>2026-04-18T12:49:28Z</time></trkpt><trkpt lat="43.49398174987862" lon="12.924508406614171"><ele>366.0</ele><time>2026-04-18T12:49:29Z</time></trkpt><trkpt lat="43.49385467782641" lon="12.924708760061764"><ele>364.0</ele><time>2026-04-18T12:49:30Z</time></trkpt><trkpt lat="43.493760483948286" lon="12.924886992115779"><ele>365.0</ele><time>2026-04-18T12:49:31Z</time></trkpt><trkpt lat="43.49367354462915" lon="12.925045687584548"><ele>366.0</ele><time>2026-04-18T12:49:32Z</time></trkpt><trkpt lat="43.49357493436936" lon="12.925181263119505"><ele>367.0</ele><time>2026-04-18T12:49:33Z</time></trkpt><trkpt lat="43.49345315960124" lon="12.925242059850797"><ele>368.0</ele><time>2026-04-18T12:49:34Z</time></trkpt><trkpt lat="43.49332317126363" lon="12.925149948514722"><ele>368.0</ele><time>2026-04-18T12:49:35Z</time></trkpt><trkpt lat="43.49320653137372" lon="12.925001515430196"><ele>368.0</ele><time>2026-04-18T12:49:36Z</time></trkpt><trkpt lat="43.49305306702647" lon="12.924805347696179"><ele>368.0</ele><time>2026-04-18T12:49:37Z</time></trkpt><trkpt lat="43.49290759263891" lon="12.924598628091353"><ele>370.6666666666667</ele><time>2026-04-18T12:49:38Z</time></trkpt><trkpt lat="43.492754709683986" lon="12.924496119780184"><ele>373.3333333333333</ele><time>2026-04-18T12:49:39Z</time></trkpt><trkpt lat="43.49260094994264" lon="12.924511532844814"><ele>376.0</ele><time>2026-04-18T12:49:40Z</time></trkpt><trkpt lat="43.49243363847652" lon="12.924626614925561"><ele>376.0</ele><time>2026-04-18T12:49:41Z</time></trkpt><trkpt lat="43.492230478220264" lon="12.92480871657467"><ele>376.0</ele><time>2026-04-18T12:49:42Z</time></trkpt><trkpt lat="43.492018030625815" lon="12.924993542039251"><ele>377.66666666666663</ele><time>2026-04-18T12:49:43Z</time></trkpt><trkpt lat="43.49185300041167" lon="12.92509563807627"><ele>379.3333333333333</ele><time>2026-04-18T12:49:44Z</time></trkpt><trkpt lat="43.49170949971658" lon="12.925084348675263"><ele>381.0</ele><time>2026-04-18T12:49:45Z</time></trkpt><trkpt lat="43.49156753243204" lon="12.92502306279319"><ele>381.0</ele><time>2026-04-18T12:49:46Z</time></trkpt><trkpt lat="43.491461367913644" lon="12.92483459463129"><ele>381.0</ele><time>2026-04-18T12:49:47Z</time></trkpt><trkpt lat="43.49136005070257" lon="12.924729177332743"><ele>381.0</ele><time>2026-04-18T12:49:48Z</time></trkpt><trkpt lat="43.491302326157594" lon="12.924622460991957"><ele>381.0</ele><time>2026-04-18T12:49:49Z</time></trkpt><trkpt lat="43.491210069201436" lon="12.924589067603508"><ele>385.25</ele><time>2026-04-18T12:49:50Z</time></trkpt><trkpt lat="43.49109117257324" lon="12.924635464287167"><ele>389.5</ele><time>2026-04-18T12:49:51Z</time></trkpt><trkpt lat="43.491002835553246" lon="12.92477922831887"><ele>393.75</ele><time>2026-04-18T12:49:52Z</time></trkpt><trkpt lat="43.491000858026254" lon="12.92495497467846"><ele>398.0</ele><time>2026-04-18T12:49:53Z</time></trkpt><trkpt lat="43.49106040668866" lon="12.92510333610188"><ele>397.0</ele><time>2026-04-18T12:49:54Z</time></trkpt><trkpt lat="43.491160513377864" lon="12.925215646201776"><ele>396.0</ele><time>2026-04-18T12:49:55Z</time></trkpt><trkpt lat="43.49127568768587" lon="12.925330693281184"><ele>395.0</ele><time>2026-04-18T12:49:56Z</time></trkpt><trkpt lat="43.491384810881215" lon="12.925507055478258"><ele>394.0</ele><time>2026-04-18T12:49:57Z</time></trkpt><trkpt lat="43.49147542286598" lon="12.925755614777307"><ele>398.6666666666667</ele><time>2026-04-18T12:49:58Z</time></trkpt><trkpt lat="43.49157017469999" lon="12.92592586743189"><ele>403.33333333333337</ele><time>2026-04-18T12:49:59Z</time></trkpt><trkpt lat="43.49172944047858" lon="12.925970673100986"><ele>408.0</ele><time>2026-04-18T12:50:00Z</time></trkpt><trkpt lat="43.49188763662482" lon="12.925994351353841"><ele>408.0</ele><time>2026-04-18T12:50:01Z</time></trkpt><trkpt lat="43.49200527680341" lon="12.926043917061063"><ele>408.0</ele><time>2026-04-18T12:50:02Z</time></trkpt><trkpt lat="43.49206514205644" lon="12.926153818746203"><ele>408.0</ele><time>2026-04-18T12:50:03Z</time></trkpt><trkpt lat="43.49208380114994" lon="12.926323559607376"><ele>408.0</ele><time>2026-04-18T12:50:04Z</time></trkpt><trkpt lat="43.492070559185116" lon="12.926526811592248"><ele>412.0</ele><time>2026-04-18T12:50:05Z</time></trkpt><trkpt lat="43.4920606137941" lon="12.926748471709477"><ele>416.0</ele><time>2026-04-18T12:50:06Z</time></trkpt><trkpt lat="43.492111163990394" lon="12.926949230137293"><ele>420.0</ele><time>2026-04-18T12:50:07Z</time></trkpt><trkpt lat="43.49221107411775" lon="12.927090230624188"><ele>420.0</ele><time>2026-04-18T12:50:08Z</time></trkpt><trkpt lat="43.49227555933007" lon="12.927210278742384"><ele>420.0</ele><time>2026-04-18T12:50:09Z</time></trkpt><trkpt lat="43.4922650653639" lon="12.927329222493348"><ele>420.0</ele><time>2026-04-18T12:50:10Z</time></trkpt><trkpt lat="43.49219613760315" lon="12.927422787864876"><ele>420.0</ele><time>2026-04-18T12:50:11Z</time></trkpt><trkpt lat="43.49210076770199" lon="12.92745002165609"><ele>420.0</ele><time>2026-04-18T12:50:12Z</time></trkpt><trkpt lat="43.491994968329344" lon="12.927441333231672"><ele>420.66666666666663</ele><time>2026-04-18T12:50:13Z</time></trkpt><trkpt lat="43.491908880688726" lon="12.927294255740732"><ele>421.3333333333333</ele><time>2026-04-18T12:50:14Z</time></trkpt><trkpt lat="43.4917924022027" lon="12.927080269462785"><ele>422.0</ele><time>2026-04-18T12:50:15Z</time></trkpt><trkpt lat="43.491615864085944" lon="12.926815572155508"><ele>427.5</ele><time>2026-04-18T12:50:16Z</time></trkpt><trkpt lat="43.4914257009559" lon="12.926578932815424"><ele>433.0</ele><time>2026-04-18T12:50:17Z</time></trkpt><trkpt lat="43.4912270317449" lon="12.926414111972667"><ele>433.0</ele><time>2026-04-18T12:50:18Z</time></trkpt><trkpt lat="43.491114116211506" lon="12.926218672784671"><ele>433.0</ele><time>2026-04-18T12:50:19Z</time></trkpt><trkpt lat="43.491009151162665" lon="12.926021195427106"><ele>433.0</ele><time>2026-04-18T12:50:20Z</time></trkpt><trkpt lat="43.49091756986863" lon="12.92578866770194"><ele>428.6666666666667</ele><time>2026-04-18T12:50:21Z</time></trkpt><trkpt lat="43.49081371962987" lon="12.925620822833453"><ele>424.33333333333337</ele><time>2026-04-18T12:50:22Z</time></trkpt><trkpt lat="43.49067584649438" lon="12.925527003926648"><ele>420.0</ele><time>2026-04-18T12:50:23Z</time></trkpt><trkpt lat="43.49048689008975" lon="12.925515103738357"><ele>424.0</ele><time>2026-04-18T12:50:24Z</time></trkpt><trkpt lat="43.49027913977205" lon="12.92560345165411"><ele>428.0</ele><time>2026-04-18T12:50:25Z</time></trkpt><trkpt lat="43.490039278632814" lon="12.925756743472984"><ele>428.0</ele><time>2026-04-18T12:50:26Z</time></trkpt><trkpt lat="43.48975822540322" lon="12.925880743083086"><ele>428.0</ele><time>2026-04-18T12:50:27Z</time></trkpt><trkpt lat="43.48948631430222" lon="12.92597439297672"><ele>432.0</ele><time>2026-04-18T12:50:28Z</time></trkpt><trkpt lat="43.48927564045558" lon="12.926047510987528"><ele>436.0</ele><time>2026-04-18T12:50:29Z</time></trkpt><trkpt lat="43.48912625890724" lon="12.926109892332006"><ele>440.0</ele><time>2026-04-18T12:50:30Z</time></trkpt><trkpt lat="43.48898351273066" lon="12.926198969749242"><ele>440.0</ele><time>2026-04-18T12:50:31Z</time></trkpt><trkpt lat="43.48886642554754" lon="12.926309917970691"><ele>440.0</ele><time>2026-04-18T12:50:32Z</time></trkpt><trkpt lat="43.48877026619291" lon="12.926405077419671"><ele>440.0</ele><time>2026-04-18T12:50:33Z</time></trkpt><trkpt lat="43.48869728068116" lon="12.926517980181835"><ele>440.0</ele><time>2026-04-18T12:50:34Z</time></trkpt><trkpt lat="43.48865743961529" lon="12.926665364995625"><ele>442.5</ele><time>2026-04-18T12:50:35Z</time></trkpt><trkpt lat="43.488691056981295" lon="12.926818782794317"><ele>445.0</ele><time>2026-04-18T12:50:36Z</time></trkpt><trkpt lat="43.48878118645891" lon="12.92692650939695"><ele>447.5</ele><time>2026-04-18T12:50:37Z</time></trkpt><trkpt lat="43.48892387904618" lon="12.926940623991118"><ele>450.0</ele><time>2026-04-18T12:50:38Z</time></trkpt><trkpt lat="43.489093355153756" lon="12.926874966592816"><ele>452.33333333333337</ele><time>2026-04-18T12:50:39Z</time></trkpt><trkpt lat="43.48926040278319" lon="12.926766935129619"><ele>454.6666666666667</ele><time>2026-04-18T12:50:40Z</time></trkpt><trkpt lat="43.489404796257766" lon="12.926683334007562"><ele>457.0</ele><time>2026-04-18T12:50:41Z</time></trkpt><trkpt lat="43.48956317233061" lon="12.926607577860354"><ele>454.0</ele><time>2026-04-18T12:50:42Z</time></trkpt><trkpt lat="43.489756562997144" lon="12.926537153032923"><ele>451.0</ele><time>2026-04-18T12:50:43Z</time></trkpt><trkpt lat="43.48993976388757" lon="12.926529441544286"><ele>448.0</ele><time>2026-04-18T12:50:44Z</time></trkpt><trkpt lat="43.49009628054699" lon="12.926560090565777"><ele>448.0</ele><time>2026-04-18T12:50:45Z</time></trkpt><trkpt lat="43.490232807283746" lon="12.92658726034343"><ele>448.0</ele><time>2026-04-18T12:50:46Z</time></trkpt><trkpt lat="43.49034614964358" lon="12.92661502761596"><ele>448.0</ele><time>2026-04-18T12:50:47Z</time></trkpt><trkpt lat="43.49041832392649" lon="12.926714096646094"><ele>448.0</ele><time>2026-04-18T12:50:48Z</time></trkpt><trkpt lat="43.490426086278994" lon="12.926875751998795"><ele>451.0</ele><time>2026-04-18T12:50:49Z</time></trkpt><trkpt lat="43.4903694218578" lon="12.927011584711167"><ele>454.0</ele><time>2026-04-18T12:50:50Z</time></trkpt><trkpt lat="43.49026560500887" lon="12.927066220977286"><ele>457.0</ele><time>2026-04-18T12:50:51Z</time></trkpt><trkpt lat="43.490157585746594" lon="12.927003541470361"><ele>460.0</ele><time>2026-04-18T12:50:52Z</time></trkpt><trkpt lat="43.49004100528209" lon="12.926949287762831"><ele>460.0</ele><time>2026-04-18T12:50:53Z</time></trkpt><trkpt lat="43.48991895649496" lon="12.92688793164615"><ele>460.0</ele><time>2026-04-18T12:50:54Z</time></trkpt><trkpt lat="43.489764673093894" lon="12.92689906921059"><ele>460.0</ele><time>2026-04-18T12:50:55Z</time></trkpt><trkpt lat="43.48959342476509" lon="12.927017036292371"><ele>459.0</ele><time>2026-04-18T12:50:56Z</time></trkpt><trkpt lat="43.489443379669645" lon="12.927176129817115"><ele>458.0</ele><time>2026-04-18T12:50:57Z</time></trkpt><trkpt lat="43.48928564031021" lon="12.927326916314362"><ele>457.0</ele><time>2026-04-18T12:50:58Z</time></trkpt><trkpt lat="43.48907069800439" lon="12.927418282845899"><ele>457.0</ele><time>2026-04-18T12:50:59Z</time></trkpt><trkpt lat="43.488811357143675" lon="12.927547776904323"><ele>457.0</ele><time>2026-04-18T12:51:00Z</time></trkpt><trkpt lat="43.48852010744212" lon="12.927705679444095"><ele>456.6666666666667</ele><time>2026-04-18T12:51:01Z</time></trkpt><trkpt lat="43.488253701096625" lon="12.927785059631482"><ele>456.33333333333337</ele><time>2026-04-18T12:51:02Z</time></trkpt><trkpt lat="43.48808895406594" lon="12.927806219786174"><ele>456.0</ele><time>2026-04-18T12:51:03Z</time></trkpt><trkpt lat="43.48792358266342" lon="12.927750599515656"><ele>453.66666666666663</ele><time>2026-04-18T12:51:04Z</time></trkpt><trkpt lat="43.48777224672395" lon="12.927608167435986"><ele>451.3333333333333</ele><time>2026-04-18T12:51:05Z</time></trkpt><trkpt lat="43.48763159028058" lon="12.927385889554397"><ele>449.0</ele><time>2026-04-18T12:51:06Z</time></trkpt><trkpt lat="43.48750118882678" lon="12.927103023531194"><ele>449.0</ele><time>2026-04-18T12:51:07Z</time></trkpt><trkpt lat="43.48740012743924" lon="12.926831480404493"><ele>449.0</ele><time>2026-04-18T12:51:08Z</time></trkpt><trkpt lat="43.487306847318486" lon="12.926561872289902"><ele>449.0</ele><time>2026-04-18T12:51:09Z</time></trkpt><trkpt lat="43.48729166071736" lon="12.926260176973605"><ele>448.66666666666663</ele><time>2026-04-18T12:51:10Z</time></trkpt><trkpt lat="43.48730728006668" lon="12.925988969941486"><ele>448.33333333333337</ele><time>2026-04-18T12:51:11Z</time></trkpt><trkpt lat="43.48731036398912" lon="12.925779389231417"><ele>448.0</ele><time>2026-04-18T12:51:12Z</time></trkpt><trkpt lat="43.487272322873544" lon="12.925615521889778"><ele>447.33333333333337</ele><time>2026-04-18T12:51:13Z</time></trkpt><trkpt lat="43.48718335174657" lon="12.925470128635803"><ele>446.66666666666663</ele><time>2026-04-18T12:51:14Z</time></trkpt><trkpt lat="43.48702293814433" lon="12.925352349926705"><ele>446.0</ele><time>2026-04-18T12:51:15Z</time></trkpt><trkpt lat="43.48681492207285" lon="12.925266976982249"><ele>448.66666666666663</ele><time>2026-04-18T12:51:16Z</time></trkpt><trkpt lat="43.48659497851614" lon="12.925168959690158"><ele>451.33333333333337</ele><time>2026-04-18T12:51:17Z</time></trkpt><trkpt lat="43.48645724235351" lon="12.924978229903786"><ele>454.0</ele><time>2026-04-18T12:51:18Z</time></trkpt><trkpt lat="43.48634312967635" lon="12.924725284664548"><ele>456.5</ele><time>2026-04-18T12:51:19Z</time></trkpt><trkpt lat="43.486209832919016" lon="12.92441273540488"><ele>459.0</ele><time>2026-04-18T12:51:20Z</time></trkpt><trkpt lat="43.486088674395965" lon="12.924114385371126"><ele>459.0</ele><time>2026-04-18T12:51:21Z</time></trkpt><trkpt lat="43.48598756124255" lon="12.923867436364482"><ele>459.0</ele><time>2026-04-18T12:51:22Z</time></trkpt><trkpt lat="43.48590380522242" lon="12.923662834130203"><ele>459.0</ele><time>2026-04-18T12:51:23Z</time></trkpt><trkpt lat="43.4858200523131" lon="12.923469475589355"><ele>455.33333333333337</ele><time>2026-04-18T12:51:24Z</time></trkpt><trkpt lat="43.485744405563246" lon="12.923287801938464"><ele>451.6666666666667</ele><time>2026-04-18T12:51:25Z</time></trkpt><trkpt lat="43.48565557536126" lon="12.923117197460428"><ele>448.0</ele><time>2026-04-18T12:51:26Z</time></trkpt><trkpt lat="43.48552897288009" lon="12.923000330493117"><ele>449.0</ele><time>2026-04-18T12:51:27Z</time></trkpt><trkpt lat="43.48536130317839" lon="12.922939299693585"><ele>450.0</ele><time>2026-04-18T12:51:28Z</time></trkpt><trkpt lat="43.4851711891774" lon="12.922978244011148"><ele>451.0</ele><time>2026-04-18T12:51:29Z</time></trkpt><trkpt lat="43.484995745431966" lon="12.923098076402864"><ele>451.0</ele><time>2026-04-18T12:51:30Z</time></trkpt><trkpt lat="43.48482691727219" lon="12.923192607176347"><ele>451.0</ele><time>2026-04-18T12:51:31Z</time></trkpt><trkpt lat="43.48467211160155" lon="12.923140582206582"><ele>451.0</ele><time>2026-04-18T12:51:32Z</time></trkpt><trkpt lat="43.484498553864015" lon="12.923193391682792"><ele>451.33333333333337</ele><time>2026-04-18T12:51:33Z</time></trkpt><trkpt lat="43.48435567478957" lon="12.922975121098128"><ele>451.66666666666663</ele><time>2026-04-18T12:51:34Z</time></trkpt><trkpt lat="43.484208537370385" lon="12.922869215417066"><ele>452.0</ele><time>2026-04-18T12:51:35Z</time></trkpt><trkpt lat="43.48406800100174" lon="12.922753576468226"><ele>452.0</ele><time>2026-04-18T12:51:36Z</time></trkpt><trkpt lat="43.4839463723236" lon="12.922620439350467"><ele>452.0</ele><time>2026-04-18T12:51:37Z</time></trkpt><trkpt lat="43.48385004751094" lon="12.922463761334123"><ele>452.0</ele><time>2026-04-18T12:51:38Z</time></trkpt><trkpt lat="43.483770590239594" lon="12.922290101031706"><ele>450.75</ele><time>2026-04-18T12:51:39Z</time></trkpt><trkpt lat="43.48369650630651" lon="12.922107001533776"><ele>449.5</ele><time>2026-04-18T12:51:40Z</time></trkpt><trkpt lat="43.483621489650034" lon="12.921941312785112"><ele>448.25</ele><time>2026-04-18T12:51:41Z</time></trkpt><trkpt lat="43.4835196829214" lon="12.921827114158598"><ele>447.0</ele><time>2026-04-18T12:51:42Z</time></trkpt><trkpt lat="43.48340110078789" lon="12.921757698720056"><ele>444.0</ele><time>2026-04-18T12:51:43Z</time></trkpt><trkpt lat="43.48327714823587" lon="12.921717605352027"><ele>441.0</ele><time>2026-04-18T12:51:44Z</time></trkpt><trkpt lat="43.483158194353955" lon="12.92168463600317"><ele>438.0</ele><time>2026-04-18T12:51:45Z</time></trkpt><trkpt lat="43.48304439382077" lon="12.921617227960533"><ele>435.0</ele><time>2026-04-18T12:51:46Z</time></trkpt><trkpt lat="43.48294916478164" lon="12.92150230386722"><ele>434.5</ele><time>2026-04-18T12:51:47Z</time></trkpt><trkpt lat="43.48286987856122" lon="12.92135432929676"><ele>434.0</ele><time>2026-04-18T12:51:48Z</time></trkpt><trkpt lat="43.482793076284096" lon="12.921197183772978"><ele>433.5</ele><time>2026-04-18T12:51:49Z</time></trkpt><trkpt lat="43.482676862590424" lon="12.921020971044058"><ele>433.0</ele><time>2026-04-18T12:51:50Z</time></trkpt><trkpt lat="43.48252610143999" lon="12.920776768489189"><ele>433.0</ele><time>2026-04-18T12:51:51Z</time></trkpt><trkpt lat="43.48241410290745" lon="12.9205413928249"><ele>433.0</ele><time>2026-04-18T12:51:52Z</time></trkpt><trkpt lat="43.48229978532546" lon="12.920320591404376"><ele>433.0</ele><time>2026-04-18T12:51:53Z</time></trkpt><trkpt lat="43.48226327277866" lon="12.920052188436786"><ele>429.33333333333337</ele><time>2026-04-18T12:51:54Z</time></trkpt><trkpt lat="43.48227108636582" lon="12.919786212551614"><ele>425.66666666666663</ele><time>2026-04-18T12:51:55Z</time></trkpt><trkpt lat="43.48226274003214" lon="12.91954317499989"><ele>422.0</ele><time>2026-04-18T12:51:56Z</time></trkpt><trkpt lat="43.48227054226244" lon="12.919338567381642"><ele>422.3333333333333</ele><time>2026-04-18T12:51:57Z</time></trkpt><trkpt lat="43.4822007132506" lon="12.919183028826543"><ele>422.66666666666663</ele><time>2026-04-18T12:51:58Z</time></trkpt><trkpt lat="43.48206717627409" lon="12.919074647995627"><ele>423.0</ele><time>2026-04-18T12:51:59Z</time></trkpt><trkpt lat="43.48190176730216" lon="12.919048067258597"><ele>423.0</ele><time>2026-04-18T12:52:00Z</time></trkpt><trkpt lat="43.48170295669125" lon="12.919107391036544"><ele>423.0</ele><time>2026-04-18T12:52:01Z</time></trkpt><trkpt lat="43.481513384492146" lon="12.919198327769271"><ele>423.0</ele><time>2026-04-18T12:52:02Z</time></trkpt><trkpt lat="43.48139811029822" lon="12.919254270045766"><ele>423.3333333333333</ele><time>2026-04-18T12:52:03Z</time></trkpt><trkpt lat="43.48132509145902" lon="12.919288059159042"><ele>423.66666666666663</ele><time>2026-04-18T12:52:04Z</time></trkpt><trkpt lat="43.481244635684696" lon="12.919307283013795"><ele>424.0</ele><time>2026-04-18T12:52:05Z</time></trkpt><trkpt lat="43.48116791454403" lon="12.91935106644336"><ele>424.3333333333333</ele><time>2026-04-18T12:52:06Z</time></trkpt><trkpt lat="43.4811000687724" lon="12.919380989965285"><ele>424.66666666666663</ele><time>2026-04-18T12:52:07Z</time></trkpt><trkpt lat="43.48103482143079" lon="12.91941222726468"><ele>425.0</ele><time>2026-04-18T12:52:08Z</time></trkpt><trkpt lat="43.480975248856744" lon="12.91945898961381"><ele>424.16666666666663</ele><time>2026-04-18T12:52:09Z</time></trkpt><trkpt lat="43.48091273646282" lon="12.91951091153825"><ele>423.3333333333333</ele><time>2026-04-18T12:52:10Z</time></trkpt><trkpt lat="43.48084702739001" lon="12.919569107255334"><ele>422.5</ele><time>2026-04-18T12:52:11Z</time></trkpt><trkpt lat="43.480786412897835" lon="12.91961941707122"><ele>421.66666666666663</ele><time>2026-04-18T12:52:12Z</time></trkpt><trkpt lat="43.480684597804924" lon="12.919702501063076"><ele>420.8333333333333</ele><time>2026-04-18T12:52:14Z</time></trkpt><trkpt lat="43.48062367980203" lon="12.91976493545193"><ele>420.0</ele><time>2026-04-18T12:52:18Z</time></trkpt><trkpt lat="43.48056455946784" lon="12.919810196506644"><ele>420.0</ele><time>2026-04-18T12:52:23Z</time></trkpt><trkpt lat="43.48051858430536" lon="12.919892574409449"><ele>420.0</ele><time>2026-04-18T12:53:25Z</time></trkpt><trkpt lat="43.48041902263557" lon="12.919955677496702"><ele>420.0</ele><time>2026-04-18T12:53:27Z</time></trkpt><trkpt lat="43.480361650066435" lon="12.920013813148683"><ele>420.0</ele><time>2026-04-18T12:53:28Z</time></trkpt><trkpt lat="43.48028791193666" lon="12.920086448737964"><ele>420.0</ele><time>2026-04-18T12:53:29Z</time></trkpt><trkpt lat="43.4802099919292" lon="12.92014795465104"><ele>420.0</ele><time>2026-04-18T12:53:30Z</time></trkpt><trkpt lat="43.480113783156405" lon="12.920185109999704"><ele>418.0</ele><time>2026-04-18T12:53:31Z</time></trkpt><trkpt lat="43.480010816734705" lon="12.920192503236393"><ele>416.0</ele><time>2026-04-18T12:53:32Z</time></trkpt><trkpt lat="43.47991921300996" lon="12.920088968205208"><ele>414.0</ele><time>2026-04-18T12:53:33Z</time></trkpt><trkpt lat="43.479844627202894" lon="12.919938096250318"><ele>412.0</ele><time>2026-04-18T12:53:34Z</time></trkpt><trkpt lat="43.47977339348532" lon="12.91976725219815"><ele>416.25</ele><time>2026-04-18T12:53:35Z</time></trkpt><trkpt lat="43.479722605321584" lon="12.919571081409302"><ele>420.5</ele><time>2026-04-18T12:53:36Z</time></trkpt><trkpt lat="43.47966644605835" lon="12.919387540723147"><ele>424.75</ele><time>2026-04-18T12:53:37Z</time></trkpt><trkpt lat="43.479611825129176" lon="12.919230459042893"><ele>429.0</ele><time>2026-04-18T12:53:38Z</time></trkpt><trkpt lat="43.47957710704379" lon="12.919104779102781"><ele>429.0</ele><time>2026-04-18T12:53:39Z</time></trkpt><trkpt lat="43.479537132489554" lon="12.918992393355262"><ele>429.0</ele><time>2026-04-18T12:53:40Z</time></trkpt><trkpt lat="43.4794897234186" lon="12.918903164955909"><ele>429.0</ele><time>2026-04-18T12:53:41Z</time></trkpt><trkpt lat="43.47941774506448" lon="12.918820559000578"><ele>429.0</ele><time>2026-04-18T12:53:42Z</time></trkpt><trkpt lat="43.479312785827894" lon="12.918759956705719"><ele>429.0</ele><time>2026-04-18T12:53:43Z</time></trkpt><trkpt lat="43.479180174200316" lon="12.91873500409023"><ele>429.0</ele><time>2026-04-18T12:53:44Z</time></trkpt><trkpt lat="43.47904222166077" lon="12.918723921276436"><ele>429.0</ele><time>2026-04-18T12:53:45Z</time></trkpt><trkpt lat="43.47888851130193" lon="12.918709572674977"><ele>429.0</ele><time>2026-04-18T12:53:46Z</time></trkpt><trkpt lat="43.47873859116476" lon="12.918696852658208"><ele>429.0</ele><time>2026-04-18T12:53:47Z</time></trkpt><trkpt lat="43.478588313220655" lon="12.918702649337163"><ele>429.0</ele><time>2026-04-18T12:53:48Z</time></trkpt><trkpt lat="43.47844961048187" lon="12.918753177432988"><ele>429.0</ele><time>2026-04-18T12:53:49Z</time></trkpt><trkpt lat="43.47832426595986" lon="12.91885727726153"><ele>429.0</ele><time>2026-04-18T12:53:50Z</time></trkpt><trkpt lat="43.47820698651368" lon="12.91897697079835"><ele>429.0</ele><time>2026-04-18T12:53:51Z</time></trkpt><trkpt lat="43.47807993980658" lon="12.919064594742048"><ele>429.0</ele><time>2026-04-18T12:53:52Z</time></trkpt><trkpt lat="43.47793707722274" lon="12.919087279307844"><ele>429.0</ele><time>2026-04-18T12:53:53Z</time></trkpt><trkpt lat="43.47778326077316" lon="12.91903517917475"><ele>429.0</ele><time>2026-04-18T12:53:54Z</time></trkpt><trkpt lat="43.47762604466831" lon="12.918941403520934"><ele>431.0</ele><time>2026-04-18T12:53:55Z</time></trkpt><trkpt lat="43.47747474573839" lon="12.918836599309646"><ele>433.0</ele><time>2026-04-18T12:53:56Z</time></trkpt><trkpt lat="43.4773230188262" lon="12.918746870575443"><ele>435.0</ele><time>2026-04-18T12:53:57Z</time></trkpt><trkpt lat="43.477167804639045" lon="12.918684352709677"><ele>433.0</ele><time>2026-04-18T12:53:58Z</time></trkpt><trkpt lat="43.47700968008715" lon="12.918665200793257"><ele>431.0</ele><time>2026-04-18T12:53:59Z</time></trkpt><trkpt lat="43.47686454853296" lon="12.918675591028636"><ele>429.0</ele><time>2026-04-18T12:54:00Z</time></trkpt><trkpt lat="43.47672100019834" lon="12.918693086612349"><ele>427.0</ele><time>2026-04-18T12:54:01Z</time></trkpt><trkpt lat="43.476580783657354" lon="12.918683973040148"><ele>427.0</ele><time>2026-04-18T12:54:02Z</time></trkpt><trkpt lat="43.47645499183108" lon="12.918646600129366"><ele>427.0</ele><time>2026-04-18T12:54:03Z</time></trkpt><trkpt lat="43.47633671660791" lon="12.918592212445539"><ele>427.0</ele><time>2026-04-18T12:54:04Z</time></trkpt><trkpt lat="43.47623566942964" lon="12.918524560903382"><ele>427.0</ele><time>2026-04-18T12:54:05Z</time></trkpt><trkpt lat="43.4761625770172" lon="12.918435620526454"><ele>427.0</ele><time>2026-04-18T12:54:06Z</time></trkpt><trkpt lat="43.476111013277894" lon="12.918296109554568"><ele>427.0</ele><time>2026-04-18T12:54:07Z</time></trkpt><trkpt lat="43.47609358207905" lon="12.918094233912063"><ele>427.0</ele><time>2026-04-18T12:54:08Z</time></trkpt><trkpt lat="43.476062594796105" lon="12.917804072540893"><ele>430.5</ele><time>2026-04-18T12:54:09Z</time></trkpt><trkpt lat="43.47602546621385" lon="12.917472298210095"><ele>434.0</ele><time>2026-04-18T12:54:10Z</time></trkpt><trkpt lat="43.47597403055782" lon="12.917138633696517"><ele>434.0</ele><time>2026-04-18T12:54:11Z</time></trkpt><trkpt lat="43.47593898116061" lon="12.916798687900972"><ele>434.0</ele><time>2026-04-18T12:54:12Z</time></trkpt><trkpt lat="43.47587044155851" lon="12.916460081537304"><ele>439.0</ele><time>2026-04-18T12:54:13Z</time></trkpt><trkpt lat="43.47575886999066" lon="12.91613930596248"><ele>444.0</ele><time>2026-04-18T12:54:14Z</time></trkpt><trkpt lat="43.47561844609564" lon="12.91583586468256"><ele>448.5</ele><time>2026-04-18T12:54:15Z</time></trkpt><trkpt lat="43.47549342331841" lon="12.915552462529803"><ele>453.0</ele><time>2026-04-18T12:54:16Z</time></trkpt><trkpt lat="43.4753843409704" lon="12.915284390627837"><ele>448.0</ele><time>2026-04-18T12:54:17Z</time></trkpt><trkpt lat="43.47528223271722" lon="12.915025511915985"><ele>443.0</ele><time>2026-04-18T12:54:18Z</time></trkpt><trkpt lat="43.47517751418768" lon="12.914761398024904"><ele>438.0</ele><time>2026-04-18T12:54:19Z</time></trkpt><trkpt lat="43.47508670754913" lon="12.914522673073877"><ele>438.0</ele><time>2026-04-18T12:54:20Z</time></trkpt><trkpt lat="43.47500324114718" lon="12.914310360559208"><ele>438.0</ele><time>2026-04-18T12:54:21Z</time></trkpt><trkpt lat="43.474920536648476" lon="12.91410441499968"><ele>438.0</ele><time>2026-04-18T12:54:22Z</time></trkpt><trkpt lat="43.474829882750925" lon="12.913922306057376"><ele>439.66666666666663</ele><time>2026-04-18T12:54:23Z</time></trkpt><trkpt lat="43.47471816538063" lon="12.913780808433938"><ele>441.3333333333333</ele><time>2026-04-18T12:54:24Z</time></trkpt><trkpt lat="43.474571873608255" lon="12.913697740336346"><ele>443.0</ele><time>2026-04-18T12:54:25Z</time></trkpt><trkpt lat="43.474406415376926" lon="12.91366905131916"><ele>443.0</ele><time>2026-04-18T12:54:26Z</time></trkpt><trkpt lat="43.47425147525163" lon="12.913700254281123"><ele>443.0</ele><time>2026-04-18T12:54:27Z</time></trkpt><trkpt lat="43.47411518461492" lon="12.913797236972703"><ele>443.0</ele><time>2026-04-18T12:54:28Z</time></trkpt><trkpt lat="43.47399826316925" lon="12.913952435232007"><ele>443.0</ele><time>2026-04-18T12:54:29Z</time></trkpt><trkpt lat="43.47392008942045" lon="12.914147648908633"><ele>443.0</ele><time>2026-04-18T12:54:30Z</time></trkpt><trkpt lat="43.47388696800554" lon="12.914366501052028"><ele>443.0</ele><time>2026-04-18T12:54:31Z</time></trkpt><trkpt lat="43.47388521238684" lon="12.914591108970555"><ele>440.3333333333333</ele><time>2026-04-18T12:54:32Z</time></trkpt><trkpt lat="43.47389032829344" lon="12.914813464992196"><ele>437.66666666666663</ele><time>2026-04-18T12:54:33Z</time></trkpt><trkpt lat="43.4738789326611" lon="12.915025478150481"><ele>435.0</ele><time>2026-04-18T12:54:34Z</time></trkpt><trkpt lat="43.47384349500227" lon="12.915218017474693"><ele>435.75</ele><time>2026-04-18T12:54:35Z</time></trkpt><trkpt lat="43.47374122100796" lon="12.915364222713789"><ele>436.5</ele><time>2026-04-18T12:54:36Z</time></trkpt><trkpt lat="43.473632383392356" lon="12.915457077553853"><ele>437.25</ele><time>2026-04-18T12:54:37Z</time></trkpt><trkpt lat="43.47351316628412" lon="12.91548766324549"><ele>438.0</ele><time>2026-04-18T12:54:38Z</time></trkpt><trkpt lat="43.473367368545084" lon="12.915510269044288"><ele>438.0</ele><time>2026-04-18T12:54:39Z</time></trkpt><trkpt lat="43.473208829068994" lon="12.91553125229317"><ele>438.0</ele><time>2026-04-18T12:54:40Z</time></trkpt><trkpt lat="43.47305257033122" lon="12.915483614024936"><ele>438.0</ele><time>2026-04-18T12:54:41Z</time></trkpt><trkpt lat="43.47289005728102" lon="12.915469622369736"><ele>439.0</ele><time>2026-04-18T12:54:42Z</time></trkpt><trkpt lat="43.47272938129267" lon="12.915422405279939"><ele>440.0</ele><time>2026-04-18T12:54:43Z</time></trkpt><trkpt lat="43.472573768046765" lon="12.91536892274371"><ele>441.0</ele><time>2026-04-18T12:54:44Z</time></trkpt><trkpt lat="43.47244200352771" lon="12.915265457102954"><ele>441.0</ele><time>2026-04-18T12:54:45Z</time></trkpt><trkpt lat="43.47233160531033" lon="12.915129355879403"><ele>441.0</ele><time>2026-04-18T12:54:46Z</time></trkpt><trkpt lat="43.4721849671259" lon="12.914920833820306"><ele>441.0</ele><time>2026-04-18T12:54:47Z</time></trkpt><trkpt lat="43.472004957790425" lon="12.9146599463296"><ele>438.5</ele><time>2026-04-18T12:54:48Z</time></trkpt><trkpt lat="43.471791500920666" lon="12.914353882202757"><ele>436.0</ele><time>2026-04-18T12:54:49Z</time></trkpt><trkpt lat="43.47156351194018" lon="12.914023384939574"><ele>436.0</ele><time>2026-04-18T12:54:50Z</time></trkpt><trkpt lat="43.471310931884425" lon="12.913679653310357"><ele>436.0</ele><time>2026-04-18T12:54:51Z</time></trkpt><trkpt lat="43.471081151383984" lon="12.913349491552047"><ele>431.5</ele><time>2026-04-18T12:54:52Z</time></trkpt><trkpt lat="43.470874010024254" lon="12.913049276672192"><ele>427.0</ele><time>2026-04-18T12:54:53Z</time></trkpt><trkpt lat="43.470667858747284" lon="12.912761777890578"><ele>422.5</ele><time>2026-04-18T12:54:54Z</time></trkpt><trkpt lat="43.470464337938004" lon="12.912468236188307"><ele>418.0</ele><time>2026-04-18T12:54:55Z</time></trkpt><trkpt lat="43.47028568817337" lon="12.912177415557297"><ele>418.0</ele><time>2026-04-18T12:54:56Z</time></trkpt><trkpt lat="43.4701379765202" lon="12.91189304139512"><ele>418.0</ele><time>2026-04-18T12:54:57Z</time></trkpt><trkpt lat="43.46998873221165" lon="12.911626731343576"><ele>424.0</ele><time>2026-04-18T12:54:58Z</time></trkpt><trkpt lat="43.46979518414532" lon="12.911391967529442"><ele>430.0</ele><time>2026-04-18T12:54:59Z</time></trkpt><trkpt lat="43.46953881647575" lon="12.911169050567095"><ele>424.0</ele><time>2026-04-18T12:55:00Z</time></trkpt><trkpt lat="43.469312764101716" lon="12.910978067892351"><ele>418.0</ele><time>2026-04-18T12:55:01Z</time></trkpt><trkpt lat="43.4691274040675" lon="12.910811725800533"><ele>418.0</ele><time>2026-04-18T12:55:02Z</time></trkpt><trkpt lat="43.46896543959924" lon="12.910665079328048"><ele>418.0</ele><time>2026-04-18T12:55:03Z</time></trkpt><trkpt lat="43.468833550852736" lon="12.9105285194441"><ele>418.0</ele><time>2026-04-18T12:55:04Z</time></trkpt><trkpt lat="43.468765530958315" lon="12.91036105377401"><ele>417.5</ele><time>2026-04-18T12:55:05Z</time></trkpt><trkpt lat="43.4687609655017" lon="12.910187488587022"><ele>417.0</ele><time>2026-04-18T12:55:06Z</time></trkpt><trkpt lat="43.46880829970012" lon="12.910004730827788"><ele>416.5</ele><time>2026-04-18T12:55:07Z</time></trkpt><trkpt lat="43.46896194799788" lon="12.909868938564534"><ele>416.0</ele><time>2026-04-18T12:55:08Z</time></trkpt><trkpt lat="43.46914278114644" lon="12.909719005060683"><ele>416.0</ele><time>2026-04-18T12:55:09Z</time></trkpt><trkpt lat="43.469334507911434" lon="12.909546269275594"><ele>416.0</ele><time>2026-04-18T12:55:10Z</time></trkpt><trkpt lat="43.469519476633295" lon="12.90940784758599"><ele>416.0</ele><time>2026-04-18T12:55:11Z</time></trkpt><trkpt lat="43.46967094061999" lon="12.90928700004767"><ele>414.0</ele><time>2026-04-18T12:55:12Z</time></trkpt><trkpt lat="43.46979488548315" lon="12.90918549195116"><ele>412.0</ele><time>2026-04-18T12:55:13Z</time></trkpt><trkpt lat="43.46992103816989" lon="12.909085231758088"><ele>410.0</ele><time>2026-04-18T12:55:14Z</time></trkpt><trkpt lat="43.470042357299285" lon="12.908983336252627"><ele>408.0</ele><time>2026-04-18T12:55:15Z</time></trkpt><trkpt lat="43.47015067381253" lon="12.908863188632347"><ele>408.0</ele><time>2026-04-18T12:55:16Z</time></trkpt><trkpt lat="43.47022706276196" lon="12.908688190163026"><ele>408.0</ele><time>2026-04-18T12:55:17Z</time></trkpt><trkpt lat="43.47023895093045" lon="12.908458536417932"><ele>408.0</ele><time>2026-04-18T12:55:18Z</time></trkpt><trkpt lat="43.47021416017899" lon="12.90820173729946"><ele>408.0</ele><time>2026-04-18T12:55:19Z</time></trkpt><trkpt lat="43.47015356713397" lon="12.907959602899696"><ele>408.0</ele><time>2026-04-18T12:55:20Z</time></trkpt><trkpt lat="43.47007712020993" lon="12.907739979978727"><ele>408.0</ele><time>2026-04-18T12:55:21Z</time></trkpt><trkpt lat="43.469984564278214" lon="12.90755568174172"><ele>408.0</ele><time>2026-04-18T12:55:22Z</time></trkpt><trkpt lat="43.46985958479286" lon="12.90740694954432"><ele>408.0</ele><time>2026-04-18T12:55:23Z</time></trkpt><trkpt lat="43.46970850425965" lon="12.907299084068391"><ele>408.0</ele><time>2026-04-18T12:55:24Z</time></trkpt><trkpt lat="43.469550150311065" lon="12.907218780096693"><ele>404.33333333333337</ele><time>2026-04-18T12:55:25Z</time></trkpt><trkpt lat="43.46939593092812" lon="12.907174322847599"><ele>400.6666666666667</ele><time>2026-04-18T12:55:26Z</time></trkpt><trkpt lat="43.46923495593339" lon="12.907188899005927"><ele>397.0</ele><time>2026-04-18T12:55:27Z</time></trkpt><trkpt lat="43.46907345046462" lon="12.90727159792475"><ele>397.0</ele><time>2026-04-18T12:55:28Z</time></trkpt><trkpt lat="43.46891184535941" lon="12.907407097702341"><ele>397.0</ele><time>2026-04-18T12:55:29Z</time></trkpt><trkpt lat="43.468737742264494" lon="12.907582984473063"><ele>397.0</ele><time>2026-04-18T12:55:30Z</time></trkpt><trkpt lat="43.468569702784094" lon="12.907731434337508"><ele>395.0</ele><time>2026-04-18T12:55:31Z</time></trkpt><trkpt lat="43.4684148920314" lon="12.907856354239954"><ele>393.0</ele><time>2026-04-18T12:55:32Z</time></trkpt><trkpt lat="43.46826739240883" lon="12.907972375692461"><ele>391.0</ele><time>2026-04-18T12:55:33Z</time></trkpt><trkpt lat="43.468117027875444" lon="12.908085599878794"><ele>391.0</ele><time>2026-04-18T12:55:34Z</time></trkpt><trkpt lat="43.46795895073545" lon="12.908116273364747"><ele>391.0</ele><time>2026-04-18T12:55:35Z</time></trkpt><trkpt lat="43.46779203300066" lon="12.908107072177435"><ele>391.0</ele><time>2026-04-18T12:55:36Z</time></trkpt><trkpt lat="43.46752141215388" lon="12.908084202727457"><ele>388.0</ele><time>2026-04-18T12:55:37Z</time></trkpt><trkpt lat="43.46720046622895" lon="12.908057367909409"><ele>385.0</ele><time>2026-04-18T12:55:38Z</time></trkpt><trkpt lat="43.46687398003759" lon="12.90805174965667"><ele>382.5</ele><time>2026-04-18T12:55:39Z</time></trkpt><trkpt lat="43.46657376316965" lon="12.908025552493879"><ele>380.0</ele><time>2026-04-18T12:55:40Z</time></trkpt><trkpt lat="43.46631553052103" lon="12.907979218332855"><ele>378.0</ele><time>2026-04-18T12:55:41Z</time></trkpt><trkpt lat="43.46607455570874" lon="12.907920889518653"><ele>376.0</ele><time>2026-04-18T12:55:42Z</time></trkpt><trkpt lat="43.465822183219956" lon="12.90777588470891"><ele>376.0</ele><time>2026-04-18T12:55:43Z</time></trkpt><trkpt lat="43.46552530158477" lon="12.90758167112863"><ele>376.0</ele><time>2026-04-18T12:55:44Z</time></trkpt><trkpt lat="43.46519554550021" lon="12.907389635014075"><ele>378.0</ele><time>2026-04-18T12:55:45Z</time></trkpt><trkpt lat="43.46486121081649" lon="12.9071766638273"><ele>380.0</ele><time>2026-04-18T12:55:46Z</time></trkpt><trkpt lat="43.46452350942142" lon="12.906964345329076"><ele>383.5</ele><time>2026-04-18T12:55:47Z</time></trkpt><trkpt lat="43.46421246747243" lon="12.906764421908475"><ele>387.0</ele><time>2026-04-18T12:55:48Z</time></trkpt><trkpt lat="43.463913004060466" lon="12.906574967810775"><ele>381.0</ele><time>2026-04-18T12:55:49Z</time></trkpt><trkpt lat="43.463602644956815" lon="12.906403770053327"><ele>375.0</ele><time>2026-04-18T12:55:50Z</time></trkpt><trkpt lat="43.46328249026318" lon="12.906272127617525"><ele>375.0</ele><time>2026-04-18T12:55:51Z</time></trkpt><trkpt lat="43.463006661027684" lon="12.906173617174993"><ele>375.0</ele><time>2026-04-18T12:55:52Z</time></trkpt><trkpt lat="43.46275890253012" lon="12.906091246344523"><ele>370.5</ele><time>2026-04-18T12:55:53Z</time></trkpt><trkpt lat="43.46252555948122" lon="12.906037339045609"><ele>366.0</ele><time>2026-04-18T12:55:54Z</time></trkpt><trkpt lat="43.46231759283472" lon="12.905919143888587"><ele>367.5</ele><time>2026-04-18T12:55:55Z</time></trkpt><trkpt lat="43.46208795051785" lon="12.905746886809625"><ele>369.0</ele><time>2026-04-18T12:55:56Z</time></trkpt><trkpt lat="43.46182428337435" lon="12.9055638886636"><ele>369.0</ele><time>2026-04-18T12:55:57Z</time></trkpt><trkpt lat="43.46161062336634" lon="12.905367058924316"><ele>369.0</ele><time>2026-04-18T12:55:58Z</time></trkpt><trkpt lat="43.46142484028878" lon="12.905202372194166"><ele>371.5</ele><time>2026-04-18T12:55:59Z</time></trkpt><trkpt lat="43.461213642542575" lon="12.90509600893989"><ele>374.0</ele><time>2026-04-18T12:56:00Z</time></trkpt><trkpt lat="43.460971141803334" lon="12.905053086018425"><ele>374.0</ele><time>2026-04-18T12:56:01Z</time></trkpt><trkpt lat="43.4607398130722" lon="12.905028505779148"><ele>374.0</ele><time>2026-04-18T12:56:02Z</time></trkpt><trkpt lat="43.4605483436058" lon="12.905014060571036"><ele>374.0</ele><time>2026-04-18T12:56:03Z</time></trkpt><trkpt lat="43.46036377188018" lon="12.904953583634274"><ele>367.0</ele><time>2026-04-18T12:56:04Z</time></trkpt><trkpt lat="43.46019144723302" lon="12.90482124139473"><ele>360.0</ele><time>2026-04-18T12:56:05Z</time></trkpt><trkpt lat="43.460022229266876" lon="12.90455614252471"><ele>360.0</ele><time>2026-04-18T12:56:06Z</time></trkpt><trkpt lat="43.4598354328668" lon="12.904266091049058"><ele>360.0</ele><time>2026-04-18T12:56:07Z</time></trkpt><trkpt lat="43.459588237242656" lon="12.90400355745935"><ele>355.5</ele><time>2026-04-18T12:56:08Z</time></trkpt><trkpt lat="43.459324415567" lon="12.903799870446027"><ele>351.0</ele><time>2026-04-18T12:56:09Z</time></trkpt><trkpt lat="43.459067851951794" lon="12.903543242415262"><ele>351.0</ele><time>2026-04-18T12:56:10Z</time></trkpt><trkpt lat="43.458828923270765" lon="12.903345380051613"><ele>351.0</ele><time>2026-04-18T12:56:11Z</time></trkpt><trkpt lat="43.45855095512308" lon="12.903189799279279"><ele>351.0</ele><time>2026-04-18T12:56:12Z</time></trkpt><trkpt lat="43.45825620206649" lon="12.903044518047043"><ele>351.0</ele><time>2026-04-18T12:56:13Z</time></trkpt><trkpt lat="43.45795692629993" lon="12.902814536934137"><ele>348.5</ele><time>2026-04-18T12:56:14Z</time></trkpt><trkpt lat="43.457658734895645" lon="12.902551590678804"><ele>346.0</ele><time>2026-04-18T12:56:15Z</time></trkpt><trkpt lat="43.45738646119499" lon="12.902312391465584"><ele>342.5</ele><time>2026-04-18T12:56:16Z</time></trkpt><trkpt lat="43.45710313853293" lon="12.902116005957852"><ele>339.0</ele><time>2026-04-18T12:56:17Z</time></trkpt><trkpt lat="43.45681168979955" lon="12.901949941449569"><ele>339.0</ele><time>2026-04-18T12:56:18Z</time></trkpt><trkpt lat="43.456535701989786" lon="12.90180456835192"><ele>339.0</ele><time>2026-04-18T12:56:19Z</time></trkpt><trkpt lat="43.45627869113831" lon="12.901675836419829"><ele>335.0</ele><time>2026-04-18T12:56:20Z</time></trkpt><trkpt lat="43.456023635490176" lon="12.90156901742853"><ele>331.0</ele><time>2026-04-18T12:56:21Z</time></trkpt><trkpt lat="43.45578038102185" lon="12.901490389541637"><ele>331.0</ele><time>2026-04-18T12:56:22Z</time></trkpt><trkpt lat="43.45555516027586" lon="12.90137169666001"><ele>331.0</ele><time>2026-04-18T12:56:23Z</time></trkpt><trkpt lat="43.45534262587415" lon="12.90118087796802"><ele>331.5</ele><time>2026-04-18T12:56:24Z</time></trkpt><trkpt lat="43.455140234469134" lon="12.900960239192555"><ele>332.0</ele><time>2026-04-18T12:56:25Z</time></trkpt><trkpt lat="43.454940123076355" lon="12.900780459817042"><ele>331.33333333333337</ele><time>2026-04-18T12:56:26Z</time></trkpt><trkpt lat="43.454732359462525" lon="12.900677681487469"><ele>330.6666666666667</ele><time>2026-04-18T12:56:27Z</time></trkpt><trkpt lat="43.45454812155765" lon="12.900543868933806"><ele>330.0</ele><time>2026-04-18T12:56:28Z</time></trkpt><trkpt lat="43.45438047118497" lon="12.900291922551052"><ele>324.5</ele><time>2026-04-18T12:56:29Z</time></trkpt><trkpt lat="43.45418039511473" lon="12.899961422501073"><ele>319.0</ele><time>2026-04-18T12:56:30Z</time></trkpt><trkpt lat="43.45392410348771" lon="12.899599260495085"><ele>322.0</ele><time>2026-04-18T12:56:31Z</time></trkpt><trkpt lat="43.45364873296091" lon="12.899227532003708"><ele>325.0</ele><time>2026-04-18T12:56:32Z</time></trkpt><trkpt lat="43.45334291368401" lon="12.89885120297936"><ele>325.0</ele><time>2026-04-18T12:56:33Z</time></trkpt><trkpt lat="43.45302501489543" lon="12.898474491041807"><ele>325.0</ele><time>2026-04-18T12:56:34Z</time></trkpt><trkpt lat="43.452724758330284" lon="12.89810534155752"><ele>322.0</ele><time>2026-04-18T12:56:35Z</time></trkpt><trkpt lat="43.45246093454316" lon="12.897750894843046"><ele>319.0</ele><time>2026-04-18T12:56:36Z</time></trkpt><trkpt lat="43.45223168281064" lon="12.897408685059663"><ele>320.0</ele><time>2026-04-18T12:56:37Z</time></trkpt><trkpt lat="43.45201323919943" lon="12.897084947404862"><ele>321.0</ele><time>2026-04-18T12:56:38Z</time></trkpt><trkpt lat="43.45180303769429" lon="12.896781504609002"><ele>317.5</ele><time>2026-04-18T12:56:39Z</time></trkpt><trkpt lat="43.45159866296957" lon="12.896486344095536"><ele>314.0</ele><time>2026-04-18T12:56:40Z</time></trkpt><trkpt lat="43.451401309605835" lon="12.896205064742466"><ele>314.0</ele><time>2026-04-18T12:56:41Z</time></trkpt><trkpt lat="43.451211887726124" lon="12.895955984326728"><ele>314.0</ele><time>2026-04-18T12:56:42Z</time></trkpt><trkpt lat="43.45103141529824" lon="12.895719783959363"><ele>314.0</ele><time>2026-04-18T12:56:43Z</time></trkpt><trkpt lat="43.45087294013039" lon="12.89551173118006"><ele>314.0</ele><time>2026-04-18T12:56:44Z</time></trkpt><trkpt lat="43.450727944644406" lon="12.8953169220899"><ele>314.0</ele><time>2026-04-18T12:56:45Z</time></trkpt><trkpt lat="43.4505810278746" lon="12.895125665085521"><ele>312.0</ele><time>2026-04-18T12:56:46Z</time></trkpt><trkpt lat="43.45044296011227" lon="12.894940727917152"><ele>310.0</ele><time>2026-04-18T12:56:47Z</time></trkpt><trkpt lat="43.45033599155681" lon="12.894790134979752"><ele>308.0</ele><time>2026-04-18T12:56:48Z</time></trkpt><trkpt lat="43.45025777233206" lon="12.894678320932133"><ele>308.0</ele><time>2026-04-18T12:56:49Z</time></trkpt><trkpt lat="43.4502052365723" lon="12.894603348341475"><ele>308.0</ele><time>2026-04-18T12:56:50Z</time></trkpt><trkpt lat="43.45014145283016" lon="12.894513410355486"><ele>308.0</ele><time>2026-04-18T12:56:52Z</time></trkpt><trkpt lat="43.45005844359382" lon="12.894421969400165"><ele>308.0</ele><time>2026-04-18T12:58:00Z</time></trkpt><trkpt lat="43.45000585047021" lon="12.894370536047747"><ele>308.0</ele><time>2026-04-18T12:58:01Z</time></trkpt><trkpt lat="43.4499292017014" lon="12.89433253598533"><ele>308.0</ele><time>2026-04-18T12:58:02Z</time></trkpt><trkpt lat="43.449846224750196" lon="12.894312234951697"><ele>308.0</ele><time>2026-04-18T12:58:03Z</time></trkpt><trkpt lat="43.449747138600806" lon="12.894353624330469"><ele>308.0</ele><time>2026-04-18T12:58:04Z</time></trkpt><trkpt lat="43.44964265908774" lon="12.894462626709863"><ele>308.0</ele><time>2026-04-18T12:58:05Z</time></trkpt><trkpt lat="43.449554821347526" lon="12.89454202591911"><ele>308.0</ele><time>2026-04-18T12:58:06Z</time></trkpt><trkpt lat="43.449454494777285" lon="12.894593598606386"><ele>308.0</ele><time>2026-04-18T12:58:07Z</time></trkpt><trkpt lat="43.4493454422561" lon="12.89453610464313"><ele>308.5</ele><time>2026-04-18T12:58:08Z</time></trkpt><trkpt lat="43.44920964785827" lon="12.894500864857704"><ele>309.0</ele><time>2026-04-18T12:58:09Z</time></trkpt><trkpt lat="43.44909680620057" lon="12.894411000225448"><ele>309.5</ele><time>2026-04-18T12:58:10Z</time></trkpt><trkpt lat="43.449046122867024" lon="12.894205890623095"><ele>310.0</ele><time>2026-04-18T12:58:11Z</time></trkpt><trkpt lat="43.44896830646257" lon="12.893962087359515"><ele>310.3333333333333</ele><time>2026-04-18T12:58:12Z</time></trkpt><trkpt lat="43.44889358605782" lon="12.8937654119317"><ele>310.6666666666667</ele><time>2026-04-18T12:58:13Z</time></trkpt><trkpt lat="43.44880068247309" lon="12.893585975879299"><ele>311.0</ele><time>2026-04-18T12:58:14Z</time></trkpt><trkpt lat="43.448649489791684" lon="12.893424010787173"><ele>308.0</ele><time>2026-04-18T12:58:15Z</time></trkpt><trkpt lat="43.44847680631745" lon="12.893308451158665"><ele>305.0</ele><time>2026-04-18T12:58:16Z</time></trkpt><trkpt lat="43.448311268042374" lon="12.893222234231038"><ele>302.0</ele><time>2026-04-18T12:58:17Z</time></trkpt><trkpt lat="43.44810663789637" lon="12.893154301081374"><ele>300.5</ele><time>2026-04-18T12:58:18Z</time></trkpt><trkpt lat="43.44788182832105" lon="12.893102709020484"><ele>299.0</ele><time>2026-04-18T12:58:19Z</time></trkpt><trkpt lat="43.44762762738044" lon="12.893070388423238"><ele>299.0</ele><time>2026-04-18T12:58:20Z</time></trkpt><trkpt lat="43.44736077834025" lon="12.893075934417176"><ele>299.0</ele><time>2026-04-18T12:58:21Z</time></trkpt><trkpt lat="43.44708604557463" lon="12.893136510387118"><ele>295.5</ele><time>2026-04-18T12:58:22Z</time></trkpt><trkpt lat="43.446830633179054" lon="12.89322206271536"><ele>292.0</ele><time>2026-04-18T12:58:23Z</time></trkpt><trkpt lat="43.446592040600486" lon="12.893307577698275"><ele>292.0</ele><time>2026-04-18T12:58:24Z</time></trkpt><trkpt lat="43.44636275057457" lon="12.893382775967252"><ele>292.0</ele><time>2026-04-18T12:58:25Z</time></trkpt><trkpt lat="43.446143200443515" lon="12.893459119265739"><ele>290.3333333333333</ele><time>2026-04-18T12:58:26Z</time></trkpt><trkpt lat="43.44593147514844" lon="12.893545023667038"><ele>288.6666666666667</ele><time>2026-04-18T12:58:27Z</time></trkpt><trkpt lat="43.445733958751774" lon="12.89365218847406"><ele>287.0</ele><time>2026-04-18T12:58:28Z</time></trkpt><trkpt lat="43.44553929351385" lon="12.893782545462367"><ele>285.0</ele><time>2026-04-18T12:58:29Z</time></trkpt><trkpt lat="43.44534457915432" lon="12.89392612518696"><ele>283.0</ele><time>2026-04-18T12:58:30Z</time></trkpt><trkpt lat="43.44514009672836" lon="12.893976825688883"><ele>281.0</ele><time>2026-04-18T12:58:31Z</time></trkpt><trkpt lat="43.444940828783565" lon="12.89401000750757"><ele>281.0</ele><time>2026-04-18T12:58:32Z</time></trkpt><trkpt lat="43.44474541382534" lon="12.894018197138807"><ele>281.0</ele><time>2026-04-18T12:58:33Z</time></trkpt><trkpt lat="43.44456521572498" lon="12.894005400973588"><ele>281.0</ele><time>2026-04-18T12:58:34Z</time></trkpt><trkpt lat="43.44441537573881" lon="12.893954723848017"><ele>279.5</ele><time>2026-04-18T12:58:35Z</time></trkpt><trkpt lat="43.444272002419616" lon="12.893901067352731"><ele>278.0</ele><time>2026-04-18T12:58:36Z</time></trkpt><trkpt lat="43.44413477011467" lon="12.893871850804162"><ele>276.5</ele><time>2026-04-18T12:58:37Z</time></trkpt><trkpt lat="43.44401145082948" lon="12.893843900245596"><ele>275.0</ele><time>2026-04-18T12:58:38Z</time></trkpt><trkpt lat="43.44388160794572" lon="12.893892252872"><ele>273.75</ele><time>2026-04-18T12:58:39Z</time></trkpt><trkpt lat="43.443766432057835" lon="12.893981534412378"><ele>272.5</ele><time>2026-04-18T12:58:40Z</time></trkpt><trkpt lat="43.443657991101155" lon="12.89407432993907"><ele>271.25</ele><time>2026-04-18T12:58:41Z</time></trkpt><trkpt lat="43.443554050347295" lon="12.894150138777055"><ele>270.0</ele><time>2026-04-18T12:58:42Z</time></trkpt><trkpt lat="43.44345330775683" lon="12.894190847725739"><ele>270.0</ele><time>2026-04-18T12:58:43Z</time></trkpt><trkpt lat="43.44336825700533" lon="12.894218901797126"><ele>270.0</ele><time>2026-04-18T12:58:44Z</time></trkpt><trkpt lat="43.44334320183809" lon="12.89441558661258"><ele>270.0</ele><time>2026-04-18T12:58:46Z</time></trkpt><trkpt lat="43.443345918074186" lon="12.89455317997461"><ele>270.0</ele><time>2026-04-18T12:58:47Z</time></trkpt><trkpt lat="43.44335841968426" lon="12.894721908590675"><ele>269.6666666666667</ele><time>2026-04-18T12:58:48Z</time></trkpt><trkpt lat="43.44334703559065" lon="12.894925774104985"><ele>269.33333333333337</ele><time>2026-04-18T12:58:49Z</time></trkpt><trkpt lat="43.44332166500596" lon="12.895156622607699"><ele>269.0</ele><time>2026-04-18T12:58:50Z</time></trkpt><trkpt lat="43.44329779458088" lon="12.895400515594549"><ele>270.0</ele><time>2026-04-18T12:58:51Z</time></trkpt><trkpt lat="43.443270010709625" lon="12.895668573978366"><ele>271.0</ele><time>2026-04-18T12:58:52Z</time></trkpt><trkpt lat="43.4432420474423" lon="12.895917049737657"><ele>272.0</ele><time>2026-04-18T12:58:53Z</time></trkpt><trkpt lat="43.443189393526005" lon="12.89616464444678"><ele>271.33333333333337</ele><time>2026-04-18T12:58:54Z</time></trkpt><trkpt lat="43.443087656531176" lon="12.896386000357477"><ele>270.6666666666667</ele><time>2026-04-18T12:58:55Z</time></trkpt><trkpt lat="43.442939459257296" lon="12.896590976989291"><ele>270.0</ele><time>2026-04-18T12:58:56Z</time></trkpt><trkpt lat="43.44277323701429" lon="12.89678223536563"><ele>270.0</ele><time>2026-04-18T12:58:57Z</time></trkpt><trkpt lat="43.44259364779988" lon="12.89696377464626"><ele>270.0</ele><time>2026-04-18T12:58:58Z</time></trkpt><trkpt lat="43.44240182292665" lon="12.897150609092147"><ele>270.0</ele><time>2026-04-18T12:58:59Z</time></trkpt><trkpt lat="43.4422101003386" lon="12.897356364981148"><ele>270.0</ele><time>2026-04-18T12:59:00Z</time></trkpt><trkpt lat="43.442012059367066" lon="12.897579885884836"><ele>267.5</ele><time>2026-04-18T12:59:01Z</time></trkpt><trkpt lat="43.44181168571977" lon="12.897808907226741"><ele>265.0</ele><time>2026-04-18T12:59:02Z</time></trkpt><trkpt lat="43.44160929705269" lon="12.898040144755928"><ele>265.0</ele><time>2026-04-18T12:59:03Z</time></trkpt><trkpt lat="43.441410891391364" lon="12.89828835612659"><ele>265.0</ele><time>2026-04-18T12:59:04Z</time></trkpt><trkpt lat="43.441224422576745" lon="12.898549393218147"><ele>263.0</ele><time>2026-04-18T12:59:05Z</time></trkpt><trkpt lat="43.44104200743293" lon="12.898811729056147"><ele>261.0</ele><time>2026-04-18T12:59:06Z</time></trkpt><trkpt lat="43.44086533389585" lon="12.899064308868615"><ele>262.0</ele><time>2026-04-18T12:59:07Z</time></trkpt><trkpt lat="43.44070353863749" lon="12.89932169688466"><ele>263.0</ele><time>2026-04-18T12:59:08Z</time></trkpt><trkpt lat="43.44056341677553" lon="12.899599503812647"><ele>260.5</ele><time>2026-04-18T12:59:09Z</time></trkpt><trkpt lat="43.44042828761778" lon="12.899897905162286"><ele>258.0</ele><time>2026-04-18T12:59:10Z</time></trkpt><trkpt lat="43.44029391004828" lon="12.900198424814812"><ele>258.0</ele><time>2026-04-18T12:59:11Z</time></trkpt><trkpt lat="43.44015590832364" lon="12.9004945757915"><ele>258.0</ele><time>2026-04-18T12:59:12Z</time></trkpt><trkpt lat="43.44001322107268" lon="12.900798598410267"><ele>259.0</ele><time>2026-04-18T12:59:13Z</time></trkpt><trkpt lat="43.43987442760426" lon="12.901093505750087"><ele>260.0</ele><time>2026-04-18T12:59:14Z</time></trkpt><trkpt lat="43.4397341194129" lon="12.901375628000823"><ele>260.5</ele><time>2026-04-18T12:59:15Z</time></trkpt><trkpt lat="43.439584118869874" lon="12.901637717458456"><ele>261.0</ele><time>2026-04-18T12:59:16Z</time></trkpt><trkpt lat="43.43939768984702" lon="12.901846871889184"><ele>261.0</ele><time>2026-04-18T12:59:17Z</time></trkpt><trkpt lat="43.43922144892884" lon="12.902066022636069"><ele>261.0</ele><time>2026-04-18T12:59:18Z</time></trkpt><trkpt lat="43.43903928785805" lon="12.90224689334598"><ele>261.0</ele><time>2026-04-18T12:59:19Z</time></trkpt><trkpt lat="43.43887213092628" lon="12.902432407520475"><ele>261.0</ele><time>2026-04-18T12:59:20Z</time></trkpt><trkpt lat="43.43871687698081" lon="12.902610377587063"><ele>261.0</ele><time>2026-04-18T12:59:21Z</time></trkpt><trkpt lat="43.43855529768374" lon="12.902795208913496"><ele>262.0</ele><time>2026-04-18T12:59:22Z</time></trkpt><trkpt lat="43.43839502335814" lon="12.902978779227606"><ele>263.0</ele><time>2026-04-18T12:59:23Z</time></trkpt><trkpt lat="43.4382327174571" lon="12.90316077391944"><ele>264.0</ele><time>2026-04-18T12:59:24Z</time></trkpt><trkpt lat="43.438070508991316" lon="12.903350691297161"><ele>263.6666666666667</ele><time>2026-04-18T12:59:25Z</time></trkpt><trkpt lat="43.43790768254994" lon="12.903539506689283"><ele>263.33333333333337</ele><time>2026-04-18T12:59:26Z</time></trkpt><trkpt lat="43.43773324640176" lon="12.903743183961423"><ele>263.0</ele><time>2026-04-18T12:59:27Z</time></trkpt><trkpt lat="43.437558559485765" lon="12.903944952242172"><ele>263.0</ele><time>2026-04-18T12:59:28Z</time></trkpt><trkpt lat="43.437384461368104" lon="12.904148538637218"><ele>263.0</ele><time>2026-04-18T12:59:29Z</time></trkpt><trkpt lat="43.4372025376594" lon="12.904363333343367"><ele>263.0</ele><time>2026-04-18T12:59:30Z</time></trkpt><trkpt lat="43.43701384103834" lon="12.904585346434908"><ele>263.0</ele><time>2026-04-18T12:59:31Z</time></trkpt><trkpt lat="43.43682343178982" lon="12.904814356108176"><ele>263.0</ele><time>2026-04-18T12:59:32Z</time></trkpt><trkpt lat="43.43663223374187" lon="12.905038646272871"><ele>263.0</ele><time>2026-04-18T12:59:33Z</time></trkpt><trkpt lat="43.43644324314225" lon="12.905262295451362"><ele>262.5</ele><time>2026-04-18T12:59:34Z</time></trkpt><trkpt lat="43.43625501339211" lon="12.905482045349508"><ele>262.0</ele><time>2026-04-18T12:59:35Z</time></trkpt><trkpt lat="43.436066640139174" lon="12.905698077144871"><ele>263.5</ele><time>2026-04-18T12:59:36Z</time></trkpt><trkpt lat="43.43586812541561" lon="12.905918859804004"><ele>265.0</ele><time>2026-04-18T12:59:37Z</time></trkpt><trkpt lat="43.43566682486302" lon="12.90613157746798"><ele>262.5</ele><time>2026-04-18T12:59:38Z</time></trkpt><trkpt lat="43.4354623653552" lon="12.906338837369141"><ele>260.0</ele><time>2026-04-18T12:59:39Z</time></trkpt><trkpt lat="43.435257245651556" lon="12.906539600534765"><ele>260.0</ele><time>2026-04-18T12:59:40Z</time></trkpt><trkpt lat="43.43505420934795" lon="12.906730290222042"><ele>260.0</ele><time>2026-04-18T12:59:41Z</time></trkpt><trkpt lat="43.43484054297137" lon="12.906928912700772"><ele>259.5</ele><time>2026-04-18T12:59:42Z</time></trkpt><trkpt lat="43.43462532806275" lon="12.90712807515226"><ele>259.0</ele><time>2026-04-18T12:59:43Z</time></trkpt><trkpt lat="43.434410336449055" lon="12.907333088859895"><ele>259.0</ele><time>2026-04-18T12:59:44Z</time></trkpt><trkpt lat="43.43419557237779" lon="12.907542513868638"><ele>259.0</ele><time>2026-04-18T12:59:45Z</time></trkpt><trkpt lat="43.43398434615599" lon="12.90774426818498"><ele>260.0</ele><time>2026-04-18T12:59:46Z</time></trkpt><trkpt lat="43.433774659749574" lon="12.90793823552639"><ele>261.0</ele><time>2026-04-18T12:59:47Z</time></trkpt><trkpt lat="43.433566373419666" lon="12.908123971367162"><ele>261.0</ele><time>2026-04-18T12:59:48Z</time></trkpt><trkpt lat="43.433361605444595" lon="12.908302858406921"><ele>261.0</ele><time>2026-04-18T12:59:49Z</time></trkpt><trkpt lat="43.43315848762723" lon="12.90847305222929"><ele>261.3333333333333</ele><time>2026-04-18T12:59:50Z</time></trkpt><trkpt lat="43.432967631787626" lon="12.908638500694856"><ele>261.66666666666663</ele><time>2026-04-18T12:59:51Z</time></trkpt><trkpt lat="43.432779332411805" lon="12.908798307600264"><ele>262.0</ele><time>2026-04-18T12:59:52Z</time></trkpt><trkpt lat="43.4325898661792" lon="12.908958466610038"><ele>262.0</ele><time>2026-04-18T12:59:53Z</time></trkpt><trkpt lat="43.43240081712047" lon="12.909121993890823"><ele>262.0</ele><time>2026-04-18T12:59:54Z</time></trkpt><trkpt lat="43.4322151397413" lon="12.909286448258632"><ele>262.0</ele><time>2026-04-18T12:59:55Z</time></trkpt><trkpt lat="43.43203533773124" lon="12.909453232451348"><ele>262.0</ele><time>2026-04-18T12:59:56Z</time></trkpt><trkpt lat="43.43185539681738" lon="12.909629995216504"><ele>262.0</ele><time>2026-04-18T12:59:57Z</time></trkpt><trkpt lat="43.43168141116524" lon="12.909850780523584"><ele>267.0</ele><time>2026-04-18T12:59:58Z</time></trkpt><trkpt lat="43.43151999176179" lon="12.910134938324214"><ele>272.0</ele><time>2026-04-18T12:59:59Z</time></trkpt><trkpt lat="43.431370062363335" lon="12.91047416908649"><ele>266.0</ele><time>2026-04-18T13:00:00Z</time></trkpt><trkpt lat="43.43121872245056" lon="12.910839416408225"><ele>260.0</ele><time>2026-04-18T13:00:01Z</time></trkpt><trkpt lat="43.431059826773065" lon="12.911200612778206"><ele>260.0</ele><time>2026-04-18T13:00:02Z</time></trkpt><trkpt lat="43.43090108677447" lon="12.911550485145689"><ele>260.0</ele><time>2026-04-18T13:00:03Z</time></trkpt><trkpt lat="43.430743575199735" lon="12.911892854421252"><ele>256.0</ele><time>2026-04-18T13:00:04Z</time></trkpt><trkpt lat="43.430584050949" lon="12.912215419711526"><ele>252.0</ele><time>2026-04-18T13:00:05Z</time></trkpt><trkpt lat="43.43041260092382" lon="12.9125170718465"><ele>259.5</ele><time>2026-04-18T13:00:06Z</time></trkpt><trkpt lat="43.43022455034121" lon="12.912794563449294"><ele>267.0</ele><time>2026-04-18T13:00:07Z</time></trkpt><trkpt lat="43.430013575234724" lon="12.913048950311461"><ele>267.0</ele><time>2026-04-18T13:00:08Z</time></trkpt><trkpt lat="43.42976814985596" lon="12.91326708310021"><ele>267.0</ele><time>2026-04-18T13:00:09Z</time></trkpt><trkpt lat="43.42949207985681" lon="12.913466951973755"><ele>269.0</ele><time>2026-04-18T13:00:10Z</time></trkpt><trkpt lat="43.42919607463816" lon="12.91365356701111"><ele>271.0</ele><time>2026-04-18T13:00:11Z</time></trkpt><trkpt lat="43.42890352423873" lon="12.913839457061647"><ele>265.5</ele><time>2026-04-18T13:00:12Z</time></trkpt><trkpt lat="43.42862217057701" lon="12.91402344356715"><ele>260.0</ele><time>2026-04-18T13:00:13Z</time></trkpt><trkpt lat="43.42835972565453" lon="12.914193842054472"><ele>259.0</ele><time>2026-04-18T13:00:14Z</time></trkpt><trkpt lat="43.42811769674539" lon="12.914357368830727"><ele>258.0</ele><time>2026-04-18T13:00:15Z</time></trkpt><trkpt lat="43.42789622171199" lon="12.914530828706658"><ele>258.0</ele><time>2026-04-18T13:00:16Z</time></trkpt><trkpt lat="43.42769542817066" lon="12.914729704859585"><ele>258.0</ele><time>2026-04-18T13:00:17Z</time></trkpt><trkpt lat="43.427505249137084" lon="12.914973281428159"><ele>265.5</ele><time>2026-04-18T13:00:18Z</time></trkpt><trkpt lat="43.427348140770405" lon="12.915251453325405"><ele>273.0</ele><time>2026-04-18T13:00:19Z</time></trkpt><trkpt lat="43.42724067560489" lon="12.91554418951638"><ele>273.0</ele><time>2026-04-18T13:00:20Z</time></trkpt><trkpt lat="43.42716982785684" lon="12.915842227140057"><ele>273.0</ele><time>2026-04-18T13:00:21Z</time></trkpt><trkpt lat="43.42712803080054" lon="12.9161843769238"><ele>274.5</ele><time>2026-04-18T13:00:22Z</time></trkpt><trkpt lat="43.42712459911702" lon="12.91655281262172"><ele>276.0</ele><time>2026-04-18T13:00:23Z</time></trkpt><trkpt lat="43.42715778172062" lon="12.916920505134545"><ele>276.0</ele><time>2026-04-18T13:00:24Z</time></trkpt><trkpt lat="43.427224304536864" lon="12.917290319312913"><ele>276.0</ele><time>2026-04-18T13:00:25Z</time></trkpt><trkpt lat="43.427285910929264" lon="12.917676423012225"><ele>271.0</ele><time>2026-04-18T13:00:26Z</time></trkpt><trkpt lat="43.42732182816301" lon="12.918070951014322"><ele>266.0</ele><time>2026-04-18T13:00:27Z</time></trkpt><trkpt lat="43.42732986085982" lon="12.918464180347339"><ele>261.5</ele><time>2026-04-18T13:00:28Z</time></trkpt><trkpt lat="43.427338292681405" lon="12.91884503967704"><ele>257.0</ele><time>2026-04-18T13:00:29Z</time></trkpt><trkpt lat="43.42735066050282" lon="12.919186258743116"><ele>255.5</ele><time>2026-04-18T13:00:30Z</time></trkpt><trkpt lat="43.42736467717486" lon="12.919499116611627"><ele>254.0</ele><time>2026-04-18T13:00:31Z</time></trkpt><trkpt lat="43.42739546569296" lon="12.919809143872646"><ele>251.5</ele><time>2026-04-18T13:00:32Z</time></trkpt><trkpt lat="43.427459464345624" lon="12.920111866365918"><ele>249.0</ele><time>2026-04-18T13:00:33Z</time></trkpt><trkpt lat="43.42756980522704" lon="12.920427880270447"><ele>249.0</ele><time>2026-04-18T13:00:34Z</time></trkpt><trkpt lat="43.4276998843629" lon="12.920759329473206"><ele>249.0</ele><time>2026-04-18T13:00:35Z</time></trkpt><trkpt lat="43.42782976436237" lon="12.921117243232878"><ele>245.0</ele><time>2026-04-18T13:00:36Z</time></trkpt><trkpt lat="43.42794091285915" lon="12.921492124468635"><ele>241.0</ele><time>2026-04-18T13:00:37Z</time></trkpt><trkpt lat="43.42802321711721" lon="12.921882011658775"><ele>247.5</ele><time>2026-04-18T13:00:38Z</time></trkpt><trkpt lat="43.428080963268776" lon="12.922261768276497"><ele>254.0</ele><time>2026-04-18T13:00:39Z</time></trkpt><trkpt lat="43.42812154077161" lon="12.922643939595844"><ele>254.0</ele><time>2026-04-18T13:00:40Z</time></trkpt><trkpt lat="43.42815302137322" lon="12.923014531561995"><ele>254.0</ele><time>2026-04-18T13:00:41Z</time></trkpt><trkpt lat="43.428174443135575" lon="12.923377851373504"><ele>251.5</ele><time>2026-04-18T13:00:42Z</time></trkpt><trkpt lat="43.428192995072536" lon="12.923741754541167"><ele>249.0</ele><time>2026-04-18T13:00:43Z</time></trkpt><trkpt lat="43.42821003233881" lon="12.924104989098428"><ele>248.0</ele><time>2026-04-18T13:00:44Z</time></trkpt><trkpt lat="43.42822615396727" lon="12.92446802964652"><ele>247.0</ele><time>2026-04-18T13:00:45Z</time></trkpt><trkpt lat="43.42824109003746" lon="12.924836675023023"><ele>247.0</ele><time>2026-04-18T13:00:46Z</time></trkpt><trkpt lat="43.42825687003809" lon="12.925194461181114"><ele>247.0</ele><time>2026-04-18T13:00:47Z</time></trkpt><trkpt lat="43.42827281051724" lon="12.92554747417172"><ele>247.0</ele><time>2026-04-18T13:00:48Z</time></trkpt><trkpt lat="43.42828835820778" lon="12.925892025230642"><ele>247.0</ele><time>2026-04-18T13:00:49Z</time></trkpt><trkpt lat="43.42830634636524" lon="12.926242799482369"><ele>247.0</ele><time>2026-04-18T13:00:50Z</time></trkpt><trkpt lat="43.42832352773709" lon="12.926590341532298"><ele>247.0</ele><time>2026-04-18T13:00:51Z</time></trkpt><trkpt lat="43.428340955770594" lon="12.926953882414281"><ele>246.0</ele><time>2026-04-18T13:00:52Z</time></trkpt><trkpt lat="43.42835783269915" lon="12.927306182562019"><ele>245.0</ele><time>2026-04-18T13:00:53Z</time></trkpt><trkpt lat="43.428374510370375" lon="12.927659239746575"><ele>244.5</ele><time>2026-04-18T13:00:54Z</time></trkpt><trkpt lat="43.42839214560706" lon="12.92801107221199"><ele>244.0</ele><time>2026-04-18T13:00:55Z</time></trkpt><trkpt lat="43.428410593962674" lon="12.928361009005119"><ele>243.5</ele><time>2026-04-18T13:00:56Z</time></trkpt><trkpt lat="43.4284312493649" lon="12.92872769545535"><ele>243.0</ele><time>2026-04-18T13:00:57Z</time></trkpt><trkpt lat="43.428451449058535" lon="12.92910170866025"><ele>244.5</ele><time>2026-04-18T13:00:58Z</time></trkpt><trkpt lat="43.42846591083424" lon="12.929455416125563"><ele>246.0</ele><time>2026-04-18T13:00:59Z</time></trkpt><trkpt lat="43.42846413976885" lon="12.929786573825858"><ele>249.5</ele><time>2026-04-18T13:01:00Z</time></trkpt><trkpt lat="43.42841502082038" lon="12.930086652954952"><ele>253.0</ele><time>2026-04-18T13:01:01Z</time></trkpt><trkpt lat="43.428332380547786" lon="12.930387985311157"><ele>253.0</ele><time>2026-04-18T13:01:02Z</time></trkpt><trkpt lat="43.42822422583815" lon="12.930709764229448"><ele>253.0</ele><time>2026-04-18T13:01:03Z</time></trkpt><trkpt lat="43.42812108114064" lon="12.931061223648209"><ele>255.0</ele><time>2026-04-18T13:01:04Z</time></trkpt><trkpt lat="43.42803922896377" lon="12.9313595565386"><ele>257.0</ele><time>2026-04-18T13:01:05Z</time></trkpt><trkpt lat="43.42797085648277" lon="12.931608960305804"><ele>259.0</ele><time>2026-04-18T13:01:06Z</time></trkpt><trkpt lat="43.427902677709284" lon="12.931840519321591"><ele>252.33333333333331</ele><time>2026-04-18T13:01:07Z</time></trkpt><trkpt lat="43.42782254388551" lon="12.932052205189834"><ele>245.66666666666669</ele><time>2026-04-18T13:01:08Z</time></trkpt><trkpt lat="43.42771427995664" lon="12.932237395485988"><ele>239.0</ele><time>2026-04-18T13:01:09Z</time></trkpt><trkpt lat="43.42756418724605" lon="12.932379267754047"><ele>239.0</ele><time>2026-04-18T13:01:10Z</time></trkpt><trkpt lat="43.4273810143261" lon="12.932483353337393"><ele>239.0</ele><time>2026-04-18T13:01:11Z</time></trkpt><trkpt lat="43.42717837270991" lon="12.932523528952375"><ele>239.0</ele><time>2026-04-18T13:01:12Z</time></trkpt><trkpt lat="43.426962985460754" lon="12.932453405129776"><ele>238.0</ele><time>2026-04-18T13:01:13Z</time></trkpt><trkpt lat="43.426740419453" lon="12.932426910475664"><ele>237.0</ele><time>2026-04-18T13:01:14Z</time></trkpt><trkpt lat="43.42649477376838" lon="12.932371537182465"><ele>241.66666666666669</ele><time>2026-04-18T13:01:15Z</time></trkpt><trkpt lat="43.42627025652591" lon="12.932336257358104"><ele>246.33333333333334</ele><time>2026-04-18T13:01:16Z</time></trkpt><trkpt lat="43.42606760733228" lon="12.932378845473503"><ele>251.0</ele><time>2026-04-18T13:01:17Z</time></trkpt><trkpt lat="43.425857283836166" lon="12.932471539810294"><ele>244.5</ele><time>2026-04-18T13:01:18Z</time></trkpt><trkpt lat="43.425634854003235" lon="12.932576383046698"><ele>238.0</ele><time>2026-04-18T13:01:19Z</time></trkpt><trkpt lat="43.42539837140249" lon="12.932646393070126"><ele>238.0</ele><time>2026-04-18T13:01:20Z</time></trkpt><trkpt lat="43.42512549442953" lon="12.932647615965521"><ele>238.0</ele><time>2026-04-18T13:01:21Z</time></trkpt><trkpt lat="43.42485320403277" lon="12.932612994218918"><ele>241.0</ele><time>2026-04-18T13:01:22Z</time></trkpt><trkpt lat="43.42462095031144" lon="12.932513736778393"><ele>244.0</ele><time>2026-04-18T13:01:23Z</time></trkpt><trkpt lat="43.424406779243604" lon="12.932381192228409"><ele>244.0</ele><time>2026-04-18T13:01:24Z</time></trkpt><trkpt lat="43.424186504078925" lon="12.932238064190377"><ele>244.0</ele><time>2026-04-18T13:01:25Z</time></trkpt><trkpt lat="43.423940016840874" lon="12.932082500248738"><ele>239.5</ele><time>2026-04-18T13:01:26Z</time></trkpt><trkpt lat="43.423671487697014" lon="12.931932587239132"><ele>235.0</ele><time>2026-04-18T13:01:27Z</time></trkpt><trkpt lat="43.42338878360524" lon="12.931798385012268"><ele>238.5</ele><time>2026-04-18T13:01:28Z</time></trkpt><trkpt lat="43.423120224049406" lon="12.9316730383602"><ele>242.0</ele><time>2026-04-18T13:01:29Z</time></trkpt><trkpt lat="43.422860181576446" lon="12.931551871626018"><ele>242.0</ele><time>2026-04-18T13:01:30Z</time></trkpt><trkpt lat="43.42259548920415" lon="12.931443584261492"><ele>242.0</ele><time>2026-04-18T13:01:31Z</time></trkpt><trkpt lat="43.42234316639834" lon="12.931361553551097"><ele>240.5</ele><time>2026-04-18T13:01:32Z</time></trkpt><trkpt lat="43.42207655093221" lon="12.931303113858538"><ele>239.0</ele><time>2026-04-18T13:01:33Z</time></trkpt><trkpt lat="43.421772739992576" lon="12.931259540265566"><ele>239.0</ele><time>2026-04-18T13:01:34Z</time></trkpt><trkpt lat="43.42143589163357" lon="12.931228396839153"><ele>239.0</ele><time>2026-04-18T13:01:35Z</time></trkpt><trkpt lat="43.42106326765059" lon="12.931146236652259"><ele>236.5</ele><time>2026-04-18T13:01:36Z</time></trkpt><trkpt lat="43.42065276390991" lon="12.931079607680076"><ele>234.0</ele><time>2026-04-18T13:01:37Z</time></trkpt><trkpt lat="43.420222279019505" lon="12.931022720534012"><ele>233.0</ele><time>2026-04-18T13:01:38Z</time></trkpt><trkpt lat="43.41979143630211" lon="12.930940647134095"><ele>232.0</ele><time>2026-04-18T13:01:39Z</time></trkpt><trkpt lat="43.419363502179" lon="12.930870245856932"><ele>235.0</ele><time>2026-04-18T13:01:40Z</time></trkpt><trkpt lat="43.418967953198134" lon="12.930811897554287"><ele>238.0</ele><time>2026-04-18T13:01:41Z</time></trkpt><trkpt lat="43.418600430602716" lon="12.930756444777964"><ele>238.0</ele><time>2026-04-18T13:01:42Z</time></trkpt><trkpt lat="43.41823973920549" lon="12.930692462422074"><ele>238.0</ele><time>2026-04-18T13:01:43Z</time></trkpt><trkpt lat="43.41788304911478" lon="12.93062337067617"><ele>236.0</ele><time>2026-04-18T13:01:44Z</time></trkpt><trkpt lat="43.41753299055451" lon="12.930548775152918"><ele>234.0</ele><time>2026-04-18T13:01:45Z</time></trkpt><trkpt lat="43.41719615150671" lon="12.93047478487629"><ele>233.0</ele><time>2026-04-18T13:01:46Z</time></trkpt><trkpt lat="43.416857413226715" lon="12.930401257029281"><ele>232.0</ele><time>2026-04-18T13:01:47Z</time></trkpt><trkpt lat="43.41650988255005" lon="12.930326597178745"><ele>231.5</ele><time>2026-04-18T13:01:48Z</time></trkpt><trkpt lat="43.416140951115004" lon="12.930241721376763"><ele>231.0</ele><time>2026-04-18T13:01:49Z</time></trkpt><trkpt lat="43.41575343272495" lon="12.930147793321545"><ele>235.5</ele><time>2026-04-18T13:01:50Z</time></trkpt><trkpt lat="43.41535477848316" lon="12.93003487231065"><ele>240.0</ele><time>2026-04-18T13:01:51Z</time></trkpt><trkpt lat="43.41499219426729" lon="12.929931999163852"><ele>237.5</ele><time>2026-04-18T13:01:52Z</time></trkpt><trkpt lat="43.41465043743272" lon="12.929825115608777"><ele>235.0</ele><time>2026-04-18T13:01:53Z</time></trkpt><trkpt lat="43.41430946675184" lon="12.929715370933728"><ele>235.0</ele><time>2026-04-18T13:01:54Z</time></trkpt><trkpt lat="43.413983326903356" lon="12.929606860977243"><ele>235.0</ele><time>2026-04-18T13:01:55Z</time></trkpt><trkpt lat="43.41368526372874" lon="12.929510195984538"><ele>233.0</ele><time>2026-04-18T13:01:56Z</time></trkpt><trkpt lat="43.41339012625187" lon="12.929443793590439"><ele>231.0</ele><time>2026-04-18T13:01:57Z</time></trkpt><trkpt lat="43.413094388349066" lon="12.929415315491644"><ele>230.5</ele><time>2026-04-18T13:01:58Z</time></trkpt><trkpt lat="43.41276382052386" lon="12.929403982244864"><ele>230.0</ele><time>2026-04-18T13:01:59Z</time></trkpt><trkpt lat="43.41246358746279" lon="12.929389307884295"><ele>230.0</ele><time>2026-04-18T13:02:00Z</time></trkpt><trkpt lat="43.41220264284176" lon="12.929374178174339"><ele>230.0</ele><time>2026-04-18T13:02:01Z</time></trkpt><trkpt lat="43.41196778888099" lon="12.929358391880228"><ele>230.33333333333334</ele><time>2026-04-18T13:02:02Z</time></trkpt><trkpt lat="43.41174659913738" lon="12.929338510347339"><ele>230.66666666666669</ele><time>2026-04-18T13:02:03Z</time></trkpt><trkpt lat="43.411537737960955" lon="12.929318284585799"><ele>231.0</ele><time>2026-04-18T13:02:04Z</time></trkpt><trkpt lat="43.41133781420611" lon="12.929291510240008"><ele>231.33333333333331</ele><time>2026-04-18T13:02:05Z</time></trkpt><trkpt lat="43.41113838302876" lon="12.929255747480106"><ele>231.66666666666666</ele><time>2026-04-18T13:02:06Z</time></trkpt><trkpt lat="43.410927630658755" lon="12.92920296569898"><ele>232.0</ele><time>2026-04-18T13:02:07Z</time></trkpt><trkpt lat="43.410725575448545" lon="12.929168111002546"><ele>233.66666666666666</ele><time>2026-04-18T13:02:08Z</time></trkpt><trkpt lat="43.4105238954765" lon="12.92922245247103"><ele>235.33333333333331</ele><time>2026-04-18T13:02:09Z</time></trkpt><trkpt lat="43.41031373717824" lon="12.92933819926351"><ele>237.0</ele><time>2026-04-18T13:02:10Z</time></trkpt><trkpt lat="43.41006330014757" lon="12.929479218761433"><ele>237.0</ele><time>2026-04-18T13:02:11Z</time></trkpt><trkpt lat="43.40978435718805" lon="12.929652163442393"><ele>237.0</ele><time>2026-04-18T13:02:12Z</time></trkpt><trkpt lat="43.409490075836324" lon="12.929857230341266"><ele>238.0</ele><time>2026-04-18T13:02:13Z</time></trkpt><trkpt lat="43.409231667270966" lon="12.930054287112947"><ele>239.0</ele><time>2026-04-18T13:02:14Z</time></trkpt><trkpt lat="43.40899114173379" lon="12.930221222227122"><ele>245.5</ele><time>2026-04-18T13:02:15Z</time></trkpt><trkpt lat="43.40875728802214" lon="12.930385026585823"><ele>252.0</ele><time>2026-04-18T13:02:16Z</time></trkpt><trkpt lat="43.40850315000916" lon="12.930561315264809"><ele>252.0</ele><time>2026-04-18T13:02:17Z</time></trkpt><trkpt lat="43.408238609434974" lon="12.930739204266521"><ele>252.0</ele><time>2026-04-18T13:02:18Z</time></trkpt><trkpt lat="43.407993773969686" lon="12.930907324484071"><ele>248.5</ele><time>2026-04-18T13:02:19Z</time></trkpt><trkpt lat="43.40775851777184" lon="12.931036111658628"><ele>245.0</ele><time>2026-04-18T13:02:20Z</time></trkpt><trkpt lat="43.407522260632575" lon="12.931169619555261"><ele>245.0</ele><time>2026-04-18T13:02:21Z</time></trkpt><trkpt lat="43.407261704914006" lon="12.931329675441827"><ele>245.0</ele><time>2026-04-18T13:02:22Z</time></trkpt><trkpt lat="43.40694528720533" lon="12.931486678898109"><ele>245.0</ele><time>2026-04-18T13:02:23Z</time></trkpt><trkpt lat="43.406641143198215" lon="12.931642731996506"><ele>245.0</ele><time>2026-04-18T13:02:24Z</time></trkpt><trkpt lat="43.40637930521053" lon="12.93178600960549"><ele>250.5</ele><time>2026-04-18T13:02:25Z</time></trkpt><trkpt lat="43.4061462885261" lon="12.93194663377908"><ele>256.0</ele><time>2026-04-18T13:02:26Z</time></trkpt><trkpt lat="43.40592774343035" lon="12.932175052342455"><ele>256.0</ele><time>2026-04-18T13:02:27Z</time></trkpt><trkpt lat="43.40571148983889" lon="12.932463551427887"><ele>256.0</ele><time>2026-04-18T13:02:28Z</time></trkpt><trkpt lat="43.40548296640306" lon="12.932724443163366"><ele>254.0</ele><time>2026-04-18T13:02:29Z</time></trkpt><trkpt lat="43.40525235986749" lon="12.932955292932796"><ele>252.0</ele><time>2026-04-18T13:02:30Z</time></trkpt><trkpt lat="43.405011619412036" lon="12.933195075982344"><ele>251.0</ele><time>2026-04-18T13:02:31Z</time></trkpt><trkpt lat="43.40475582200317" lon="12.93345243066638"><ele>250.0</ele><time>2026-04-18T13:02:32Z</time></trkpt><trkpt lat="43.40450757232753" lon="12.933703670331626"><ele>250.0</ele><time>2026-04-18T13:02:33Z</time></trkpt><trkpt lat="43.40430499501165" lon="12.93391755243477"><ele>250.0</ele><time>2026-04-18T13:02:34Z</time></trkpt><trkpt lat="43.404127502917156" lon="12.934106501640336"><ele>253.66666666666666</ele><time>2026-04-18T13:02:35Z</time></trkpt><trkpt lat="43.40397361015325" lon="12.934295672249487"><ele>257.3333333333333</ele><time>2026-04-18T13:02:36Z</time></trkpt><trkpt lat="43.40382539808079" lon="12.934514479501177"><ele>261.0</ele><time>2026-04-18T13:02:37Z</time></trkpt><trkpt lat="43.4036984041179" lon="12.934733227798683"><ele>261.0</ele><time>2026-04-18T13:02:38Z</time></trkpt><trkpt lat="43.403572467087486" lon="12.93494660593665"><ele>261.0</ele><time>2026-04-18T13:02:39Z</time></trkpt><trkpt lat="43.403436468588936" lon="12.93518656513004"><ele>261.0</ele><time>2026-04-18T13:02:40Z</time></trkpt><trkpt lat="43.403263581000644" lon="12.935437562155975"><ele>258.0</ele><time>2026-04-18T13:02:41Z</time></trkpt><trkpt lat="43.40309775176664" lon="12.935662457086952"><ele>255.0</ele><time>2026-04-18T13:02:42Z</time></trkpt><trkpt lat="43.40297784576246" lon="12.935833521336686"><ele>252.0</ele><time>2026-04-18T13:02:43Z</time></trkpt><trkpt lat="43.40284301380289" lon="12.935920438014527"><ele>252.0</ele><time>2026-04-18T13:02:44Z</time></trkpt><trkpt lat="43.4026876405539" lon="12.935921772690131"><ele>252.0</ele><time>2026-04-18T13:02:45Z</time></trkpt><trkpt lat="43.40249935899887" lon="12.935839626603482"><ele>252.0</ele><time>2026-04-18T13:02:46Z</time></trkpt><trkpt lat="43.40224828261252" lon="12.935674732199335"><ele>247.0</ele><time>2026-04-18T13:02:47Z</time></trkpt><trkpt lat="43.40191945958616" lon="12.93554582222418"><ele>242.0</ele><time>2026-04-18T13:02:48Z</time></trkpt><trkpt lat="43.40155342676022" lon="12.935390583734595"><ele>240.5</ele><time>2026-04-18T13:02:49Z</time></trkpt><trkpt lat="43.401150014602635" lon="12.935231605230708"><ele>239.0</ele><time>2026-04-18T13:02:50Z</time></trkpt><trkpt lat="43.40075264263514" lon="12.93508175321017"><ele>242.5</ele><time>2026-04-18T13:02:51Z</time></trkpt><trkpt lat="43.400408989705596" lon="12.934943197272604"><ele>246.0</ele><time>2026-04-18T13:02:52Z</time></trkpt><trkpt lat="43.40011088283555" lon="12.93476266254868"><ele>246.0</ele><time>2026-04-18T13:02:53Z</time></trkpt><trkpt lat="43.399831659355456" lon="12.93461236979254"><ele>246.0</ele><time>2026-04-18T13:02:54Z</time></trkpt><trkpt lat="43.399561454022546" lon="12.934467464706003"><ele>247.0</ele><time>2026-04-18T13:02:55Z</time></trkpt><trkpt lat="43.399286981634226" lon="12.934363825975586"><ele>248.0</ele><time>2026-04-18T13:02:56Z</time></trkpt><trkpt lat="43.399009481729756" lon="12.93432481019091"><ele>250.0</ele><time>2026-04-18T13:02:57Z</time></trkpt><trkpt lat="43.39876740623725" lon="12.934312035781725"><ele>252.0</ele><time>2026-04-18T13:02:58Z</time></trkpt><trkpt lat="43.39857178472241" lon="12.934179964044086"><ele>252.0</ele><time>2026-04-18T13:02:59Z</time></trkpt><trkpt lat="43.3983550794944" lon="12.933995599318298"><ele>252.0</ele><time>2026-04-18T13:03:00Z</time></trkpt><trkpt lat="43.398109128389706" lon="12.933818008383923"><ele>254.0</ele><time>2026-04-18T13:03:01Z</time></trkpt><trkpt lat="43.39785404189749" lon="12.933692866349759"><ele>256.0</ele><time>2026-04-18T13:03:02Z</time></trkpt><trkpt lat="43.39757732493565" lon="12.933650267319084"><ele>256.0</ele><time>2026-04-18T13:03:03Z</time></trkpt><trkpt lat="43.39731131209815" lon="12.9336926604013"><ele>256.0</ele><time>2026-04-18T13:03:04Z</time></trkpt><trkpt lat="43.39710459174365" lon="12.933717593537056"><ele>257.0</ele><time>2026-04-18T13:03:05Z</time></trkpt><trkpt lat="43.39695857491675" lon="12.93370701476546"><ele>258.0</ele><time>2026-04-18T13:03:06Z</time></trkpt><trkpt lat="43.39684764978382" lon="12.933650266651933"><ele>259.0</ele><time>2026-04-18T13:03:07Z</time></trkpt><trkpt lat="43.39673678047158" lon="12.933644489498251"><ele>260.0</ele><time>2026-04-18T13:03:08Z</time></trkpt><trkpt lat="43.39666612235965" lon="12.933623100871383"><ele>261.0</ele><time>2026-04-18T13:03:09Z</time></trkpt><trkpt lat="43.396588615868836" lon="12.932949091305415"><ele>260.6666666666667</ele><time>2026-04-18T13:03:10Z</time></trkpt><trkpt lat="43.39640820676815" lon="12.932882606790654"><ele>260.33333333333337</ele><time>2026-04-18T13:03:11Z</time></trkpt><trkpt lat="43.396205685592705" lon="12.932862870469219"><ele>260.0</ele><time>2026-04-18T13:03:12Z</time></trkpt><trkpt lat="43.39585551598142" lon="12.932801893740182"><ele>260.0</ele><time>2026-04-18T13:03:13Z</time></trkpt><trkpt lat="43.39558673889999" lon="12.932723213411641"><ele>260.0</ele><time>2026-04-18T13:03:14Z</time></trkpt><trkpt lat="43.39535522175946" lon="12.932598931217067"><ele>258.33333333333337</ele><time>2026-04-18T13:03:15Z</time></trkpt><trkpt lat="43.39516049939798" lon="12.93249370480034"><ele>256.6666666666667</ele><time>2026-04-18T13:03:16Z</time></trkpt><trkpt lat="43.39496371985474" lon="12.932363964461869"><ele>255.0</ele><time>2026-04-18T13:03:17Z</time></trkpt><trkpt lat="43.3948003770307" lon="12.932145254770537"><ele>255.0</ele><time>2026-04-18T13:03:18Z</time></trkpt><trkpt lat="43.39468273581618" lon="12.931845789794584"><ele>255.0</ele><time>2026-04-18T13:03:19Z</time></trkpt><trkpt lat="43.394603277967754" lon="12.931544904839704"><ele>253.5</ele><time>2026-04-18T13:03:20Z</time></trkpt><trkpt lat="43.39451616701754" lon="12.931271848214697"><ele>252.0</ele><time>2026-04-18T13:03:21Z</time></trkpt><trkpt lat="43.39434532877619" lon="12.931036248404157"><ele>258.5</ele><time>2026-04-18T13:03:22Z</time></trkpt><trkpt lat="43.394111452025186" lon="12.93085898492811"><ele>265.0</ele><time>2026-04-18T13:03:23Z</time></trkpt><trkpt lat="43.39386639559073" lon="12.930778162248957"><ele>264.5</ele><time>2026-04-18T13:03:24Z</time></trkpt><trkpt lat="43.39360168946231" lon="12.930779770331403"><ele>264.0</ele><time>2026-04-18T13:03:25Z</time></trkpt><trkpt lat="43.393296595833206" lon="12.930790707476895"><ele>264.0</ele><time>2026-04-18T13:03:26Z</time></trkpt><trkpt lat="43.39291959290374" lon="12.930754374339363"><ele>264.0</ele><time>2026-04-18T13:03:27Z</time></trkpt><trkpt lat="43.39256562745281" lon="12.930641945476742"><ele>264.0</ele><time>2026-04-18T13:03:28Z</time></trkpt><trkpt lat="43.39226471071334" lon="12.930526297555804"><ele>264.0</ele><time>2026-04-18T13:03:29Z</time></trkpt><trkpt lat="43.392006595004176" lon="12.930381871932802"><ele>264.0</ele><time>2026-04-18T13:03:30Z</time></trkpt><trkpt lat="43.39172004867506" lon="12.930170720688935"><ele>264.0</ele><time>2026-04-18T13:03:31Z</time></trkpt><trkpt lat="43.39142624877573" lon="12.929962353816391"><ele>269.0</ele><time>2026-04-18T13:03:32Z</time></trkpt><trkpt lat="43.391184568284935" lon="12.929818458857394"><ele>274.0</ele><time>2026-04-18T13:03:33Z</time></trkpt><trkpt lat="43.39098713621911" lon="12.92968393974105"><ele>274.0</ele><time>2026-04-18T13:03:34Z</time></trkpt><trkpt lat="43.39080624198858" lon="12.929542197010395"><ele>274.0</ele><time>2026-04-18T13:03:35Z</time></trkpt><trkpt lat="43.39064637439644" lon="12.929315139550587"><ele>274.0</ele><time>2026-04-18T13:03:36Z</time></trkpt><trkpt lat="43.39049073489559" lon="12.92900776495174"><ele>273.0</ele><time>2026-04-18T13:03:37Z</time></trkpt><trkpt lat="43.39029527775803" lon="12.92863752657036"><ele>272.0</ele><time>2026-04-18T13:03:38Z</time></trkpt><trkpt lat="43.39012117458477" lon="12.928221954692976"><ele>272.0</ele><time>2026-04-18T13:03:39Z</time></trkpt><trkpt lat="43.389855346977896" lon="12.927806841515764"><ele>272.0</ele><time>2026-04-18T13:03:40Z</time></trkpt><trkpt lat="43.38961222918906" lon="12.927384721323374"><ele>271.0</ele><time>2026-04-18T13:03:41Z</time></trkpt><trkpt lat="43.38939483659709" lon="12.927020740176467"><ele>270.0</ele><time>2026-04-18T13:03:42Z</time></trkpt><trkpt lat="43.38915065291097" lon="12.926659746799391"><ele>271.5</ele><time>2026-04-18T13:03:43Z</time></trkpt><trkpt lat="43.38888492099728" lon="12.926324439547685"><ele>273.0</ele><time>2026-04-18T13:03:44Z</time></trkpt><trkpt lat="43.38863770571974" lon="12.92602639963127"><ele>274.0</ele><time>2026-04-18T13:03:45Z</time></trkpt><trkpt lat="43.388391234028866" lon="12.925715850044881"><ele>275.0</ele><time>2026-04-18T13:03:46Z</time></trkpt><trkpt lat="43.38815472836255" lon="12.925411661507217"><ele>277.5</ele><time>2026-04-18T13:03:47Z</time></trkpt><trkpt lat="43.38792937589709" lon="12.92512160284679"><ele>280.0</ele><time>2026-04-18T13:03:48Z</time></trkpt><trkpt lat="43.38770219766505" lon="12.924839340757657"><ele>280.5</ele><time>2026-04-18T13:03:49Z</time></trkpt><trkpt lat="43.387449658452375" lon="12.92459588074904"><ele>281.0</ele><time>2026-04-18T13:03:50Z</time></trkpt><trkpt lat="43.38716269386421" lon="12.924410840500236"><ele>288.5</ele><time>2026-04-18T13:03:51Z</time></trkpt><trkpt lat="43.38683708826642" lon="12.924224812581528"><ele>296.0</ele><time>2026-04-18T13:03:52Z</time></trkpt><trkpt lat="43.386516424936964" lon="12.9240310364635"><ele>295.0</ele><time>2026-04-18T13:03:53Z</time></trkpt><trkpt lat="43.386188316897105" lon="12.923839366417457"><ele>294.0</ele><time>2026-04-18T13:03:54Z</time></trkpt><trkpt lat="43.38585413627687" lon="12.923702668725383"><ele>294.0</ele><time>2026-04-18T13:03:55Z</time></trkpt><trkpt lat="43.385517393658866" lon="12.923594491145373"><ele>294.0</ele><time>2026-04-18T13:03:56Z</time></trkpt><trkpt lat="43.38521064388906" lon="12.923495122708317"><ele>295.0</ele><time>2026-04-18T13:03:57Z</time></trkpt><trkpt lat="43.38493757861475" lon="12.92343292988356"><ele>296.0</ele><time>2026-04-18T13:03:58Z</time></trkpt><trkpt lat="43.38465228009633" lon="12.923451922093665"><ele>299.5</ele><time>2026-04-18T13:03:59Z</time></trkpt><trkpt lat="43.38435130363762" lon="12.92350801130096"><ele>303.0</ele><time>2026-04-18T13:04:00Z</time></trkpt><trkpt lat="43.384069275683274" lon="12.923534174669106"><ele>304.5</ele><time>2026-04-18T13:04:01Z</time></trkpt><trkpt lat="43.38375081050425" lon="12.923491922997538"><ele>306.0</ele><time>2026-04-18T13:04:02Z</time></trkpt><trkpt lat="43.383399138898966" lon="12.923402329359439"><ele>310.0</ele><time>2026-04-18T13:04:03Z</time></trkpt><trkpt lat="43.38312254920452" lon="12.923329030238893"><ele>314.0</ele><time>2026-04-18T13:04:04Z</time></trkpt><trkpt lat="43.382917877810335" lon="12.923281756007407"><ele>314.0</ele><time>2026-04-18T13:04:05Z</time></trkpt><trkpt lat="43.382757142903515" lon="12.923240237474989"><ele>314.0</ele><time>2026-04-18T13:04:06Z</time></trkpt><trkpt lat="43.382606734998845" lon="12.9231938796466"><ele>314.0</ele><time>2026-04-18T13:04:07Z</time></trkpt><trkpt lat="43.38245477358814" lon="12.92303619506697"><ele>314.0</ele><time>2026-04-18T13:04:08Z</time></trkpt><trkpt lat="43.38232201231936" lon="12.922785769736967"><ele>314.0</ele><time>2026-04-18T13:04:09Z</time></trkpt><trkpt lat="43.382157484034586" lon="12.92245295712362"><ele>318.5</ele><time>2026-04-18T13:04:10Z</time></trkpt><trkpt lat="43.3819552830892" lon="12.922060582834751"><ele>323.0</ele><time>2026-04-18T13:04:11Z</time></trkpt><trkpt lat="43.38175971778875" lon="12.921677827721819"><ele>325.6666666666667</ele><time>2026-04-18T13:04:12Z</time></trkpt><trkpt lat="43.38164653233354" lon="12.921421256458586"><ele>328.3333333333333</ele><time>2026-04-18T13:04:13Z</time></trkpt><trkpt lat="43.381553829807366" lon="12.921197783552488"><ele>331.0</ele><time>2026-04-18T13:04:14Z</time></trkpt><trkpt lat="43.38145727292471" lon="12.920999586803642"><ele>333.66666666666663</ele><time>2026-04-18T13:04:15Z</time></trkpt><trkpt lat="43.381321426588585" lon="12.920868989014496"><ele>336.3333333333333</ele><time>2026-04-18T13:04:16Z</time></trkpt><trkpt lat="43.38114045420328" lon="12.920791722942237"><ele>339.0</ele><time>2026-04-18T13:04:17Z</time></trkpt><trkpt lat="43.38090575001984" lon="12.920757647751936"><ele>339.0</ele><time>2026-04-18T13:04:18Z</time></trkpt><trkpt lat="43.38055535926163" lon="12.920724444987004"><ele>339.0</ele><time>2026-04-18T13:04:19Z</time></trkpt><trkpt lat="43.3802550299104" lon="12.920659868948224"><ele>344.5</ele><time>2026-04-18T13:04:20Z</time></trkpt><trkpt lat="43.379993518756145" lon="12.920637160185942"><ele>350.0</ele><time>2026-04-18T13:04:21Z</time></trkpt><trkpt lat="43.379758294976305" lon="12.920642674530542"><ele>357.0</ele><time>2026-04-18T13:04:22Z</time></trkpt><trkpt lat="43.37956884857201" lon="12.920651214003044"><ele>364.0</ele><time>2026-04-18T13:04:23Z</time></trkpt><trkpt lat="43.37936705782701" lon="12.920701707127362"><ele>371.0</ele><time>2026-04-18T13:04:24Z</time></trkpt><trkpt lat="43.37921545502607" lon="12.920781497440828"><ele>371.0</ele><time>2026-04-18T13:04:25Z</time></trkpt><trkpt lat="43.37909752162396" lon="12.92089601403484"><ele>371.0</ele><time>2026-04-18T13:04:26Z</time></trkpt><trkpt lat="43.37900905261067" lon="12.92106724447144"><ele>371.0</ele><time>2026-04-18T13:04:27Z</time></trkpt><trkpt lat="43.37897965270129" lon="12.921253844909378"><ele>371.0</ele><time>2026-04-18T13:04:28Z</time></trkpt><trkpt lat="43.378986375930715" lon="12.921442115741613"><ele>369.4</ele><time>2026-04-18T13:04:29Z</time></trkpt><trkpt lat="43.378933662534386" lon="12.921559981578776"><ele>367.8</ele><time>2026-04-18T13:04:30Z</time></trkpt><trkpt lat="43.37883446175244" lon="12.921566034312923"><ele>366.2</ele><time>2026-04-18T13:04:31Z</time></trkpt><trkpt lat="43.37874245327141" lon="12.921460541166061"><ele>364.59999999999997</ele><time>2026-04-18T13:04:32Z</time></trkpt><trkpt lat="43.37869618094482" lon="12.921306358167694"><ele>363.0</ele><time>2026-04-18T13:04:33Z</time></trkpt><trkpt lat="43.378759683126766" lon="12.921125710928717"><ele>365.6666666666667</ele><time>2026-04-18T13:04:34Z</time></trkpt><trkpt lat="43.378820790310264" lon="12.920974443347355"><ele>368.33333333333337</ele><time>2026-04-18T13:04:35Z</time></trkpt><trkpt lat="43.37893726045229" lon="12.920780496358468"><ele>371.0</ele><time>2026-04-18T13:04:36Z</time></trkpt><trkpt lat="43.379145960726085" lon="12.920540184103796"><ele>371.0</ele><time>2026-04-18T13:04:37Z</time></trkpt><trkpt lat="43.37934522598706" lon="12.920410096746707"><ele>371.0</ele><time>2026-04-18T13:04:38Z</time></trkpt><trkpt lat="43.37953250707315" lon="12.920305216470076"><ele>371.0</ele><time>2026-04-18T13:04:39Z</time></trkpt><trkpt lat="43.37966456407984" lon="12.920212486522276"><ele>370.0</ele><time>2026-04-18T13:04:40Z</time></trkpt><trkpt lat="43.37977374850871" lon="12.92014270389631"><ele>369.0</ele><time>2026-04-18T13:04:41Z</time></trkpt><trkpt lat="43.3798150815725" lon="12.92000728981037"><ele>368.0</ele><time>2026-04-18T13:04:42Z</time></trkpt><trkpt lat="43.3797802376806" lon="12.919882679969843"><ele>367.0</ele><time>2026-04-18T13:04:43Z</time></trkpt><trkpt lat="43.37967688848474" lon="12.919723470365444"><ele>371.5</ele><time>2026-04-18T13:04:44Z</time></trkpt><trkpt lat="43.37957060770152" lon="12.919587248391922"><ele>376.0</ele><time>2026-04-18T13:04:45Z</time></trkpt><trkpt lat="43.379464202867055" lon="12.919442165195958"><ele>380.5</ele><time>2026-04-18T13:04:46Z</time></trkpt><trkpt lat="43.37936621292938" lon="12.919401329188672"><ele>385.0</ele><time>2026-04-18T13:04:47Z</time></trkpt><trkpt lat="43.37931799286319" lon="12.919496969522891"><ele>385.0</ele><time>2026-04-18T13:04:48Z</time></trkpt><trkpt lat="43.37929745514045" lon="12.919641102265293"><ele>385.0</ele><time>2026-04-18T13:04:49Z</time></trkpt><trkpt lat="43.37936498666302" lon="12.919759074664762"><ele>385.0</ele><time>2026-04-18T13:04:50Z</time></trkpt><trkpt lat="43.379449876942026" lon="12.919811432789933"><ele>385.0</ele><time>2026-04-18T13:04:51Z</time></trkpt><trkpt lat="43.37946043691501" lon="12.919928460878396"><ele>385.0</ele><time>2026-04-18T13:04:52Z</time></trkpt><trkpt lat="43.379367548883984" lon="12.920042671552205"><ele>385.0</ele><time>2026-04-18T13:04:53Z</time></trkpt><trkpt lat="43.379299065569874" lon="12.920086821768162"><ele>385.0</ele><time>2026-04-18T13:04:54Z</time></trkpt><trkpt lat="43.379153535039634" lon="12.92005591820356"><ele>385.0</ele><time>2026-04-18T13:04:55Z</time></trkpt><trkpt lat="43.37886607913792" lon="12.92006096077455"><ele>389.5</ele><time>2026-04-18T13:04:56Z</time></trkpt><trkpt lat="43.37858040398042" lon="12.92007948806301"><ele>394.0</ele><time>2026-04-18T13:04:57Z</time></trkpt><trkpt lat="43.3784016424016" lon="12.920204710997186"><ele>394.0</ele><time>2026-04-18T13:04:58Z</time></trkpt><trkpt lat="43.37824342211393" lon="12.920404368759435"><ele>394.0</ele><time>2026-04-18T13:04:59Z</time></trkpt><trkpt lat="43.378118176179484" lon="12.920642564569214"><ele>394.0</ele><time>2026-04-18T13:05:00Z</time></trkpt><trkpt lat="43.37791872868932" lon="12.920804500439564"><ele>397.0</ele><time>2026-04-18T13:05:01Z</time></trkpt><trkpt lat="43.377693384739075" lon="12.920886856037743"><ele>400.0</ele><time>2026-04-18T13:05:02Z</time></trkpt><trkpt lat="43.37747662277074" lon="12.920939324316961"><ele>404.0</ele><time>2026-04-18T13:05:03Z</time></trkpt><trkpt lat="43.37726033879405" lon="12.920878040072092"><ele>408.0</ele><time>2026-04-18T13:05:04Z</time></trkpt><trkpt lat="43.37704374335359" lon="12.92077692265817"><ele>411.0</ele><time>2026-04-18T13:05:05Z</time></trkpt><trkpt lat="43.376781358285584" lon="12.920615758325916"><ele>414.0</ele><time>2026-04-18T13:05:06Z</time></trkpt><trkpt lat="43.376552915154186" lon="12.920546201708868"><ele>420.0</ele><time>2026-04-18T13:05:07Z</time></trkpt><trkpt lat="43.37630948320276" lon="12.92061698268039"><ele>426.0</ele><time>2026-04-18T13:05:08Z</time></trkpt><trkpt lat="43.37600136218003" lon="12.92074224797032"><ele>426.0</ele><time>2026-04-18T13:05:09Z</time></trkpt><trkpt lat="43.37571573002796" lon="12.920841260739707"><ele>426.0</ele><time>2026-04-18T13:05:10Z</time></trkpt><trkpt lat="43.37546191583202" lon="12.920910116084114"><ele>429.25</ele><time>2026-04-18T13:05:11Z</time></trkpt><trkpt lat="43.375331794575516" lon="12.920940822500832"><ele>432.5</ele><time>2026-04-18T13:05:12Z</time></trkpt><trkpt lat="43.37515265409469" lon="12.920984576154737"><ele>435.75</ele><time>2026-04-18T13:05:13Z</time></trkpt><trkpt lat="43.37503575487973" lon="12.92101670411528"><ele>439.0</ele><time>2026-04-18T13:05:14Z</time></trkpt><trkpt lat="43.37494000131525" lon="12.92100895430202"><ele>439.0</ele><time>2026-04-18T13:05:15Z</time></trkpt><trkpt lat="43.37488057190663" lon="12.92096161851765"><ele>439.0</ele><time>2026-04-18T13:05:16Z</time></trkpt><trkpt lat="43.37480458070516" lon="12.920866104634293"><ele>439.0</ele><time>2026-04-18T13:05:17Z</time></trkpt><trkpt lat="43.374779738486055" lon="12.92074414370281"><ele>439.0</ele><time>2026-04-18T13:05:18Z</time></trkpt><trkpt lat="43.374718654397725" lon="12.920615658717807"><ele>439.0</ele><time>2026-04-18T13:05:19Z</time></trkpt><trkpt lat="43.37461728358898" lon="12.92042651539305"><ele>436.33333333333337</ele><time>2026-04-18T13:05:20Z</time></trkpt><trkpt lat="43.37450339693809" lon="12.920223543269081"><ele>433.66666666666663</ele><time>2026-04-18T13:05:21Z</time></trkpt><trkpt lat="43.374368545890164" lon="12.920023716521944"><ele>431.0</ele><time>2026-04-18T13:05:22Z</time></trkpt><trkpt lat="43.37421776921834" lon="12.919858075374597"><ele>429.66666666666663</ele><time>2026-04-18T13:05:23Z</time></trkpt><trkpt lat="43.37403540389206" lon="12.91971568694491"><ele>428.33333333333337</ele><time>2026-04-18T13:05:24Z</time></trkpt><trkpt lat="43.373828002818605" lon="12.919590766965372"><ele>427.0</ele><time>2026-04-18T13:05:25Z</time></trkpt><trkpt lat="43.3736948546228" lon="12.919504125760705"><ele>425.0</ele><time>2026-04-18T13:05:26Z</time></trkpt><trkpt lat="43.373566012450326" lon="12.919404684573408"><ele>423.0</ele><time>2026-04-18T13:05:27Z</time></trkpt><trkpt lat="43.37341158690626" lon="12.91928121935053"><ele>421.0</ele><time>2026-04-18T13:05:28Z</time></trkpt><trkpt lat="43.37328374941974" lon="12.919151327620312"><ele>413.5</ele><time>2026-04-18T13:05:29Z</time></trkpt><trkpt lat="43.37301665217406" lon="12.918853186100108"><ele>406.0</ele><time>2026-04-18T13:05:30Z</time></trkpt><trkpt lat="43.37284474383638" lon="12.918590740267692"><ele>407.6666666666667</ele><time>2026-04-18T13:05:31Z</time></trkpt><trkpt lat="43.37270726045135" lon="12.918323732944934"><ele>409.33333333333337</ele><time>2026-04-18T13:05:32Z</time></trkpt><trkpt lat="43.37262241267105" lon="12.918095386809808"><ele>411.0</ele><time>2026-04-18T13:05:33Z</time></trkpt><trkpt lat="43.3725491419791" lon="12.917862611188596"><ele>411.0</ele><time>2026-04-18T13:05:34Z</time></trkpt><trkpt lat="43.372450496996535" lon="12.917692703238151"><ele>411.0</ele><time>2026-04-18T13:05:35Z</time></trkpt><trkpt lat="43.372338247490205" lon="12.91756198737387"><ele>411.0</ele><time>2026-04-18T13:05:36Z</time></trkpt><trkpt lat="43.37221348176041" lon="12.917512246968258"><ele>411.0</ele><time>2026-04-18T13:05:37Z</time></trkpt><trkpt lat="43.372124810405644" lon="12.917447014911579"><ele>411.5</ele><time>2026-04-18T13:05:38Z</time></trkpt><trkpt lat="43.37213134281261" lon="12.917321864331981"><ele>412.0</ele><time>2026-04-18T13:05:39Z</time></trkpt><trkpt lat="43.3721846171075" lon="12.917207420194242"><ele>412.5</ele><time>2026-04-18T13:05:40Z</time></trkpt><trkpt lat="43.37230380207591" lon="12.917168718554647"><ele>413.0</ele><time>2026-04-18T13:05:41Z</time></trkpt><trkpt lat="43.372433650020874" lon="12.91707580978488"><ele>413.0</ele><time>2026-04-18T13:05:42Z</time></trkpt><trkpt lat="43.37254463250699" lon="12.916992305573663"><ele>413.0</ele><time>2026-04-18T13:05:43Z</time></trkpt><trkpt lat="43.37263858616504" lon="12.916902562162127"><ele>413.0</ele><time>2026-04-18T13:05:44Z</time></trkpt><trkpt lat="43.37269430924831" lon="12.91678343981306"><ele>413.0</ele><time>2026-04-18T13:05:45Z</time></trkpt><trkpt lat="43.37273207797351" lon="12.916646806145199"><ele>411.25</ele><time>2026-04-18T13:05:46Z</time></trkpt><trkpt lat="43.37271359508379" lon="12.91652880351269"><ele>409.5</ele><time>2026-04-18T13:05:47Z</time></trkpt><trkpt lat="43.37267380376872" lon="12.91641081273113"><ele>407.75</ele><time>2026-04-18T13:05:48Z</time></trkpt><trkpt lat="43.372584327502636" lon="12.916295888109158"><ele>406.0</ele><time>2026-04-18T13:05:49Z</time></trkpt><trkpt lat="43.37244334032841" lon="12.916181399224676"><ele>406.0</ele><time>2026-04-18T13:05:50Z</time></trkpt><trkpt lat="43.372226904216596" lon="12.916059708439192"><ele>406.0</ele><time>2026-04-18T13:05:51Z</time></trkpt><trkpt lat="43.372028578688905" lon="12.915982173853457"><ele>406.0</ele><time>2026-04-18T13:05:52Z</time></trkpt><trkpt lat="43.37182082404783" lon="12.915967385783212"><ele>401.6666666666667</ele><time>2026-04-18T13:05:53Z</time></trkpt><trkpt lat="43.37161972622303" lon="12.915980315976578"><ele>397.33333333333337</ele><time>2026-04-18T13:05:54Z</time></trkpt><trkpt lat="43.371420027524124" lon="12.916072414057084"><ele>393.0</ele><time>2026-04-18T13:05:55Z</time></trkpt><trkpt lat="43.37123249674636" lon="12.91621013736215"><ele>390.33333333333337</ele><time>2026-04-18T13:05:56Z</time></trkpt><trkpt lat="43.37105064563566" lon="12.916350177542109"><ele>387.6666666666667</ele><time>2026-04-18T13:05:57Z</time></trkpt><trkpt lat="43.37086784499342" lon="12.916445425543518"><ele>385.0</ele><time>2026-04-18T13:05:58Z</time></trkpt><trkpt lat="43.370688914152474" lon="12.9165011877658"><ele>384.0</ele><time>2026-04-18T13:05:59Z</time></trkpt><trkpt lat="43.37050434058777" lon="12.916519741883024"><ele>383.0</ele><time>2026-04-18T13:06:00Z</time></trkpt><trkpt lat="43.370298306843225" lon="12.916450011416709"><ele>382.0</ele><time>2026-04-18T13:06:01Z</time></trkpt><trkpt lat="43.370078682467685" lon="12.91640374566087"><ele>382.0</ele><time>2026-04-18T13:06:02Z</time></trkpt><trkpt lat="43.3698709224036" lon="12.916342898344478"><ele>382.0</ele><time>2026-04-18T13:06:03Z</time></trkpt><trkpt lat="43.369660616467776" lon="12.916334827098838"><ele>382.0</ele><time>2026-04-18T13:06:04Z</time></trkpt><trkpt lat="43.36945459963194" lon="12.916383996737046"><ele>380.3333333333333</ele><time>2026-04-18T13:06:05Z</time></trkpt><trkpt lat="43.36925760507278" lon="12.91648040901609"><ele>378.6666666666667</ele><time>2026-04-18T13:06:06Z</time></trkpt><trkpt lat="43.369081852017715" lon="12.916601597587412"><ele>377.0</ele><time>2026-04-18T13:06:07Z</time></trkpt><trkpt lat="43.36891706266132" lon="12.916715838210282"><ele>371.33333333333337</ele><time>2026-04-18T13:06:08Z</time></trkpt><trkpt lat="43.368747170941866" lon="12.916812398624842"><ele>365.6666666666667</ele><time>2026-04-18T13:06:09Z</time></trkpt><trkpt lat="43.36858656559484" lon="12.916858772552775"><ele>360.0</ele><time>2026-04-18T13:06:10Z</time></trkpt><trkpt lat="43.36842691617773" lon="12.916834937179459"><ele>363.0</ele><time>2026-04-18T13:06:11Z</time></trkpt><trkpt lat="43.36829344911683" lon="12.916730187644488"><ele>366.0</ele><time>2026-04-18T13:06:12Z</time></trkpt><trkpt lat="43.368235484560145" lon="12.916529721869326"><ele>369.0</ele><time>2026-04-18T13:06:13Z</time></trkpt><trkpt lat="43.368163449307325" lon="12.916299854605095"><ele>369.0</ele><time>2026-04-18T13:06:14Z</time></trkpt><trkpt lat="43.36807460883856" lon="12.91605138402537"><ele>369.0</ele><time>2026-04-18T13:06:15Z</time></trkpt><trkpt lat="43.36797428194799" lon="12.915792868180691"><ele>369.0</ele><time>2026-04-18T13:06:16Z</time></trkpt><trkpt lat="43.36783486471891" lon="12.915573209267816"><ele>363.5</ele><time>2026-04-18T13:06:17Z</time></trkpt><trkpt lat="43.36764158679742" lon="12.915396795446828"><ele>358.0</ele><time>2026-04-18T13:06:18Z</time></trkpt><trkpt lat="43.36743220552168" lon="12.915261865066933"><ele>358.0</ele><time>2026-04-18T13:06:19Z</time></trkpt><trkpt lat="43.367203152163825" lon="12.915152615164839"><ele>358.0</ele><time>2026-04-18T13:06:20Z</time></trkpt><trkpt lat="43.36702188996255" lon="12.914938449639115"><ele>354.0</ele><time>2026-04-18T13:06:21Z</time></trkpt><trkpt lat="43.36683832124489" lon="12.914726956894851"><ele>350.0</ele><time>2026-04-18T13:06:22Z</time></trkpt><trkpt lat="43.3666339472399" lon="12.914504514484294"><ele>350.0</ele><time>2026-04-18T13:06:23Z</time></trkpt><trkpt lat="43.366435894171346" lon="12.91426301557177"><ele>350.0</ele><time>2026-04-18T13:06:24Z</time></trkpt><trkpt lat="43.366248059339036" lon="12.914049209600057"><ele>345.5</ele><time>2026-04-18T13:06:25Z</time></trkpt><trkpt lat="43.36606975635194" lon="12.91383948321876"><ele>341.0</ele><time>2026-04-18T13:06:26Z</time></trkpt><trkpt lat="43.36588746784545" lon="12.91364547443126"><ele>341.0</ele><time>2026-04-18T13:06:27Z</time></trkpt><trkpt lat="43.36569248609609" lon="12.913498720300417"><ele>341.0</ele><time>2026-04-18T13:06:28Z</time></trkpt><trkpt lat="43.36548088787757" lon="12.91343528042165"><ele>341.0</ele><time>2026-04-18T13:06:29Z</time></trkpt><trkpt lat="43.365256607397384" lon="12.913414827839416"><ele>338.5</ele><time>2026-04-18T13:06:30Z</time></trkpt><trkpt lat="43.365010152924604" lon="12.913372378113227"><ele>336.0</ele><time>2026-04-18T13:06:31Z</time></trkpt><trkpt lat="43.36477609467507" lon="12.913316220110161"><ele>334.0</ele><time>2026-04-18T13:06:32Z</time></trkpt><trkpt lat="43.36455460501649" lon="12.913248669666775"><ele>332.0</ele><time>2026-04-18T13:06:33Z</time></trkpt><trkpt lat="43.36433302947733" lon="12.91317447647328"><ele>332.0</ele><time>2026-04-18T13:06:34Z</time></trkpt><trkpt lat="43.3641067936377" lon="12.913070302972526"><ele>332.0</ele><time>2026-04-18T13:06:35Z</time></trkpt><trkpt lat="43.36390963029203" lon="12.912885766065596"><ele>331.5</ele><time>2026-04-18T13:06:36Z</time></trkpt><trkpt lat="43.36369248169899" lon="12.912703148349383"><ele>331.0</ele><time>2026-04-18T13:06:37Z</time></trkpt><trkpt lat="43.363475751900985" lon="12.912473625685179"><ele>326.5</ele><time>2026-04-18T13:06:38Z</time></trkpt><trkpt lat="43.36325707928854" lon="12.912253052914764"><ele>322.0</ele><time>2026-04-18T13:06:39Z</time></trkpt><trkpt lat="43.36304298281609" lon="12.912037493312013"><ele>322.0</ele><time>2026-04-18T13:06:40Z</time></trkpt><trkpt lat="43.362828562239045" lon="12.911804681447315"><ele>322.0</ele><time>2026-04-18T13:06:41Z</time></trkpt><trkpt lat="43.36262795932114" lon="12.911576666626276"><ele>322.0</ele><time>2026-04-18T13:06:42Z</time></trkpt><trkpt lat="43.36242936896595" lon="12.911348209794198"><ele>322.0</ele><time>2026-04-18T13:06:43Z</time></trkpt><trkpt lat="43.36223021732152" lon="12.911121508626795"><ele>323.5</ele><time>2026-04-18T13:06:44Z</time></trkpt><trkpt lat="43.36202151830522" lon="12.91088208640031"><ele>325.0</ele><time>2026-04-18T13:06:45Z</time></trkpt><trkpt lat="43.361799879776285" lon="12.910635298699525"><ele>325.0</ele><time>2026-04-18T13:06:46Z</time></trkpt><trkpt lat="43.36157447707312" lon="12.91038064328988"><ele>325.0</ele><time>2026-04-18T13:06:47Z</time></trkpt><trkpt lat="43.361343818447004" lon="12.910118701105661"><ele>323.5</ele><time>2026-04-18T13:06:48Z</time></trkpt><trkpt lat="43.36112241043532" lon="12.90986129317288"><ele>322.0</ele><time>2026-04-18T13:06:49Z</time></trkpt><trkpt lat="43.36091495511352" lon="12.90961764553752"><ele>322.0</ele><time>2026-04-18T13:06:50Z</time></trkpt><trkpt lat="43.36071687674309" lon="12.90937830201047"><ele>322.0</ele><time>2026-04-18T13:06:51Z</time></trkpt><trkpt lat="43.360541268538995" lon="12.909125649817536"><ele>319.5</ele><time>2026-04-18T13:06:52Z</time></trkpt><trkpt lat="43.36040516712779" lon="12.908837533157369"><ele>317.0</ele><time>2026-04-18T13:06:53Z</time></trkpt><trkpt lat="43.36030239540085" lon="12.908529790787856"><ele>316.6666666666667</ele><time>2026-04-18T13:06:54Z</time></trkpt><trkpt lat="43.36021810850669" lon="12.908253548344144"><ele>316.3333333333333</ele><time>2026-04-18T13:06:55Z</time></trkpt><trkpt lat="43.36012360254414" lon="12.90803002840045"><ele>316.0</ele><time>2026-04-18T13:06:56Z</time></trkpt><trkpt lat="43.3599908444018" lon="12.907836075543269"><ele>316.0</ele><time>2026-04-18T13:06:57Z</time></trkpt><trkpt lat="43.35981019191998" lon="12.907700552779852"><ele>316.0</ele><time>2026-04-18T13:06:58Z</time></trkpt><trkpt lat="43.359608620500964" lon="12.907655093888438"><ele>316.0</ele><time>2026-04-18T13:06:59Z</time></trkpt><trkpt lat="43.35936292823455" lon="12.907656737345306"><ele>315.0</ele><time>2026-04-18T13:07:00Z</time></trkpt><trkpt lat="43.35906180646833" lon="12.90763619881687"><ele>314.0</ele><time>2026-04-18T13:07:01Z</time></trkpt><trkpt lat="43.3587582401511" lon="12.907593722771779"><ele>310.0</ele><time>2026-04-18T13:07:02Z</time></trkpt><trkpt lat="43.35845497888754" lon="12.907535411012057"><ele>306.0</ele><time>2026-04-18T13:07:03Z</time></trkpt><trkpt lat="43.35816853390049" lon="12.907479181211743"><ele>305.5</ele><time>2026-04-18T13:07:04Z</time></trkpt><trkpt lat="43.357907388560236" lon="12.90742607921436"><ele>305.0</ele><time>2026-04-18T13:07:05Z</time></trkpt><trkpt lat="43.35765354726951" lon="12.907355902396532"><ele>305.0</ele><time>2026-04-18T13:07:06Z</time></trkpt><trkpt lat="43.35740577990777" lon="12.907252085197442"><ele>305.0</ele><time>2026-04-18T13:07:07Z</time></trkpt><trkpt lat="43.357166326961625" lon="12.907132637255895"><ele>304.0</ele><time>2026-04-18T13:07:08Z</time></trkpt><trkpt lat="43.35694504877587" lon="12.90703265794221"><ele>303.0</ele><time>2026-04-18T13:07:09Z</time></trkpt><trkpt lat="43.35673768646244" lon="12.90697895910185"><ele>302.0</ele><time>2026-04-18T13:07:10Z</time></trkpt><trkpt lat="43.35653631682842" lon="12.906952256095513"><ele>301.6666666666667</ele><time>2026-04-18T13:07:11Z</time></trkpt><trkpt lat="43.356348430774204" lon="12.906950881597153"><ele>301.3333333333333</ele><time>2026-04-18T13:07:12Z</time></trkpt><trkpt lat="43.35619210597913" lon="12.906964044231152"><ele>301.0</ele><time>2026-04-18T13:07:13Z</time></trkpt><trkpt lat="43.35605528244569" lon="12.906977025320487"><ele>301.0</ele><time>2026-04-18T13:07:14Z</time></trkpt><trkpt lat="43.35592609791597" lon="12.90698682095489"><ele>301.0</ele><time>2026-04-18T13:07:15Z</time></trkpt><trkpt lat="43.3557976398274" lon="12.906991511633157"><ele>301.0</ele><time>2026-04-18T13:07:16Z</time></trkpt><trkpt lat="43.35566623600437" lon="12.906992740700897"><ele>301.0</ele><time>2026-04-18T13:07:17Z</time></trkpt><trkpt lat="43.355517330804915" lon="12.906992257406504"><ele>301.0</ele><time>2026-04-18T13:07:18Z</time></trkpt><trkpt lat="43.35536638191297" lon="12.907004232695938"><ele>301.0</ele><time>2026-04-18T13:07:19Z</time></trkpt><trkpt lat="43.35520556041745" lon="12.90705242627956"><ele>301.0</ele><time>2026-04-18T13:07:20Z</time></trkpt><trkpt lat="43.355042192679676" lon="12.90713261911661"><ele>301.0</ele><time>2026-04-18T13:07:21Z</time></trkpt><trkpt lat="43.35487943755082" lon="12.907226818869079"><ele>301.0</ele><time>2026-04-18T13:07:22Z</time></trkpt><trkpt lat="43.35472196621468" lon="12.907316119007703"><ele>301.0</ele><time>2026-04-18T13:07:23Z</time></trkpt><trkpt lat="43.35457005104389" lon="12.907398704592731"><ele>300.66666666666663</ele><time>2026-04-18T13:07:24Z</time></trkpt><trkpt lat="43.354426891367254" lon="12.907481441668985"><ele>300.3333333333333</ele><time>2026-04-18T13:07:25Z</time></trkpt><trkpt lat="43.3542813676328" lon="12.907575666643123"><ele>300.0</ele><time>2026-04-18T13:07:26Z</time></trkpt><trkpt lat="43.35414373157651" lon="12.907672794508967"><ele>299.6666666666667</ele><time>2026-04-18T13:07:27Z</time></trkpt><trkpt lat="43.35400985142843" lon="12.90777501134587"><ele>299.33333333333337</ele><time>2026-04-18T13:07:28Z</time></trkpt><trkpt lat="43.35387127326834" lon="12.907878975764948"><ele>299.0</ele><time>2026-04-18T13:07:29Z</time></trkpt><trkpt lat="43.35373083682767" lon="12.907988530955333"><ele>297.6666666666667</ele><time>2026-04-18T13:07:30Z</time></trkpt><trkpt lat="43.35359303442678" lon="12.908097253981756"><ele>296.3333333333333</ele><time>2026-04-18T13:07:31Z</time></trkpt><trkpt lat="43.35345708808006" lon="12.908204753796182"><ele>295.0</ele><time>2026-04-18T13:07:32Z</time></trkpt><trkpt lat="43.35333028982345" lon="12.908302330691058"><ele>295.0</ele><time>2026-04-18T13:07:33Z</time></trkpt><trkpt lat="43.35320350918367" lon="12.9083851101243"><ele>295.0</ele><time>2026-04-18T13:07:34Z</time></trkpt><trkpt lat="43.3530705326576" lon="12.908439027813154"><ele>295.0</ele><time>2026-04-18T13:07:35Z</time></trkpt><trkpt lat="43.3529361863574" lon="12.908456087168137"><ele>295.0</ele><time>2026-04-18T13:07:36Z</time></trkpt><trkpt lat="43.352790584868224" lon="12.90845286250782"><ele>295.0</ele><time>2026-04-18T13:07:37Z</time></trkpt><trkpt lat="43.352644747286185" lon="12.908425175107974"><ele>295.0</ele><time>2026-04-18T13:07:38Z</time></trkpt><trkpt lat="43.35249268232146" lon="12.908392433052638"><ele>295.0</ele><time>2026-04-18T13:07:39Z</time></trkpt><trkpt lat="43.35233576059324" lon="12.908358584148107"><ele>296.66666666666663</ele><time>2026-04-18T13:07:40Z</time></trkpt><trkpt lat="43.35217755009353" lon="12.908317987401103"><ele>298.3333333333333</ele><time>2026-04-18T13:07:41Z</time></trkpt><trkpt lat="43.352023821946815" lon="12.908271837271245"><ele>300.0</ele><time>2026-04-18T13:07:42Z</time></trkpt><trkpt lat="43.35186972945662" lon="12.90822531003537"><ele>300.0</ele><time>2026-04-18T13:07:43Z</time></trkpt><trkpt lat="43.351728512136276" lon="12.908185068680176"><ele>300.0</ele><time>2026-04-18T13:07:44Z</time></trkpt><trkpt lat="43.351599707832825" lon="12.90814852344772"><ele>300.0</ele><time>2026-04-18T13:07:45Z</time></trkpt><trkpt lat="43.351490710544496" lon="12.908117573513563"><ele>300.0</ele><time>2026-04-18T13:07:46Z</time></trkpt><trkpt lat="43.351410825415975" lon="12.908089759381905"><ele>300.8333333333333</ele><time>2026-04-18T13:07:47Z</time></trkpt><trkpt lat="43.351347865789485" lon="12.90806016781767"><ele>301.6666666666667</ele><time>2026-04-18T13:07:48Z</time></trkpt><trkpt lat="43.35127964690065" lon="12.908027482848665"><ele>302.5</ele><time>2026-04-18T13:07:49Z</time></trkpt><trkpt lat="43.35121197140745" lon="12.908015220849755"><ele>303.33333333333337</ele><time>2026-04-18T13:07:50Z</time></trkpt><trkpt lat="43.35114632164743" lon="12.908044715318216"><ele>304.1666666666667</ele><time>2026-04-18T13:07:51Z</time></trkpt><trkpt lat="43.35108656573201" lon="12.908114059060521"><ele>305.0</ele><time>2026-04-18T13:07:52Z</time></trkpt><trkpt lat="43.35105126819206" lon="12.908236098618193"><ele>305.0</ele><time>2026-04-18T13:07:53Z</time></trkpt><trkpt lat="43.351023516945766" lon="12.908406647765993"><ele>305.0</ele><time>2026-04-18T13:07:54Z</time></trkpt><trkpt lat="43.35097695774124" lon="12.908634846336799"><ele>305.0</ele><time>2026-04-18T13:07:55Z</time></trkpt><trkpt lat="43.35089951401498" lon="12.908864070987892"><ele>305.33333333333337</ele><time>2026-04-18T13:07:56Z</time></trkpt><trkpt lat="43.35078111215341" lon="12.909077462819804"><ele>305.6666666666667</ele><time>2026-04-18T13:07:57Z</time></trkpt><trkpt lat="43.35063517467314" lon="12.909274264409888"><ele>306.0</ele><time>2026-04-18T13:07:58Z</time></trkpt><trkpt lat="43.35046751474917" lon="12.909449926716695"><ele>306.6666666666667</ele><time>2026-04-18T13:07:59Z</time></trkpt><trkpt lat="43.35029817789171" lon="12.909624315339615"><ele>307.33333333333337</ele><time>2026-04-18T13:08:00Z</time></trkpt><trkpt lat="43.3501384966667" lon="12.909789947979679"><ele>308.0</ele><time>2026-04-18T13:08:01Z</time></trkpt><trkpt lat="43.34997851642246" lon="12.909949067558482"><ele>308.33333333333337</ele><time>2026-04-18T13:08:02Z</time></trkpt><trkpt lat="43.349827680842544" lon="12.910110561606611"><ele>308.6666666666667</ele><time>2026-04-18T13:08:03Z</time></trkpt><trkpt lat="43.34968632107517" lon="12.910284413563302"><ele>309.0</ele><time>2026-04-18T13:08:04Z</time></trkpt><trkpt lat="43.34955384571173" lon="12.910462919086688"><ele>308.0</ele><time>2026-04-18T13:08:05Z</time></trkpt><trkpt lat="43.34944605546624" lon="12.910643810106208"><ele>307.0</ele><time>2026-04-18T13:08:06Z</time></trkpt><trkpt lat="43.349366041076905" lon="12.910812399255262"><ele>306.0</ele><time>2026-04-18T13:08:07Z</time></trkpt><trkpt lat="43.34931674432055" lon="12.910970949880342"><ele>305.0</ele><time>2026-04-18T13:08:08Z</time></trkpt><trkpt lat="43.34927570810825" lon="12.91110778852321"><ele>304.6</ele><time>2026-04-18T13:08:09Z</time></trkpt><trkpt lat="43.34921019221378" lon="12.911215709590554"><ele>304.2</ele><time>2026-04-18T13:08:10Z</time></trkpt><trkpt lat="43.349131760218924" lon="12.911284591885037"><ele>303.8</ele><time>2026-04-18T13:08:11Z</time></trkpt><trkpt lat="43.34908162737165" lon="12.911359562720524"><ele>303.4</ele><time>2026-04-18T13:08:12Z</time></trkpt><trkpt lat="43.349083104077046" lon="12.911454150514412"><ele>303.0</ele><time>2026-04-18T13:08:13Z</time></trkpt><trkpt lat="43.349177692089825" lon="12.91169190257115"><ele>302.5</ele><time>2026-04-18T13:08:15Z</time></trkpt><trkpt lat="43.34919709267374" lon="12.911851514601674"><ele>302.0</ele><time>2026-04-18T13:08:16Z</time></trkpt><trkpt lat="43.34918379614984" lon="12.912022913785506"><ele>301.5</ele><time>2026-04-18T13:08:17Z</time></trkpt><trkpt lat="43.34915073567511" lon="12.91219323121813"><ele>301.0</ele><time>2026-04-18T13:08:18Z</time></trkpt><trkpt lat="43.3491239307101" lon="12.912376307463191"><ele>301.0</ele><time>2026-04-18T13:08:19Z</time></trkpt><trkpt lat="43.349108389333736" lon="12.912542175627175"><ele>301.0</ele><time>2026-04-18T13:08:20Z</time></trkpt><trkpt lat="43.34909508840912" lon="12.9126961821736"><ele>301.0</ele><time>2026-04-18T13:08:21Z</time></trkpt><trkpt lat="43.349081462531" lon="12.912846016516564"><ele>301.0</ele><time>2026-04-18T13:08:22Z</time></trkpt><trkpt lat="43.34907883342938" lon="12.913009278434368"><ele>301.0</ele><time>2026-04-18T13:08:23Z</time></trkpt><trkpt lat="43.349089070517394" lon="12.913185961168859"><ele>301.0</ele><time>2026-04-18T13:08:24Z</time></trkpt><trkpt lat="43.34911413945115" lon="12.913345231241678"><ele>301.0</ele><time>2026-04-18T13:08:25Z</time></trkpt><trkpt lat="43.34915370516588" lon="12.913492406941046"><ele>301.0</ele><time>2026-04-18T13:08:26Z</time></trkpt><trkpt lat="43.34920123109355" lon="12.913640138058112"><ele>301.0</ele><time>2026-04-18T13:08:27Z</time></trkpt><trkpt lat="43.349247717063875" lon="12.913795474228769"><ele>301.0</ele><time>2026-04-18T13:08:28Z</time></trkpt><trkpt lat="43.349295684884545" lon="12.913943708748025"><ele>301.0</ele><time>2026-04-18T13:08:29Z</time></trkpt><trkpt lat="43.34933518425128" lon="12.914079238013711"><ele>301.0</ele><time>2026-04-18T13:08:30Z</time></trkpt><trkpt lat="43.349378263981464" lon="12.914213731481379"><ele>300.25</ele><time>2026-04-18T13:08:31Z</time></trkpt><trkpt lat="43.34942534700392" lon="12.914353441440404"><ele>299.5</ele><time>2026-04-18T13:08:32Z</time></trkpt><trkpt lat="43.34948012262301" lon="12.914499406633118"><ele>298.75</ele><time>2026-04-18T13:08:33Z</time></trkpt><trkpt lat="43.34954858883578" lon="12.91464678671787"><ele>298.0</ele><time>2026-04-18T13:08:34Z</time></trkpt><trkpt lat="43.34964232767717" lon="12.914807773561533"><ele>298.66666666666663</ele><time>2026-04-18T13:08:35Z</time></trkpt><trkpt lat="43.34975231638731" lon="12.914968046893271"><ele>299.3333333333333</ele><time>2026-04-18T13:08:36Z</time></trkpt><trkpt lat="43.34985471837386" lon="12.915118403381438"><ele>300.0</ele><time>2026-04-18T13:08:37Z</time></trkpt><trkpt lat="43.34996193575299" lon="12.91527494441975"><ele>300.0</ele><time>2026-04-18T13:08:38Z</time></trkpt><trkpt lat="43.350071162283086" lon="12.91547157655958"><ele>300.0</ele><time>2026-04-18T13:08:39Z</time></trkpt><trkpt lat="43.35021402823706" lon="12.915666148932024"><ele>300.0</ele><time>2026-04-18T13:08:40Z</time></trkpt><trkpt lat="43.350348175174986" lon="12.91587409799243"><ele>298.3333333333333</ele><time>2026-04-18T13:08:41Z</time></trkpt><trkpt lat="43.350483752118045" lon="12.916079076722967"><ele>296.66666666666663</ele><time>2026-04-18T13:08:42Z</time></trkpt><trkpt lat="43.350682376461705" lon="12.91628179636974"><ele>295.0</ele><time>2026-04-18T13:08:43Z</time></trkpt><trkpt lat="43.350849456133396" lon="12.91651646515522"><ele>295.0</ele><time>2026-04-18T13:08:44Z</time></trkpt><trkpt lat="43.35100488789294" lon="12.916723090668691"><ele>295.0</ele><time>2026-04-18T13:08:45Z</time></trkpt><trkpt lat="43.351140749136036" lon="12.91690909239633"><ele>295.0</ele><time>2026-04-18T13:08:46Z</time></trkpt><trkpt lat="43.35123531788783" lon="12.917112170568522"><ele>292.3333333333333</ele><time>2026-04-18T13:08:47Z</time></trkpt><trkpt lat="43.35129458993031" lon="12.917339759132558"><ele>289.6666666666667</ele><time>2026-04-18T13:08:48Z</time></trkpt><trkpt lat="43.351318536678136" lon="12.917589471017783"><ele>287.0</ele><time>2026-04-18T13:08:49Z</time></trkpt><trkpt lat="43.35132534806037" lon="12.917838365093138"><ele>287.0</ele><time>2026-04-18T13:08:50Z</time></trkpt><trkpt lat="43.351347518677656" lon="12.918075740745463"><ele>287.0</ele><time>2026-04-18T13:08:51Z</time></trkpt><trkpt lat="43.351409539034236" lon="12.918317052325976"><ele>287.0</ele><time>2026-04-18T13:08:52Z</time></trkpt><trkpt lat="43.35152705060875" lon="12.918547831728535"><ele>287.0</ele><time>2026-04-18T13:08:53Z</time></trkpt><trkpt lat="43.35167296272835" lon="12.918779821295857"><ele>287.0</ele><time>2026-04-18T13:08:54Z</time></trkpt><trkpt lat="43.35181358841162" lon="12.919000651543671"><ele>287.0</ele><time>2026-04-18T13:08:55Z</time></trkpt><trkpt lat="43.35193801220503" lon="12.919206330884428"><ele>286.0</ele><time>2026-04-18T13:08:56Z</time></trkpt><trkpt lat="43.352058264409955" lon="12.919398228408282"><ele>285.0</ele><time>2026-04-18T13:08:57Z</time></trkpt><trkpt lat="43.35218299377151" lon="12.919571144198487"><ele>284.0</ele><time>2026-04-18T13:08:58Z</time></trkpt><trkpt lat="43.35231144924817" lon="12.919719502018362"><ele>284.0</ele><time>2026-04-18T13:08:59Z</time></trkpt><trkpt lat="43.352442202217546" lon="12.919851535964794"><ele>284.0</ele><time>2026-04-18T13:09:00Z</time></trkpt><trkpt lat="43.35255523370508" lon="12.919948281497481"><ele>284.0</ele><time>2026-04-18T13:09:01Z</time></trkpt><trkpt lat="43.35264407882867" lon="12.920029391195474"><ele>284.0</ele><time>2026-04-18T13:09:02Z</time></trkpt><trkpt lat="43.352708735638736" lon="12.920110601836345"><ele>283.8</ele><time>2026-04-18T13:09:03Z</time></trkpt><trkpt lat="43.35274089008005" lon="12.920207712710866"><ele>283.59999999999997</ele><time>2026-04-18T13:09:04Z</time></trkpt><trkpt lat="43.352736180375146" lon="12.920312670584947"><ele>283.4</ele><time>2026-04-18T13:09:05Z</time></trkpt><trkpt lat="43.35268345077484" lon="12.920404100709169"><ele>283.2</ele><time>2026-04-18T13:09:06Z</time></trkpt><trkpt lat="43.35259144140469" lon="12.920517069089867"><ele>283.0</ele><time>2026-04-18T13:09:07Z</time></trkpt><trkpt lat="43.3524759141134" lon="12.92067413744641"><ele>283.0</ele><time>2026-04-18T13:09:08Z</time></trkpt><trkpt lat="43.352358337793795" lon="12.920862658180445"><ele>283.0</ele><time>2026-04-18T13:09:09Z</time></trkpt><trkpt lat="43.35223548227084" lon="12.921067014203476"><ele>283.0</ele><time>2026-04-18T13:09:10Z</time></trkpt><trkpt lat="43.352115553866334" lon="12.92130085497078"><ele>285.3333333333333</ele><time>2026-04-18T13:09:11Z</time></trkpt><trkpt lat="43.35200305396643" lon="12.921518093400449"><ele>287.6666666666667</ele><time>2026-04-18T13:09:12Z</time></trkpt><trkpt lat="43.35188004608191" lon="12.921682230120025"><ele>290.0</ele><time>2026-04-18T13:09:13Z</time></trkpt><trkpt lat="43.351750975217094" lon="12.921796012795554"><ele>292.6666666666667</ele><time>2026-04-18T13:09:14Z</time></trkpt><trkpt lat="43.35161814594886" lon="12.921912409412611"><ele>295.3333333333333</ele><time>2026-04-18T13:09:15Z</time></trkpt><trkpt lat="43.35148551389918" lon="12.922045784838303"><ele>298.0</ele><time>2026-04-18T13:09:16Z</time></trkpt><trkpt lat="43.35136563861285" lon="12.922168966104527"><ele>298.0</ele><time>2026-04-18T13:09:17Z</time></trkpt><trkpt lat="43.351260625518464" lon="12.922275562856168"><ele>298.0</ele><time>2026-04-18T13:09:18Z</time></trkpt><trkpt lat="43.351170778028525" lon="12.922366851741618"><ele>298.0</ele><time>2026-04-18T13:09:19Z</time></trkpt><trkpt lat="43.35110503494929" lon="12.92242747838867"><ele>298.0</ele><time>2026-04-18T13:09:20Z</time></trkpt><trkpt lat="43.35099558732223" lon="12.92251143524393"><ele>298.0</ele><time>2026-04-18T13:09:22Z</time></trkpt><trkpt lat="43.35089796363456" lon="12.92261054736161"><ele>298.0</ele><time>2026-04-18T13:09:23Z</time></trkpt><trkpt lat="43.350766460177866" lon="12.922746748746963"><ele>298.0</ele><time>2026-04-18T13:09:24Z</time></trkpt><trkpt lat="43.35062259318128" lon="12.922881595178046"><ele>298.0</ele><time>2026-04-18T13:09:25Z</time></trkpt><trkpt lat="43.350477198328875" lon="12.923013659177078"><ele>298.0</ele><time>2026-04-18T13:09:26Z</time></trkpt><trkpt lat="43.35033308157844" lon="12.923144301869822"><ele>298.0</ele><time>2026-04-18T13:09:27Z</time></trkpt><trkpt lat="43.350192572486975" lon="12.923272782998042"><ele>298.0</ele><time>2026-04-18T13:09:28Z</time></trkpt><trkpt lat="43.350038634963425" lon="12.92341966049741"><ele>298.0</ele><time>2026-04-18T13:09:29Z</time></trkpt><trkpt lat="43.3498742777068" lon="12.923573130834018"><ele>298.0</ele><time>2026-04-18T13:09:30Z</time></trkpt><trkpt lat="43.34972649454697" lon="12.923707719583422"><ele>298.0</ele><time>2026-04-18T13:09:31Z</time></trkpt><trkpt lat="43.34958257110808" lon="12.923837883479386"><ele>298.3333333333333</ele><time>2026-04-18T13:09:32Z</time></trkpt><trkpt lat="43.349442605281176" lon="12.923962698426147"><ele>298.6666666666667</ele><time>2026-04-18T13:09:33Z</time></trkpt><trkpt lat="43.34930773172785" lon="12.924081717714094"><ele>299.0</ele><time>2026-04-18T13:09:34Z</time></trkpt><trkpt lat="43.34918355030045" lon="12.924191855421979"><ele>299.25</ele><time>2026-04-18T13:09:35Z</time></trkpt><trkpt lat="43.34906728777621" lon="12.924292045321215"><ele>299.5</ele><time>2026-04-18T13:09:36Z</time></trkpt><trkpt lat="43.34896087052289" lon="12.924378475549387"><ele>299.75</ele><time>2026-04-18T13:09:37Z</time></trkpt><trkpt lat="43.34886566547123" lon="12.924455824114169"><ele>300.0</ele><time>2026-04-18T13:09:38Z</time></trkpt><trkpt lat="43.3487830783866" lon="12.924519541924004"><ele>300.2</ele><time>2026-04-18T13:09:39Z</time></trkpt><trkpt lat="43.348714955242436" lon="12.924574731812053"><ele>300.4</ele><time>2026-04-18T13:09:40Z</time></trkpt><trkpt lat="43.3486587982771" lon="12.92462490648758"><ele>300.6</ele><time>2026-04-18T13:09:41Z</time></trkpt><trkpt lat="43.34856011053453" lon="12.924713347788247"><ele>300.8</ele><time>2026-04-18T13:09:43Z</time></trkpt><trkpt lat="43.348495057883156" lon="12.924752809538342"><ele>301.0</ele><time>2026-04-18T13:09:44Z</time></trkpt><trkpt lat="43.34833457815141" lon="12.924649719790875"><ele>301.0</ele><time>2026-04-18T13:09:46Z</time></trkpt><trkpt lat="43.3482383723506" lon="12.924504339295625"><ele>301.0</ele><time>2026-04-18T13:09:47Z</time></trkpt><trkpt lat="43.348125987500616" lon="12.924328520533683"><ele>301.0</ele><time>2026-04-18T13:09:48Z</time></trkpt><trkpt lat="43.34798074058901" lon="12.924128971891776"><ele>302.0</ele><time>2026-04-18T13:09:49Z</time></trkpt><trkpt lat="43.34783328898704" lon="12.923880866553038"><ele>303.0</ele><time>2026-04-18T13:09:50Z</time></trkpt><trkpt lat="43.34771135370976" lon="12.923668503262535"><ele>304.0</ele><time>2026-04-18T13:09:51Z</time></trkpt><trkpt lat="43.34756950493413" lon="12.923417869829873"><ele>303.66666666666663</ele><time>2026-04-18T13:09:52Z</time></trkpt><trkpt lat="43.34742802646404" lon="12.923176015951057"><ele>303.3333333333333</ele><time>2026-04-18T13:09:53Z</time></trkpt><trkpt lat="43.347306932970746" lon="12.922966401503487"><ele>303.0</ele><time>2026-04-18T13:09:54Z</time></trkpt><trkpt lat="43.34718843162214" lon="12.922772201441937"><ele>304.3333333333333</ele><time>2026-04-18T13:09:55Z</time></trkpt><trkpt lat="43.3470781754772" lon="12.92259616741846"><ele>305.66666666666663</ele><time>2026-04-18T13:09:56Z</time></trkpt><trkpt lat="43.346978336672905" lon="12.92243722594736"><ele>307.0</ele><time>2026-04-18T13:09:57Z</time></trkpt><trkpt lat="43.346887584897644" lon="12.922289414604926"><ele>307.0</ele><time>2026-04-18T13:09:58Z</time></trkpt><trkpt lat="43.3468059403846" lon="12.922153460205278"><ele>307.0</ele><time>2026-04-18T13:09:59Z</time></trkpt><trkpt lat="43.34673277216852" lon="12.922032238214491"><ele>307.0</ele><time>2026-04-18T13:10:00Z</time></trkpt><trkpt lat="43.34667765771293" lon="12.92190882327184"><ele>307.0</ele><time>2026-04-18T13:10:01Z</time></trkpt><trkpt lat="43.346660322333044" lon="12.921777068111156"><ele>307.0</ele><time>2026-04-18T13:10:02Z</time></trkpt><trkpt lat="43.34667323715117" lon="12.921649956901742"><ele>306.8333333333333</ele><time>2026-04-18T13:10:03Z</time></trkpt><trkpt lat="43.3466790110909" lon="12.921536695703315"><ele>306.66666666666663</ele><time>2026-04-18T13:10:04Z</time></trkpt><trkpt lat="43.34664991992572" lon="12.921440464221755"><ele>306.5</ele><time>2026-04-18T13:10:05Z</time></trkpt><trkpt lat="43.346589915944364" lon="12.921364533791818"><ele>306.3333333333333</ele><time>2026-04-18T13:10:06Z</time></trkpt><trkpt lat="43.346508820232216" lon="12.921319898951747"><ele>306.1666666666667</ele><time>2026-04-18T13:10:07Z</time></trkpt><trkpt lat="43.34643547680892" lon="12.92130933234062"><ele>306.0</ele><time>2026-04-18T13:10:08Z</time></trkpt><trkpt lat="43.34636096291105" lon="12.921294795955493"><ele>306.0</ele><time>2026-04-18T13:10:09Z</time></trkpt><trkpt lat="43.346282098311654" lon="12.92131678442087"><ele>306.0</ele><time>2026-04-18T13:10:10Z</time></trkpt><trkpt lat="43.34621023029831" lon="12.921166386481598"><ele>306.0</ele><time>2026-04-18T13:10:11Z</time></trkpt><trkpt lat="43.34614240616285" lon="12.921051977529142"><ele>306.0</ele><time>2026-04-18T13:10:12Z</time></trkpt><trkpt lat="43.34606374707292" lon="12.92091565079072"><ele>306.0</ele><time>2026-04-18T13:10:13Z</time></trkpt><trkpt lat="43.34598217760914" lon="12.920779952777554"><ele>305.75</ele><time>2026-04-18T13:10:14Z</time></trkpt><trkpt lat="43.345906022049114" lon="12.9206527227862"><ele>305.5</ele><time>2026-04-18T13:10:15Z</time></trkpt><trkpt lat="43.34582872751997" lon="12.92052612643571"><ele>305.25</ele><time>2026-04-18T13:10:16Z</time></trkpt><trkpt lat="43.345750449542955" lon="12.920403298966066"><ele>305.0</ele><time>2026-04-18T13:10:17Z</time></trkpt><trkpt lat="43.34568108678617" lon="12.920288956449639"><ele>305.0</ele><time>2026-04-18T13:10:18Z</time></trkpt><trkpt lat="43.345617456213475" lon="12.920184450203694"><ele>305.0</ele><time>2026-04-18T13:10:19Z</time></trkpt><trkpt lat="43.34556335688534" lon="12.920096985652288"><ele>305.0</ele><time>2026-04-18T13:10:20Z</time></trkpt><trkpt lat="43.34551709187018" lon="12.920024439501905"><ele>305.0</ele><time>2026-04-18T13:10:21Z</time></trkpt><trkpt lat="43.345467757380305" lon="12.919960711058916"><ele>305.0</ele><time>2026-04-18T13:10:28Z</time></trkpt><trkpt lat="43.345316193842315" lon="12.919970960744893"><ele>309.0</ele><time>2026-04-18T13:10:32Z</time></trkpt><trkpt lat="43.345415957998895" lon="12.920145548344465"><ele>313.0</ele><time>2026-04-18T13:10:33Z</time></trkpt><trkpt lat="43.34546506772278" lon="12.920202276826087"><ele>313.0</ele><time>2026-04-18T13:10:34Z</time></trkpt><trkpt lat="43.34552876471381" lon="12.920308297018869"><ele>313.0</ele><time>2026-04-18T13:10:36Z</time></trkpt><trkpt lat="43.34558174625059" lon="12.920404610617782"><ele>305.0</ele><time>2026-04-18T13:10:38Z</time></trkpt></trkseg></trk></gpx>